<?xml version="1.0" encoding="UTF-8" standalone="no" ?>
<gpx xmlns="http://www.topografix.com/GPX/1/1" xmlns:xsi="http://www.w3.org/2001/XMLSchema-instance" xsi:schemaLocation="http://www.topografix.com/GPX/1/1 http://www.topografix.com/GPX/1/1/gpx.xsd" version="1.1" creator="VisuGPX - https://www.visugpx.com">
  <metadata>
    <name>Sugiton, Morgiou, Sormiou</name>
    <desc><![CDATA[Départ du parking de la fac de sciences, descente par les falaises, puis, longer la mer.]]></desc>
  </metadata>
  <trk>
    <name><![CDATA[Sugiton, Morgiou, Sormiou_1]]></name>
    <trkseg>
      <trkpt lat="43.2306" lon="5.43635">
        <ele>140</ele>
        <time>2012-05-01T07:42:39Z</time>
      </trkpt>
      <trkpt lat="43.23053" lon="5.43672">
        <ele>136</ele>
        <time>2012-05-01T07:43:09Z</time>
      </trkpt>
      <trkpt lat="43.23052" lon="5.43679">
        <ele>137</ele>
        <time>2012-05-01T07:43:22Z</time>
      </trkpt>
      <trkpt lat="43.23052" lon="5.43678">
        <ele>137</ele>
        <time>2012-05-01T07:43:33Z</time>
      </trkpt>
      <trkpt lat="43.23045" lon="5.43677">
        <ele>137</ele>
        <time>2012-05-01T07:43:43Z</time>
      </trkpt>
      <trkpt lat="43.23038" lon="5.4368">
        <ele>138</ele>
        <time>2012-05-01T07:43:53Z</time>
      </trkpt>
      <trkpt lat="43.23027" lon="5.4368">
        <ele>138</ele>
        <time>2012-05-01T07:44:02Z</time>
      </trkpt>
      <trkpt lat="43.23018" lon="5.43681">
        <ele>138</ele>
        <time>2012-05-01T07:44:11Z</time>
      </trkpt>
      <trkpt lat="43.23008" lon="5.43683">
        <ele>139</ele>
        <time>2012-05-01T07:44:21Z</time>
      </trkpt>
      <trkpt lat="43.23" lon="5.43686">
        <ele>139</ele>
        <time>2012-05-01T07:44:31Z</time>
      </trkpt>
      <trkpt lat="43.22991" lon="5.43691">
        <ele>139</ele>
        <time>2012-05-01T07:44:41Z</time>
      </trkpt>
      <trkpt lat="43.22982" lon="5.43695">
        <ele>139</ele>
        <time>2012-05-01T07:44:51Z</time>
      </trkpt>
      <trkpt lat="43.22972" lon="5.437">
        <ele>139</ele>
        <time>2012-05-01T07:45:01Z</time>
      </trkpt>
      <trkpt lat="43.22966" lon="5.43705">
        <ele>141</ele>
        <time>2012-05-01T07:45:11Z</time>
      </trkpt>
      <trkpt lat="43.22956" lon="5.43704">
        <ele>142</ele>
        <time>2012-05-01T07:45:20Z</time>
      </trkpt>
      <trkpt lat="43.22947" lon="5.43702">
        <ele>142</ele>
        <time>2012-05-01T07:45:29Z</time>
      </trkpt>
      <trkpt lat="43.22939" lon="5.43705">
        <ele>142</ele>
        <time>2012-05-01T07:45:39Z</time>
      </trkpt>
      <trkpt lat="43.22926" lon="5.43705">
        <ele>142</ele>
        <time>2012-05-01T07:45:49Z</time>
      </trkpt>
      <trkpt lat="43.22914" lon="5.43708">
        <ele>144</ele>
        <time>2012-05-01T07:45:58Z</time>
      </trkpt>
      <trkpt lat="43.22904" lon="5.43709">
        <ele>145</ele>
        <time>2012-05-01T07:46:07Z</time>
      </trkpt>
      <trkpt lat="43.22892" lon="5.43708">
        <ele>149</ele>
        <time>2012-05-01T07:46:16Z</time>
      </trkpt>
      <trkpt lat="43.22882" lon="5.43711">
        <ele>149</ele>
        <time>2012-05-01T07:46:25Z</time>
      </trkpt>
      <trkpt lat="43.22871" lon="5.43714">
        <ele>149</ele>
        <time>2012-05-01T07:46:35Z</time>
      </trkpt>
      <trkpt lat="43.22861" lon="5.43715">
        <ele>149</ele>
        <time>2012-05-01T07:46:44Z</time>
      </trkpt>
      <trkpt lat="43.2285" lon="5.43716">
        <ele>149</ele>
        <time>2012-05-01T07:46:54Z</time>
      </trkpt>
      <trkpt lat="43.2284" lon="5.43717">
        <ele>150</ele>
        <time>2012-05-01T07:47:03Z</time>
      </trkpt>
      <trkpt lat="43.22831" lon="5.43718">
        <ele>150</ele>
        <time>2012-05-01T07:47:13Z</time>
      </trkpt>
      <trkpt lat="43.22822" lon="5.4372">
        <ele>150</ele>
        <time>2012-05-01T07:47:22Z</time>
      </trkpt>
      <trkpt lat="43.22813" lon="5.43721">
        <ele>150</ele>
        <time>2012-05-01T07:47:31Z</time>
      </trkpt>
      <trkpt lat="43.22803" lon="5.43723">
        <ele>150</ele>
        <time>2012-05-01T07:47:40Z</time>
      </trkpt>
      <trkpt lat="43.22793" lon="5.43723">
        <ele>150</ele>
        <time>2012-05-01T07:47:49Z</time>
      </trkpt>
      <trkpt lat="43.22783" lon="5.4372">
        <ele>152</ele>
        <time>2012-05-01T07:47:58Z</time>
      </trkpt>
      <trkpt lat="43.22772" lon="5.43719">
        <ele>156</ele>
        <time>2012-05-01T07:48:07Z</time>
      </trkpt>
      <trkpt lat="43.22762" lon="5.43719">
        <ele>156</ele>
        <time>2012-05-01T07:48:16Z</time>
      </trkpt>
      <trkpt lat="43.22752" lon="5.43718">
        <ele>156</ele>
        <time>2012-05-01T07:48:25Z</time>
      </trkpt>
      <trkpt lat="43.22741" lon="5.43721">
        <ele>156</ele>
        <time>2012-05-01T07:48:35Z</time>
      </trkpt>
      <trkpt lat="43.22732" lon="5.43725">
        <ele>156</ele>
        <time>2012-05-01T07:48:44Z</time>
      </trkpt>
      <trkpt lat="43.22722" lon="5.43729">
        <ele>156</ele>
        <time>2012-05-01T07:48:53Z</time>
      </trkpt>
      <trkpt lat="43.22712" lon="5.43735">
        <ele>156</ele>
        <time>2012-05-01T07:49:02Z</time>
      </trkpt>
      <trkpt lat="43.22702" lon="5.43742">
        <ele>156</ele>
        <time>2012-05-01T07:49:11Z</time>
      </trkpt>
      <trkpt lat="43.22692" lon="5.43749">
        <ele>156</ele>
        <time>2012-05-01T07:49:21Z</time>
      </trkpt>
      <trkpt lat="43.22682" lon="5.43757">
        <ele>156</ele>
        <time>2012-05-01T07:49:31Z</time>
      </trkpt>
      <trkpt lat="43.22672" lon="5.43765">
        <ele>156</ele>
        <time>2012-05-01T07:49:41Z</time>
      </trkpt>
      <trkpt lat="43.22663" lon="5.43774">
        <ele>156</ele>
        <time>2012-05-01T07:49:50Z</time>
      </trkpt>
      <trkpt lat="43.22653" lon="5.43781">
        <ele>156</ele>
        <time>2012-05-01T07:50:00Z</time>
      </trkpt>
      <trkpt lat="43.22643" lon="5.43788">
        <ele>156</ele>
        <time>2012-05-01T07:50:09Z</time>
      </trkpt>
      <trkpt lat="43.22633" lon="5.43794">
        <ele>156</ele>
        <time>2012-05-01T07:50:18Z</time>
      </trkpt>
      <trkpt lat="43.22621" lon="5.43796">
        <ele>156</ele>
        <time>2012-05-01T07:50:27Z</time>
      </trkpt>
      <trkpt lat="43.22607" lon="5.43799">
        <ele>156</ele>
        <time>2012-05-01T07:50:36Z</time>
      </trkpt>
      <trkpt lat="43.22596" lon="5.43801">
        <ele>156</ele>
        <time>2012-05-01T07:50:46Z</time>
      </trkpt>
      <trkpt lat="43.22585" lon="5.43804">
        <ele>156</ele>
        <time>2012-05-01T07:50:56Z</time>
      </trkpt>
      <trkpt lat="43.22573" lon="5.43805">
        <ele>156</ele>
        <time>2012-05-01T07:51:06Z</time>
      </trkpt>
      <trkpt lat="43.22563" lon="5.43806">
        <ele>156</ele>
        <time>2012-05-01T07:51:15Z</time>
      </trkpt>
      <trkpt lat="43.22554" lon="5.43805">
        <ele>154</ele>
        <time>2012-05-01T07:51:25Z</time>
      </trkpt>
      <trkpt lat="43.22543" lon="5.43807">
        <ele>152</ele>
        <time>2012-05-01T07:51:34Z</time>
      </trkpt>
      <trkpt lat="43.22531" lon="5.43809">
        <ele>152</ele>
        <time>2012-05-01T07:51:43Z</time>
      </trkpt>
      <trkpt lat="43.2252" lon="5.4381">
        <ele>153</ele>
        <time>2012-05-01T07:51:52Z</time>
      </trkpt>
      <trkpt lat="43.22508" lon="5.43808">
        <ele>154</ele>
        <time>2012-05-01T07:52:01Z</time>
      </trkpt>
      <trkpt lat="43.22498" lon="5.43808">
        <ele>154</ele>
        <time>2012-05-01T07:52:10Z</time>
      </trkpt>
      <trkpt lat="43.22488" lon="5.43806">
        <ele>154</ele>
        <time>2012-05-01T07:52:20Z</time>
      </trkpt>
      <trkpt lat="43.22478" lon="5.43806">
        <ele>151</ele>
        <time>2012-05-01T07:52:29Z</time>
      </trkpt>
      <trkpt lat="43.22467" lon="5.43807">
        <ele>149</ele>
        <time>2012-05-01T07:52:38Z</time>
      </trkpt>
      <trkpt lat="43.22456" lon="5.43811">
        <ele>149</ele>
        <time>2012-05-01T07:52:48Z</time>
      </trkpt>
      <trkpt lat="43.22444" lon="5.43822">
        <ele>149</ele>
        <time>2012-05-01T07:52:57Z</time>
      </trkpt>
      <trkpt lat="43.22434" lon="5.43831">
        <ele>152</ele>
        <time>2012-05-01T07:53:06Z</time>
      </trkpt>
      <trkpt lat="43.22425" lon="5.43839">
        <ele>152</ele>
        <time>2012-05-01T07:53:15Z</time>
      </trkpt>
      <trkpt lat="43.22412" lon="5.43846">
        <ele>157</ele>
        <time>2012-05-01T07:53:25Z</time>
      </trkpt>
      <trkpt lat="43.224" lon="5.43851">
        <ele>157</ele>
        <time>2012-05-01T07:53:35Z</time>
      </trkpt>
      <trkpt lat="43.22389" lon="5.43856">
        <ele>157</ele>
        <time>2012-05-01T07:53:44Z</time>
      </trkpt>
      <trkpt lat="43.22381" lon="5.43863">
        <ele>157</ele>
        <time>2012-05-01T07:53:53Z</time>
      </trkpt>
      <trkpt lat="43.2237" lon="5.43871">
        <ele>157</ele>
        <time>2012-05-01T07:54:03Z</time>
      </trkpt>
      <trkpt lat="43.22362" lon="5.43879">
        <ele>158</ele>
        <time>2012-05-01T07:54:12Z</time>
      </trkpt>
      <trkpt lat="43.22353" lon="5.43888">
        <ele>158</ele>
        <time>2012-05-01T07:54:22Z</time>
      </trkpt>
      <trkpt lat="43.22344" lon="5.439">
        <ele>160</ele>
        <time>2012-05-01T07:54:32Z</time>
      </trkpt>
      <trkpt lat="43.22338" lon="5.4391">
        <ele>160</ele>
        <time>2012-05-01T07:54:41Z</time>
      </trkpt>
      <trkpt lat="43.22329" lon="5.43922">
        <ele>160</ele>
        <time>2012-05-01T07:54:51Z</time>
      </trkpt>
      <trkpt lat="43.22321" lon="5.43932">
        <ele>158</ele>
        <time>2012-05-01T07:55:00Z</time>
      </trkpt>
      <trkpt lat="43.22313" lon="5.43941">
        <ele>158</ele>
        <time>2012-05-01T07:55:09Z</time>
      </trkpt>
      <trkpt lat="43.22303" lon="5.43949">
        <ele>158</ele>
        <time>2012-05-01T07:55:19Z</time>
      </trkpt>
      <trkpt lat="43.22295" lon="5.43956">
        <ele>158</ele>
        <time>2012-05-01T07:55:28Z</time>
      </trkpt>
      <trkpt lat="43.22283" lon="5.43968">
        <ele>158</ele>
        <time>2012-05-01T07:55:38Z</time>
      </trkpt>
      <trkpt lat="43.22272" lon="5.43973">
        <ele>159</ele>
        <time>2012-05-01T07:55:47Z</time>
      </trkpt>
      <trkpt lat="43.22266" lon="5.4398">
        <ele>161</ele>
        <time>2012-05-01T07:55:56Z</time>
      </trkpt>
      <trkpt lat="43.22255" lon="5.43985">
        <ele>162</ele>
        <time>2012-05-01T07:56:06Z</time>
      </trkpt>
      <trkpt lat="43.22248" lon="5.4399">
        <ele>162</ele>
        <time>2012-05-01T07:56:15Z</time>
      </trkpt>
      <trkpt lat="43.22247" lon="5.43989">
        <ele>164</ele>
        <time>2012-05-01T07:56:44Z</time>
      </trkpt>
      <trkpt lat="43.22245" lon="5.43985">
        <ele>170</ele>
        <time>2012-05-01T07:56:54Z</time>
      </trkpt>
      <trkpt lat="43.22239" lon="5.43991">
        <ele>173</ele>
        <time>2012-05-01T07:57:03Z</time>
      </trkpt>
      <trkpt lat="43.22229" lon="5.43994">
        <ele>173</ele>
        <time>2012-05-01T07:57:13Z</time>
      </trkpt>
      <trkpt lat="43.22227" lon="5.43998">
        <ele>173</ele>
        <time>2012-05-01T07:57:26Z</time>
      </trkpt>
      <trkpt lat="43.22225" lon="5.43996">
        <ele>173</ele>
        <time>2012-05-01T07:57:44Z</time>
      </trkpt>
      <trkpt lat="43.22216" lon="5.43999">
        <ele>173</ele>
        <time>2012-05-01T07:57:54Z</time>
      </trkpt>
      <trkpt lat="43.22208" lon="5.44007">
        <ele>167</ele>
        <time>2012-05-01T07:58:03Z</time>
      </trkpt>
      <trkpt lat="43.22197" lon="5.44009">
        <ele>166</ele>
        <time>2012-05-01T07:58:13Z</time>
      </trkpt>
      <trkpt lat="43.22188" lon="5.44011">
        <ele>166</ele>
        <time>2012-05-01T07:58:22Z</time>
      </trkpt>
      <trkpt lat="43.22178" lon="5.44014">
        <ele>166</ele>
        <time>2012-05-01T07:58:31Z</time>
      </trkpt>
      <trkpt lat="43.22169" lon="5.44017">
        <ele>166</ele>
        <time>2012-05-01T07:58:40Z</time>
      </trkpt>
      <trkpt lat="43.22161" lon="5.44021">
        <ele>164</ele>
        <time>2012-05-01T07:58:49Z</time>
      </trkpt>
      <trkpt lat="43.22151" lon="5.44033">
        <ele>163</ele>
        <time>2012-05-01T07:58:59Z</time>
      </trkpt>
      <trkpt lat="43.2214" lon="5.4404">
        <ele>168</ele>
        <time>2012-05-01T07:59:08Z</time>
      </trkpt>
      <trkpt lat="43.22131" lon="5.4405">
        <ele>171</ele>
        <time>2012-05-01T07:59:18Z</time>
      </trkpt>
      <trkpt lat="43.22123" lon="5.4406">
        <ele>172</ele>
        <time>2012-05-01T07:59:28Z</time>
      </trkpt>
      <trkpt lat="43.22115" lon="5.44067">
        <ele>172</ele>
        <time>2012-05-01T07:59:38Z</time>
      </trkpt>
      <trkpt lat="43.22106" lon="5.44074">
        <ele>172</ele>
        <time>2012-05-01T07:59:47Z</time>
      </trkpt>
      <trkpt lat="43.22097" lon="5.44081">
        <ele>172</ele>
        <time>2012-05-01T07:59:57Z</time>
      </trkpt>
      <trkpt lat="43.22088" lon="5.44091">
        <ele>172</ele>
        <time>2012-05-01T08:00:07Z</time>
      </trkpt>
      <trkpt lat="43.22081" lon="5.44101">
        <ele>172</ele>
        <time>2012-05-01T08:00:16Z</time>
      </trkpt>
      <trkpt lat="43.22073" lon="5.44113">
        <ele>172</ele>
        <time>2012-05-01T08:00:25Z</time>
      </trkpt>
      <trkpt lat="43.22066" lon="5.44125">
        <ele>172</ele>
        <time>2012-05-01T08:00:34Z</time>
      </trkpt>
      <trkpt lat="43.22061" lon="5.4414">
        <ele>173</ele>
        <time>2012-05-01T08:00:44Z</time>
      </trkpt>
      <trkpt lat="43.22056" lon="5.44152">
        <ele>177</ele>
        <time>2012-05-01T08:00:53Z</time>
      </trkpt>
      <trkpt lat="43.22051" lon="5.44168">
        <ele>184</ele>
        <time>2012-05-01T08:01:03Z</time>
      </trkpt>
      <trkpt lat="43.22048" lon="5.44183">
        <ele>185</ele>
        <time>2012-05-01T08:01:12Z</time>
      </trkpt>
      <trkpt lat="43.22046" lon="5.44195">
        <ele>186</ele>
        <time>2012-05-01T08:01:21Z</time>
      </trkpt>
      <trkpt lat="43.22041" lon="5.44208">
        <ele>184</ele>
        <time>2012-05-01T08:01:30Z</time>
      </trkpt>
      <trkpt lat="43.2204" lon="5.4422">
        <ele>183</ele>
        <time>2012-05-01T08:01:39Z</time>
      </trkpt>
      <trkpt lat="43.22037" lon="5.44235">
        <ele>183</ele>
        <time>2012-05-01T08:01:48Z</time>
      </trkpt>
      <trkpt lat="43.22035" lon="5.44248">
        <ele>183</ele>
        <time>2012-05-01T08:01:58Z</time>
      </trkpt>
      <trkpt lat="43.22031" lon="5.44262">
        <ele>184</ele>
        <time>2012-05-01T08:02:07Z</time>
      </trkpt>
      <trkpt lat="43.22023" lon="5.44274">
        <ele>185</ele>
        <time>2012-05-01T08:02:17Z</time>
      </trkpt>
      <trkpt lat="43.22017" lon="5.44286">
        <ele>185</ele>
        <time>2012-05-01T08:02:26Z</time>
      </trkpt>
      <trkpt lat="43.2201" lon="5.44297">
        <ele>188</ele>
        <time>2012-05-01T08:02:36Z</time>
      </trkpt>
      <trkpt lat="43.22004" lon="5.44307">
        <ele>190</ele>
        <time>2012-05-01T08:02:45Z</time>
      </trkpt>
      <trkpt lat="43.21997" lon="5.44317">
        <ele>190</ele>
        <time>2012-05-01T08:02:54Z</time>
      </trkpt>
      <trkpt lat="43.21992" lon="5.44329">
        <ele>190</ele>
        <time>2012-05-01T08:03:04Z</time>
      </trkpt>
      <trkpt lat="43.21986" lon="5.44341">
        <ele>190</ele>
        <time>2012-05-01T08:03:14Z</time>
      </trkpt>
      <trkpt lat="43.2198" lon="5.44353">
        <ele>190</ele>
        <time>2012-05-01T08:03:24Z</time>
      </trkpt>
      <trkpt lat="43.21972" lon="5.44366">
        <ele>190</ele>
        <time>2012-05-01T08:03:34Z</time>
      </trkpt>
      <trkpt lat="43.21966" lon="5.44378">
        <ele>190</ele>
        <time>2012-05-01T08:03:43Z</time>
      </trkpt>
      <trkpt lat="43.21959" lon="5.44388">
        <ele>190</ele>
        <time>2012-05-01T08:03:52Z</time>
      </trkpt>
      <trkpt lat="43.21952" lon="5.44398">
        <ele>191</ele>
        <time>2012-05-01T08:04:01Z</time>
      </trkpt>
      <trkpt lat="43.21945" lon="5.44409">
        <ele>191</ele>
        <time>2012-05-01T08:04:11Z</time>
      </trkpt>
      <trkpt lat="43.21937" lon="5.44423">
        <ele>192</ele>
        <time>2012-05-01T08:04:22Z</time>
      </trkpt>
      <trkpt lat="43.2193" lon="5.44434">
        <ele>192</ele>
        <time>2012-05-01T08:04:31Z</time>
      </trkpt>
      <trkpt lat="43.21925" lon="5.44446">
        <ele>193</ele>
        <time>2012-05-01T08:04:40Z</time>
      </trkpt>
      <trkpt lat="43.21922" lon="5.44462">
        <ele>203</ele>
        <time>2012-05-01T08:04:50Z</time>
      </trkpt>
      <trkpt lat="43.21919" lon="5.4448">
        <ele>205</ele>
        <time>2012-05-01T08:04:59Z</time>
      </trkpt>
      <trkpt lat="43.21919" lon="5.44492">
        <ele>205</ele>
        <time>2012-05-01T08:05:08Z</time>
      </trkpt>
      <trkpt lat="43.21917" lon="5.44504">
        <ele>204</ele>
        <time>2012-05-01T08:05:17Z</time>
      </trkpt>
      <trkpt lat="43.21921" lon="5.44521">
        <ele>204</ele>
        <time>2012-05-01T08:05:27Z</time>
      </trkpt>
      <trkpt lat="43.21926" lon="5.44532">
        <ele>204</ele>
        <time>2012-05-01T08:05:36Z</time>
      </trkpt>
      <trkpt lat="43.2193" lon="5.44547">
        <ele>204</ele>
        <time>2012-05-01T08:05:45Z</time>
      </trkpt>
      <trkpt lat="43.21928" lon="5.44559">
        <ele>204</ele>
        <time>2012-05-01T08:05:54Z</time>
      </trkpt>
      <trkpt lat="43.21922" lon="5.44571">
        <ele>204</ele>
        <time>2012-05-01T08:06:04Z</time>
      </trkpt>
      <trkpt lat="43.21914" lon="5.44583">
        <ele>204</ele>
        <time>2012-05-01T08:06:14Z</time>
      </trkpt>
      <trkpt lat="43.21909" lon="5.44595">
        <ele>204</ele>
        <time>2012-05-01T08:06:23Z</time>
      </trkpt>
      <trkpt lat="43.21901" lon="5.44607">
        <ele>204</ele>
        <time>2012-05-01T08:06:33Z</time>
      </trkpt>
      <trkpt lat="43.21892" lon="5.44617">
        <ele>204</ele>
        <time>2012-05-01T08:06:43Z</time>
      </trkpt>
      <trkpt lat="43.21888" lon="5.44628">
        <ele>204</ele>
        <time>2012-05-01T08:06:52Z</time>
      </trkpt>
      <trkpt lat="43.21885" lon="5.44643">
        <ele>208</ele>
        <time>2012-05-01T08:07:02Z</time>
      </trkpt>
      <trkpt lat="43.21882" lon="5.44656">
        <ele>209</ele>
        <time>2012-05-01T08:07:11Z</time>
      </trkpt>
      <trkpt lat="43.21878" lon="5.44667">
        <ele>209</ele>
        <time>2012-05-01T08:07:20Z</time>
      </trkpt>
      <trkpt lat="43.21876" lon="5.44682">
        <ele>210</ele>
        <time>2012-05-01T08:07:30Z</time>
      </trkpt>
      <trkpt lat="43.21873" lon="5.44695">
        <ele>212</ele>
        <time>2012-05-01T08:07:41Z</time>
      </trkpt>
      <trkpt lat="43.21872" lon="5.44697">
        <ele>213</ele>
        <time>2012-05-01T08:07:55Z</time>
      </trkpt>
      <trkpt lat="43.21873" lon="5.4471">
        <ele>213</ele>
        <time>2012-05-01T08:08:05Z</time>
      </trkpt>
      <trkpt lat="43.21879" lon="5.44724">
        <ele>213</ele>
        <time>2012-05-01T08:08:15Z</time>
      </trkpt>
      <trkpt lat="43.21884" lon="5.44734">
        <ele>213</ele>
        <time>2012-05-01T08:08:24Z</time>
      </trkpt>
      <trkpt lat="43.21888" lon="5.44744">
        <ele>213</ele>
        <time>2012-05-01T08:08:38Z</time>
      </trkpt>
      <trkpt lat="43.21885" lon="5.44757">
        <ele>213</ele>
        <time>2012-05-01T08:08:48Z</time>
      </trkpt>
      <trkpt lat="43.21878" lon="5.44769">
        <ele>213</ele>
        <time>2012-05-01T08:08:58Z</time>
      </trkpt>
      <trkpt lat="43.21873" lon="5.4478">
        <ele>213</ele>
        <time>2012-05-01T08:09:07Z</time>
      </trkpt>
      <trkpt lat="43.21872" lon="5.44798">
        <ele>213</ele>
        <time>2012-05-01T08:09:17Z</time>
      </trkpt>
      <trkpt lat="43.21875" lon="5.44811">
        <ele>213</ele>
        <time>2012-05-01T08:09:26Z</time>
      </trkpt>
      <trkpt lat="43.21877" lon="5.44824">
        <ele>212</ele>
        <time>2012-05-01T08:09:35Z</time>
      </trkpt>
      <trkpt lat="43.21874" lon="5.4484">
        <ele>212</ele>
        <time>2012-05-01T08:09:46Z</time>
      </trkpt>
      <trkpt lat="43.21868" lon="5.44852">
        <ele>210</ele>
        <time>2012-05-01T08:09:56Z</time>
      </trkpt>
      <trkpt lat="43.21862" lon="5.44855">
        <ele>210</ele>
        <time>2012-05-01T08:10:07Z</time>
      </trkpt>
      <trkpt lat="43.21849" lon="5.44854">
        <ele>210</ele>
        <time>2012-05-01T08:10:18Z</time>
      </trkpt>
      <trkpt lat="43.21836" lon="5.44853">
        <ele>210</ele>
        <time>2012-05-01T08:10:29Z</time>
      </trkpt>
      <trkpt lat="43.21833" lon="5.44856">
        <ele>210</ele>
        <time>2012-05-01T08:10:45Z</time>
      </trkpt>
      <trkpt lat="43.21824" lon="5.44852">
        <ele>210</ele>
        <time>2012-05-01T08:10:55Z</time>
      </trkpt>
      <trkpt lat="43.21814" lon="5.44858">
        <ele>210</ele>
        <time>2012-05-01T08:11:05Z</time>
      </trkpt>
      <trkpt lat="43.21807" lon="5.4487">
        <ele>210</ele>
        <time>2012-05-01T08:11:15Z</time>
      </trkpt>
      <trkpt lat="43.21806" lon="5.44884">
        <ele>210</ele>
        <time>2012-05-01T08:11:27Z</time>
      </trkpt>
      <trkpt lat="43.21805" lon="5.449">
        <ele>210</ele>
        <time>2012-05-01T08:11:36Z</time>
      </trkpt>
      <trkpt lat="43.21797" lon="5.4491">
        <ele>210</ele>
        <time>2012-05-01T08:11:46Z</time>
      </trkpt>
      <trkpt lat="43.2179" lon="5.4491">
        <ele>210</ele>
        <time>2012-05-01T08:11:55Z</time>
      </trkpt>
      <trkpt lat="43.21779" lon="5.44908">
        <ele>210</ele>
        <time>2012-05-01T08:12:04Z</time>
      </trkpt>
      <trkpt lat="43.21766" lon="5.44907">
        <ele>210</ele>
        <time>2012-05-01T08:12:13Z</time>
      </trkpt>
      <trkpt lat="43.21754" lon="5.44908">
        <ele>209</ele>
        <time>2012-05-01T08:12:22Z</time>
      </trkpt>
      <trkpt lat="43.21743" lon="5.44911">
        <ele>209</ele>
        <time>2012-05-01T08:12:32Z</time>
      </trkpt>
      <trkpt lat="43.21735" lon="5.44922">
        <ele>209</ele>
        <time>2012-05-01T08:12:42Z</time>
      </trkpt>
      <trkpt lat="43.21728" lon="5.44931">
        <ele>208</ele>
        <time>2012-05-01T08:12:52Z</time>
      </trkpt>
      <trkpt lat="43.21718" lon="5.44937">
        <ele>208</ele>
        <time>2012-05-01T08:13:02Z</time>
      </trkpt>
      <trkpt lat="43.21709" lon="5.44943">
        <ele>207</ele>
        <time>2012-05-01T08:13:12Z</time>
      </trkpt>
      <trkpt lat="43.21702" lon="5.44948">
        <ele>206</ele>
        <time>2012-05-01T08:13:21Z</time>
      </trkpt>
      <trkpt lat="43.21697" lon="5.44951">
        <ele>206</ele>
        <time>2012-05-01T08:13:31Z</time>
      </trkpt>
      <trkpt lat="43.2169" lon="5.44962">
        <ele>206</ele>
        <time>2012-05-01T08:13:40Z</time>
      </trkpt>
      <trkpt lat="43.21685" lon="5.44975">
        <ele>206</ele>
        <time>2012-05-01T08:13:49Z</time>
      </trkpt>
      <trkpt lat="43.21681" lon="5.44989">
        <ele>206</ele>
        <time>2012-05-01T08:13:58Z</time>
      </trkpt>
      <trkpt lat="43.21677" lon="5.45003">
        <ele>206</ele>
        <time>2012-05-01T08:14:07Z</time>
      </trkpt>
      <trkpt lat="43.21675" lon="5.45017">
        <ele>206</ele>
        <time>2012-05-01T08:14:16Z</time>
      </trkpt>
      <trkpt lat="43.21674" lon="5.4503">
        <ele>206</ele>
        <time>2012-05-01T08:14:25Z</time>
      </trkpt>
      <trkpt lat="43.21681" lon="5.45041">
        <ele>205</ele>
        <time>2012-05-01T08:14:34Z</time>
      </trkpt>
      <trkpt lat="43.2169" lon="5.45049">
        <ele>204</ele>
        <time>2012-05-01T08:14:44Z</time>
      </trkpt>
      <trkpt lat="43.21698" lon="5.4506">
        <ele>204</ele>
        <time>2012-05-01T08:14:53Z</time>
      </trkpt>
      <trkpt lat="43.21703" lon="5.45071">
        <ele>204</ele>
        <time>2012-05-01T08:15:02Z</time>
      </trkpt>
      <trkpt lat="43.21708" lon="5.45083">
        <ele>204</ele>
        <time>2012-05-01T08:15:11Z</time>
      </trkpt>
      <trkpt lat="43.21712" lon="5.45095">
        <ele>204</ele>
        <time>2012-05-01T08:15:20Z</time>
      </trkpt>
      <trkpt lat="43.21716" lon="5.45108">
        <ele>204</ele>
        <time>2012-05-01T08:15:29Z</time>
      </trkpt>
      <trkpt lat="43.21717" lon="5.45119">
        <ele>204</ele>
        <time>2012-05-01T08:15:38Z</time>
      </trkpt>
      <trkpt lat="43.21717" lon="5.45133">
        <ele>204</ele>
        <time>2012-05-01T08:15:47Z</time>
      </trkpt>
      <trkpt lat="43.21717" lon="5.45147">
        <ele>204</ele>
        <time>2012-05-01T08:15:56Z</time>
      </trkpt>
      <trkpt lat="43.21718" lon="5.45161">
        <ele>204</ele>
        <time>2012-05-01T08:16:05Z</time>
      </trkpt>
      <trkpt lat="43.2172" lon="5.45174">
        <ele>204</ele>
        <time>2012-05-01T08:16:14Z</time>
      </trkpt>
      <trkpt lat="43.21721" lon="5.4519">
        <ele>204</ele>
        <time>2012-05-01T08:16:23Z</time>
      </trkpt>
      <trkpt lat="43.21723" lon="5.45203">
        <ele>204</ele>
        <time>2012-05-01T08:16:32Z</time>
      </trkpt>
      <trkpt lat="43.21726" lon="5.45215">
        <ele>203</ele>
        <time>2012-05-01T08:16:41Z</time>
      </trkpt>
      <trkpt lat="43.21729" lon="5.45229">
        <ele>203</ele>
        <time>2012-05-01T08:16:50Z</time>
      </trkpt>
      <trkpt lat="43.21732" lon="5.45243">
        <ele>203</ele>
        <time>2012-05-01T08:16:59Z</time>
      </trkpt>
      <trkpt lat="43.21735" lon="5.45254">
        <ele>203</ele>
        <time>2012-05-01T08:17:08Z</time>
      </trkpt>
      <trkpt lat="43.21734" lon="5.45272">
        <ele>203</ele>
        <time>2012-05-01T08:17:17Z</time>
      </trkpt>
      <trkpt lat="43.21729" lon="5.45287">
        <ele>208</ele>
        <time>2012-05-01T08:17:26Z</time>
      </trkpt>
      <trkpt lat="43.21722" lon="5.45288">
        <ele>209</ele>
        <time>2012-05-01T08:17:35Z</time>
      </trkpt>
      <trkpt lat="43.21709" lon="5.45286">
        <ele>207</ele>
        <time>2012-05-01T08:17:45Z</time>
      </trkpt>
      <trkpt lat="43.21698" lon="5.45279">
        <ele>207</ele>
        <time>2012-05-01T08:17:54Z</time>
      </trkpt>
      <trkpt lat="43.21687" lon="5.45272">
        <ele>206</ele>
        <time>2012-05-01T08:18:03Z</time>
      </trkpt>
      <trkpt lat="43.21677" lon="5.45265">
        <ele>204</ele>
        <time>2012-05-01T08:18:12Z</time>
      </trkpt>
      <trkpt lat="43.21668" lon="5.45259">
        <ele>204</ele>
        <time>2012-05-01T08:18:21Z</time>
      </trkpt>
      <trkpt lat="43.21658" lon="5.45249">
        <ele>204</ele>
        <time>2012-05-01T08:18:31Z</time>
      </trkpt>
      <trkpt lat="43.21649" lon="5.45239">
        <ele>205</ele>
        <time>2012-05-01T08:18:41Z</time>
      </trkpt>
      <trkpt lat="43.2164" lon="5.45229">
        <ele>206</ele>
        <time>2012-05-01T08:18:50Z</time>
      </trkpt>
      <trkpt lat="43.21631" lon="5.45222">
        <ele>209</ele>
        <time>2012-05-01T08:18:59Z</time>
      </trkpt>
      <trkpt lat="43.21622" lon="5.45217">
        <ele>210</ele>
        <time>2012-05-01T08:19:08Z</time>
      </trkpt>
      <trkpt lat="43.21613" lon="5.4521">
        <ele>210</ele>
        <time>2012-05-01T08:19:17Z</time>
      </trkpt>
      <trkpt lat="43.21604" lon="5.45201">
        <ele>210</ele>
        <time>2012-05-01T08:19:27Z</time>
      </trkpt>
      <trkpt lat="43.21593" lon="5.45195">
        <ele>210</ele>
        <time>2012-05-01T08:19:37Z</time>
      </trkpt>
      <trkpt lat="43.21595" lon="5.45195">
        <ele>210</ele>
        <time>2012-05-01T08:19:48Z</time>
      </trkpt>
      <trkpt lat="43.21595" lon="5.45193">
        <ele>214</ele>
        <time>2012-05-01T08:20:43Z</time>
      </trkpt>
      <trkpt lat="43.21595" lon="5.45192">
        <ele>214</ele>
        <time>2012-05-01T08:21:42Z</time>
      </trkpt>
      <trkpt lat="43.21591" lon="5.45185">
        <ele>214</ele>
        <time>2012-05-01T08:21:51Z</time>
      </trkpt>
      <trkpt lat="43.21585" lon="5.45177">
        <ele>214</ele>
        <time>2012-05-01T08:22:01Z</time>
      </trkpt>
      <trkpt lat="43.21583" lon="5.45172">
        <ele>212</ele>
        <time>2012-05-01T08:22:12Z</time>
      </trkpt>
      <trkpt lat="43.21582" lon="5.45165">
        <ele>210</ele>
        <time>2012-05-01T08:22:22Z</time>
      </trkpt>
      <trkpt lat="43.21578" lon="5.45156">
        <ele>207</ele>
        <time>2012-05-01T08:22:31Z</time>
      </trkpt>
      <trkpt lat="43.21572" lon="5.45148">
        <ele>206</ele>
        <time>2012-05-01T08:22:41Z</time>
      </trkpt>
      <trkpt lat="43.21564" lon="5.45143">
        <ele>206</ele>
        <time>2012-05-01T08:22:51Z</time>
      </trkpt>
      <trkpt lat="43.21555" lon="5.4514">
        <ele>206</ele>
        <time>2012-05-01T08:23:01Z</time>
      </trkpt>
      <trkpt lat="43.21547" lon="5.45135">
        <ele>206</ele>
        <time>2012-05-01T08:23:11Z</time>
      </trkpt>
      <trkpt lat="43.21539" lon="5.4513">
        <ele>205</ele>
        <time>2012-05-01T08:23:24Z</time>
      </trkpt>
      <trkpt lat="43.21535" lon="5.45121">
        <ele>202</ele>
        <time>2012-05-01T08:23:34Z</time>
      </trkpt>
      <trkpt lat="43.21528" lon="5.45116">
        <ele>201</ele>
        <time>2012-05-01T08:23:44Z</time>
      </trkpt>
      <trkpt lat="43.2152" lon="5.45113">
        <ele>201</ele>
        <time>2012-05-01T08:23:54Z</time>
      </trkpt>
      <trkpt lat="43.21512" lon="5.4511">
        <ele>200</ele>
        <time>2012-05-01T08:24:05Z</time>
      </trkpt>
      <trkpt lat="43.21503" lon="5.45109">
        <ele>200</ele>
        <time>2012-05-01T08:24:15Z</time>
      </trkpt>
      <trkpt lat="43.21496" lon="5.45109">
        <ele>200</ele>
        <time>2012-05-01T08:24:25Z</time>
      </trkpt>
      <trkpt lat="43.2149" lon="5.45108">
        <ele>200</ele>
        <time>2012-05-01T08:24:34Z</time>
      </trkpt>
      <trkpt lat="43.21484" lon="5.4511">
        <ele>199</ele>
        <time>2012-05-01T08:24:43Z</time>
      </trkpt>
      <trkpt lat="43.21479" lon="5.45119">
        <ele>198</ele>
        <time>2012-05-01T08:24:53Z</time>
      </trkpt>
      <trkpt lat="43.21476" lon="5.45126">
        <ele>198</ele>
        <time>2012-05-01T08:25:13Z</time>
      </trkpt>
      <trkpt lat="43.21471" lon="5.45133">
        <ele>197</ele>
        <time>2012-05-01T08:25:25Z</time>
      </trkpt>
      <trkpt lat="43.21467" lon="5.45137">
        <ele>195</ele>
        <time>2012-05-01T08:25:34Z</time>
      </trkpt>
      <trkpt lat="43.21464" lon="5.45138">
        <ele>193</ele>
        <time>2012-05-01T08:25:45Z</time>
      </trkpt>
      <trkpt lat="43.21462" lon="5.45139">
        <ele>192</ele>
        <time>2012-05-01T08:26:04Z</time>
      </trkpt>
      <trkpt lat="43.21461" lon="5.45141">
        <ele>192</ele>
        <time>2012-05-01T08:26:35Z</time>
      </trkpt>
      <trkpt lat="43.21457" lon="5.4515">
        <ele>190</ele>
        <time>2012-05-01T08:26:45Z</time>
      </trkpt>
      <trkpt lat="43.21452" lon="5.45158">
        <ele>190</ele>
        <time>2012-05-01T08:27:54Z</time>
      </trkpt>
      <trkpt lat="43.21452" lon="5.4516">
        <ele>187</ele>
        <time>2012-05-01T08:28:03Z</time>
      </trkpt>
      <trkpt lat="43.21451" lon="5.45161">
        <ele>186</ele>
        <time>2012-05-01T08:28:14Z</time>
      </trkpt>
      <trkpt lat="43.2145" lon="5.4516">
        <ele>186</ele>
        <time>2012-05-01T08:28:25Z</time>
      </trkpt>
      <trkpt lat="43.21447" lon="5.45163">
        <ele>186</ele>
        <time>2012-05-01T08:28:39Z</time>
      </trkpt>
      <trkpt lat="43.21446" lon="5.45166">
        <ele>186</ele>
        <time>2012-05-01T08:28:53Z</time>
      </trkpt>
      <trkpt lat="43.21444" lon="5.45169">
        <ele>185</ele>
        <time>2012-05-01T08:29:03Z</time>
      </trkpt>
      <trkpt lat="43.21441" lon="5.45172">
        <ele>178</ele>
        <time>2012-05-01T08:29:16Z</time>
      </trkpt>
      <trkpt lat="43.21443" lon="5.45175">
        <ele>176</ele>
        <time>2012-05-01T08:29:25Z</time>
      </trkpt>
      <trkpt lat="43.21439" lon="5.45179">
        <ele>176</ele>
        <time>2012-05-01T08:29:36Z</time>
      </trkpt>
      <trkpt lat="43.21436" lon="5.45187">
        <ele>182</ele>
        <time>2012-05-01T08:29:46Z</time>
      </trkpt>
      <trkpt lat="43.21433" lon="5.45188">
        <ele>184</ele>
        <time>2012-05-01T08:29:56Z</time>
      </trkpt>
      <trkpt lat="43.21431" lon="5.45183">
        <ele>180</ele>
        <time>2012-05-01T08:30:12Z</time>
      </trkpt>
      <trkpt lat="43.21428" lon="5.45187">
        <ele>177</ele>
        <time>2012-05-01T08:30:24Z</time>
      </trkpt>
      <trkpt lat="43.21426" lon="5.45182">
        <ele>171</ele>
        <time>2012-05-01T08:30:40Z</time>
      </trkpt>
      <trkpt lat="43.21424" lon="5.45185">
        <ele>170</ele>
        <time>2012-05-01T08:30:49Z</time>
      </trkpt>
      <trkpt lat="43.21421" lon="5.45188">
        <ele>170</ele>
        <time>2012-05-01T08:31:02Z</time>
      </trkpt>
      <trkpt lat="43.21419" lon="5.45197">
        <ele>178</ele>
        <time>2012-05-01T08:31:11Z</time>
      </trkpt>
      <trkpt lat="43.21415" lon="5.45199">
        <ele>188</ele>
        <time>2012-05-01T08:31:21Z</time>
      </trkpt>
      <trkpt lat="43.21416" lon="5.45194">
        <ele>184</ele>
        <time>2012-05-01T08:31:30Z</time>
      </trkpt>
      <trkpt lat="43.21413" lon="5.45195">
        <ele>181</ele>
        <time>2012-05-01T08:31:41Z</time>
      </trkpt>
      <trkpt lat="43.21413" lon="5.4519">
        <ele>177</ele>
        <time>2012-05-01T08:31:51Z</time>
      </trkpt>
      <trkpt lat="43.2141" lon="5.45195">
        <ele>174</ele>
        <time>2012-05-01T08:32:00Z</time>
      </trkpt>
      <trkpt lat="43.2141" lon="5.45198">
        <ele>174</ele>
        <time>2012-05-01T08:32:10Z</time>
      </trkpt>
      <trkpt lat="43.21409" lon="5.45203">
        <ele>176</ele>
        <time>2012-05-01T08:32:20Z</time>
      </trkpt>
      <trkpt lat="43.21412" lon="5.45195">
        <ele>176</ele>
        <time>2012-05-01T08:32:29Z</time>
      </trkpt>
      <trkpt lat="43.21413" lon="5.45202">
        <ele>174</ele>
        <time>2012-05-01T08:32:40Z</time>
      </trkpt>
      <trkpt lat="43.21411" lon="5.45206">
        <ele>179</ele>
        <time>2012-05-01T08:32:54Z</time>
      </trkpt>
      <trkpt lat="43.21409" lon="5.45209">
        <ele>186</ele>
        <time>2012-05-01T08:33:03Z</time>
      </trkpt>
      <trkpt lat="43.21409" lon="5.45213">
        <ele>189</ele>
        <time>2012-05-01T08:33:19Z</time>
      </trkpt>
      <trkpt lat="43.21409" lon="5.4521">
        <ele>190</ele>
        <time>2012-05-01T08:33:28Z</time>
      </trkpt>
      <trkpt lat="43.21409" lon="5.45206">
        <ele>188</ele>
        <time>2012-05-01T08:33:40Z</time>
      </trkpt>
      <trkpt lat="43.21408" lon="5.45203">
        <ele>179</ele>
        <time>2012-05-01T08:33:49Z</time>
      </trkpt>
      <trkpt lat="43.21407" lon="5.45198">
        <ele>165</ele>
        <time>2012-05-01T08:34:03Z</time>
      </trkpt>
      <trkpt lat="43.21404" lon="5.45197">
        <ele>159</ele>
        <time>2012-05-01T08:34:13Z</time>
      </trkpt>
      <trkpt lat="43.21404" lon="5.45205">
        <ele>159</ele>
        <time>2012-05-01T08:34:22Z</time>
      </trkpt>
      <trkpt lat="43.21406" lon="5.45214">
        <ele>155</ele>
        <time>2012-05-01T08:34:32Z</time>
      </trkpt>
      <trkpt lat="43.21407" lon="5.4522">
        <ele>151</ele>
        <time>2012-05-01T08:34:43Z</time>
      </trkpt>
      <trkpt lat="43.21407" lon="5.45222">
        <ele>146</ele>
        <time>2012-05-01T08:34:56Z</time>
      </trkpt>
      <trkpt lat="43.21406" lon="5.45226">
        <ele>146</ele>
        <time>2012-05-01T08:35:05Z</time>
      </trkpt>
      <trkpt lat="43.21406" lon="5.45227">
        <ele>146</ele>
        <time>2012-05-01T08:35:19Z</time>
      </trkpt>
      <trkpt lat="43.21406" lon="5.45227">
        <ele>146</ele>
        <time>2012-05-01T08:35:35Z</time>
      </trkpt>
      <trkpt lat="43.21404" lon="5.45228">
        <ele>146</ele>
        <time>2012-05-01T08:35:45Z</time>
      </trkpt>
      <trkpt lat="43.21402" lon="5.45236">
        <ele>146</ele>
        <time>2012-05-01T08:35:55Z</time>
      </trkpt>
      <trkpt lat="43.21405" lon="5.45244">
        <ele>144</ele>
        <time>2012-05-01T08:36:05Z</time>
      </trkpt>
      <trkpt lat="43.21407" lon="5.45254">
        <ele>140</ele>
        <time>2012-05-01T08:36:15Z</time>
      </trkpt>
      <trkpt lat="43.21407" lon="5.45262">
        <ele>139</ele>
        <time>2012-05-01T08:36:24Z</time>
      </trkpt>
      <trkpt lat="43.21406" lon="5.45273">
        <ele>136</ele>
        <time>2012-05-01T08:36:34Z</time>
      </trkpt>
      <trkpt lat="43.21406" lon="5.45281">
        <ele>134</ele>
        <time>2012-05-01T08:36:43Z</time>
      </trkpt>
      <trkpt lat="43.21403" lon="5.45292">
        <ele>132</ele>
        <time>2012-05-01T08:36:52Z</time>
      </trkpt>
      <trkpt lat="43.21402" lon="5.45299">
        <ele>131</ele>
        <time>2012-05-01T08:37:03Z</time>
      </trkpt>
      <trkpt lat="43.21402" lon="5.45299">
        <ele>130</ele>
        <time>2012-05-01T08:37:13Z</time>
      </trkpt>
      <trkpt lat="43.21398" lon="5.45312">
        <ele>130</ele>
        <time>2012-05-01T08:37:23Z</time>
      </trkpt>
      <trkpt lat="43.21397" lon="5.4533">
        <ele>127</ele>
        <time>2012-05-01T08:37:32Z</time>
      </trkpt>
      <trkpt lat="43.21395" lon="5.4535">
        <ele>123</ele>
        <time>2012-05-01T08:37:41Z</time>
      </trkpt>
      <trkpt lat="43.21396" lon="5.4537">
        <ele>117</ele>
        <time>2012-05-01T08:37:50Z</time>
      </trkpt>
      <trkpt lat="43.21387" lon="5.45389">
        <ele>115</ele>
        <time>2012-05-01T08:38:17Z</time>
      </trkpt>
      <trkpt lat="43.21377" lon="5.454">
        <ele>111</ele>
        <time>2012-05-01T08:38:28Z</time>
      </trkpt>
      <trkpt lat="43.21374" lon="5.45414">
        <ele>110</ele>
        <time>2012-05-01T08:38:37Z</time>
      </trkpt>
      <trkpt lat="43.21373" lon="5.45423">
        <ele>108</ele>
        <time>2012-05-01T08:38:46Z</time>
      </trkpt>
      <trkpt lat="43.21368" lon="5.45436">
        <ele>106</ele>
        <time>2012-05-01T08:38:55Z</time>
      </trkpt>
      <trkpt lat="43.21364" lon="5.4545">
        <ele>106</ele>
        <time>2012-05-01T08:39:04Z</time>
      </trkpt>
      <trkpt lat="43.21362" lon="5.45461">
        <ele>106</ele>
        <time>2012-05-01T08:39:13Z</time>
      </trkpt>
      <trkpt lat="43.21313" lon="5.45531">
        <ele>106</ele>
        <time>2012-05-01T08:40:40Z</time>
      </trkpt>
      <trkpt lat="43.21312" lon="5.4554">
        <ele>108</ele>
        <time>2012-05-01T08:40:55Z</time>
      </trkpt>
      <trkpt lat="43.21313" lon="5.45544">
        <ele>106</ele>
        <time>2012-05-01T08:41:04Z</time>
      </trkpt>
      <trkpt lat="43.21314" lon="5.45544">
        <ele>94</ele>
        <time>2012-05-01T08:41:16Z</time>
      </trkpt>
      <trkpt lat="43.21313" lon="5.45545">
        <ele>87</ele>
        <time>2012-05-01T08:41:26Z</time>
      </trkpt>
      <trkpt lat="43.21309" lon="5.45551">
        <ele>81</ele>
        <time>2012-05-01T08:41:36Z</time>
      </trkpt>
      <trkpt lat="43.21305" lon="5.45562">
        <ele>79</ele>
        <time>2012-05-01T08:41:46Z</time>
      </trkpt>
      <trkpt lat="43.21302" lon="5.45568">
        <ele>76</ele>
        <time>2012-05-01T08:41:55Z</time>
      </trkpt>
      <trkpt lat="43.21298" lon="5.45575">
        <ele>73</ele>
        <time>2012-05-01T08:42:05Z</time>
      </trkpt>
      <trkpt lat="43.21294" lon="5.45582">
        <ele>71</ele>
        <time>2012-05-01T08:42:15Z</time>
      </trkpt>
      <trkpt lat="43.21292" lon="5.4559">
        <ele>69</ele>
        <time>2012-05-01T08:42:24Z</time>
      </trkpt>
      <trkpt lat="43.21289" lon="5.45596">
        <ele>66</ele>
        <time>2012-05-01T08:43:26Z</time>
      </trkpt>
      <trkpt lat="43.21291" lon="5.45599">
        <ele>59</ele>
        <time>2012-05-01T08:44:04Z</time>
      </trkpt>
      <trkpt lat="43.2129" lon="5.45597">
        <ele>59</ele>
        <time>2012-05-01T08:44:25Z</time>
      </trkpt>
      <trkpt lat="43.21287" lon="5.45595">
        <ele>60</ele>
        <time>2012-05-01T08:44:37Z</time>
      </trkpt>
      <trkpt lat="43.21287" lon="5.45595">
        <ele>63</ele>
        <time>2012-05-01T08:44:51Z</time>
      </trkpt>
      <trkpt lat="43.21285" lon="5.456">
        <ele>63</ele>
        <time>2012-05-01T08:45:16Z</time>
      </trkpt>
      <trkpt lat="43.21285" lon="5.45603">
        <ele>63</ele>
        <time>2012-05-01T08:45:27Z</time>
      </trkpt>
      <trkpt lat="43.21282" lon="5.45611">
        <ele>63</ele>
        <time>2012-05-01T08:45:37Z</time>
      </trkpt>
      <trkpt lat="43.21277" lon="5.45619">
        <ele>63</ele>
        <time>2012-05-01T08:45:47Z</time>
      </trkpt>
      <trkpt lat="43.21271" lon="5.45628">
        <ele>63</ele>
        <time>2012-05-01T08:45:57Z</time>
      </trkpt>
      <trkpt lat="43.21266" lon="5.45633">
        <ele>62</ele>
        <time>2012-05-01T08:46:06Z</time>
      </trkpt>
      <trkpt lat="43.21262" lon="5.45637">
        <ele>62</ele>
        <time>2012-05-01T08:46:17Z</time>
      </trkpt>
      <trkpt lat="43.21265" lon="5.45642">
        <ele>59</ele>
        <time>2012-05-01T08:46:43Z</time>
      </trkpt>
      <trkpt lat="43.21263" lon="5.45643">
        <ele>59</ele>
        <time>2012-05-01T08:46:56Z</time>
      </trkpt>
      <trkpt lat="43.21261" lon="5.45637">
        <ele>61</ele>
        <time>2012-05-01T08:47:07Z</time>
      </trkpt>
      <trkpt lat="43.21263" lon="5.45639">
        <ele>61</ele>
        <time>2012-05-01T08:47:20Z</time>
      </trkpt>
      <trkpt lat="43.21266" lon="5.45642">
        <ele>61</ele>
        <time>2012-05-01T08:47:33Z</time>
      </trkpt>
      <trkpt lat="43.21268" lon="5.45644">
        <ele>61</ele>
        <time>2012-05-01T08:47:42Z</time>
      </trkpt>
      <trkpt lat="43.21271" lon="5.45643">
        <ele>61</ele>
        <time>2012-05-01T08:47:57Z</time>
      </trkpt>
      <trkpt lat="43.21272" lon="5.45647">
        <ele>61</ele>
        <time>2012-05-01T08:48:08Z</time>
      </trkpt>
      <trkpt lat="43.2127" lon="5.45651">
        <ele>62</ele>
        <time>2012-05-01T08:48:18Z</time>
      </trkpt>
      <trkpt lat="43.21268" lon="5.45661">
        <ele>62</ele>
        <time>2012-05-01T08:48:27Z</time>
      </trkpt>
      <trkpt lat="43.21259" lon="5.45671">
        <ele>62</ele>
        <time>2012-05-01T08:48:46Z</time>
      </trkpt>
      <trkpt lat="43.21248" lon="5.45671">
        <ele>62</ele>
        <time>2012-05-01T08:48:57Z</time>
      </trkpt>
      <trkpt lat="43.21243" lon="5.45666">
        <ele>62</ele>
        <time>2012-05-01T08:49:10Z</time>
      </trkpt>
      <trkpt lat="43.21248" lon="5.45666">
        <ele>62</ele>
        <time>2012-05-01T08:49:20Z</time>
      </trkpt>
      <trkpt lat="43.21243" lon="5.4566">
        <ele>58</ele>
        <time>2012-05-01T08:49:31Z</time>
      </trkpt>
      <trkpt lat="43.21235" lon="5.45652">
        <ele>58</ele>
        <time>2012-05-01T08:49:43Z</time>
      </trkpt>
      <trkpt lat="43.21222" lon="5.45646">
        <ele>58</ele>
        <time>2012-05-01T08:50:09Z</time>
      </trkpt>
      <trkpt lat="43.21212" lon="5.45636">
        <ele>58</ele>
        <time>2012-05-01T08:50:18Z</time>
      </trkpt>
      <trkpt lat="43.21201" lon="5.4563">
        <ele>54</ele>
        <time>2012-05-01T08:50:27Z</time>
      </trkpt>
      <trkpt lat="43.21191" lon="5.45633">
        <ele>48</ele>
        <time>2012-05-01T08:50:36Z</time>
      </trkpt>
      <trkpt lat="43.21184" lon="5.45634">
        <ele>46</ele>
        <time>2012-05-01T08:50:45Z</time>
      </trkpt>
      <trkpt lat="43.21175" lon="5.45636">
        <ele>43</ele>
        <time>2012-05-01T08:50:56Z</time>
      </trkpt>
      <trkpt lat="43.21176" lon="5.45636">
        <ele>42</ele>
        <time>2012-05-01T08:51:05Z</time>
      </trkpt>
      <trkpt lat="43.21171" lon="5.45634">
        <ele>40</ele>
        <time>2012-05-01T08:51:16Z</time>
      </trkpt>
      <trkpt lat="43.21166" lon="5.45633">
        <ele>37</ele>
        <time>2012-05-01T08:51:26Z</time>
      </trkpt>
      <trkpt lat="43.21162" lon="5.4563">
        <ele>32</ele>
        <time>2012-05-01T08:51:37Z</time>
      </trkpt>
      <trkpt lat="43.21159" lon="5.45623">
        <ele>30</ele>
        <time>2012-05-01T08:51:46Z</time>
      </trkpt>
      <trkpt lat="43.21149" lon="5.45625">
        <ele>30</ele>
        <time>2012-05-01T08:51:55Z</time>
      </trkpt>
      <trkpt lat="43.21149" lon="5.45632">
        <ele>31</ele>
        <time>2012-05-01T08:52:04Z</time>
      </trkpt>
      <trkpt lat="43.21146" lon="5.45637">
        <ele>33</ele>
        <time>2012-05-01T08:52:13Z</time>
      </trkpt>
      <trkpt lat="43.2114" lon="5.45642">
        <ele>33</ele>
        <time>2012-05-01T08:52:24Z</time>
      </trkpt>
      <trkpt lat="43.21138" lon="5.45648">
        <ele>34</ele>
        <time>2012-05-01T08:52:36Z</time>
      </trkpt>
      <trkpt lat="43.21141" lon="5.45647">
        <ele>35</ele>
        <time>2012-05-01T08:52:45Z</time>
      </trkpt>
      <trkpt lat="43.21143" lon="5.45649">
        <ele>38</ele>
        <time>2012-05-01T08:53:05Z</time>
      </trkpt>
      <trkpt lat="43.21146" lon="5.4565">
        <ele>38</ele>
        <time>2012-05-01T08:53:14Z</time>
      </trkpt>
      <trkpt lat="43.21152" lon="5.4565">
        <ele>34</ele>
        <time>2012-05-01T08:53:23Z</time>
      </trkpt>
      <trkpt lat="43.21145" lon="5.45654">
        <ele>35</ele>
        <time>2012-05-01T08:53:35Z</time>
      </trkpt>
      <trkpt lat="43.21142" lon="5.4565">
        <ele>37</ele>
        <time>2012-05-01T08:53:46Z</time>
      </trkpt>
      <trkpt lat="43.21143" lon="5.45651">
        <ele>38</ele>
        <time>2012-05-01T08:53:58Z</time>
      </trkpt>
      <trkpt lat="43.21143" lon="5.45649">
        <ele>38</ele>
        <time>2012-05-01T08:54:11Z</time>
      </trkpt>
      <trkpt lat="43.21139" lon="5.45647">
        <ele>39</ele>
        <time>2012-05-01T08:54:27Z</time>
      </trkpt>
      <trkpt lat="43.21138" lon="5.45647">
        <ele>39</ele>
        <time>2012-05-01T08:54:37Z</time>
      </trkpt>
      <trkpt lat="43.21138" lon="5.45647">
        <ele>39</ele>
        <time>2012-05-01T08:54:50Z</time>
      </trkpt>
      <trkpt lat="43.21136" lon="5.45644">
        <ele>41</ele>
        <time>2012-05-01T08:55:01Z</time>
      </trkpt>
      <trkpt lat="43.21138" lon="5.45643">
        <ele>43</ele>
        <time>2012-05-01T08:55:15Z</time>
      </trkpt>
      <trkpt lat="43.21139" lon="5.45645">
        <ele>43</ele>
        <time>2012-05-01T08:55:25Z</time>
      </trkpt>
      <trkpt lat="43.2114" lon="5.45645">
        <ele>42</ele>
        <time>2012-05-01T08:55:37Z</time>
      </trkpt>
      <trkpt lat="43.21141" lon="5.45645">
        <ele>42</ele>
        <time>2012-05-01T08:56:00Z</time>
      </trkpt>
      <trkpt lat="43.21139" lon="5.45643">
        <ele>42</ele>
        <time>2012-05-01T08:56:12Z</time>
      </trkpt>
      <trkpt lat="43.21141" lon="5.4564">
        <ele>42</ele>
        <time>2012-05-01T08:56:22Z</time>
      </trkpt>
      <trkpt lat="43.21147" lon="5.45639">
        <ele>37</ele>
        <time>2012-05-01T08:56:31Z</time>
      </trkpt>
      <trkpt lat="43.21151" lon="5.45634">
        <ele>35</ele>
        <time>2012-05-01T08:56:40Z</time>
      </trkpt>
      <trkpt lat="43.21151" lon="5.45627">
        <ele>34</ele>
        <time>2012-05-01T08:56:51Z</time>
      </trkpt>
      <trkpt lat="43.21154" lon="5.45627">
        <ele>32</ele>
        <time>2012-05-01T08:57:00Z</time>
      </trkpt>
      <trkpt lat="43.2116" lon="5.45629">
        <ele>28</ele>
        <time>2012-05-01T08:57:10Z</time>
      </trkpt>
      <trkpt lat="43.21162" lon="5.45625">
        <ele>26</ele>
        <time>2012-05-01T08:57:20Z</time>
      </trkpt>
      <trkpt lat="43.21156" lon="5.4562">
        <ele>26</ele>
        <time>2012-05-01T08:57:30Z</time>
      </trkpt>
      <trkpt lat="43.21153" lon="5.45613">
        <ele>25</ele>
        <time>2012-05-01T08:57:41Z</time>
      </trkpt>
      <trkpt lat="43.21152" lon="5.45611">
        <ele>22</ele>
        <time>2012-05-01T08:57:50Z</time>
      </trkpt>
      <trkpt lat="43.2115" lon="5.45604">
        <ele>20</ele>
        <time>2012-05-01T08:58:00Z</time>
      </trkpt>
      <trkpt lat="43.21151" lon="5.45598">
        <ele>18</ele>
        <time>2012-05-01T08:58:11Z</time>
      </trkpt>
      <trkpt lat="43.21147" lon="5.45596">
        <ele>17</ele>
        <time>2012-05-01T08:58:22Z</time>
      </trkpt>
      <trkpt lat="43.21145" lon="5.45591">
        <ele>17</ele>
        <time>2012-05-01T08:58:34Z</time>
      </trkpt>
      <trkpt lat="43.21144" lon="5.45587">
        <ele>15</ele>
        <time>2012-05-01T08:58:49Z</time>
      </trkpt>
      <trkpt lat="43.21142" lon="5.4558">
        <ele>15</ele>
        <time>2012-05-01T08:59:03Z</time>
      </trkpt>
      <trkpt lat="43.21141" lon="5.45577">
        <ele>14</ele>
        <time>2012-05-01T08:59:24Z</time>
      </trkpt>
      <trkpt lat="43.21141" lon="5.45576">
        <ele>14</ele>
        <time>2012-05-01T08:59:34Z</time>
      </trkpt>
      <trkpt lat="43.21144" lon="5.45578">
        <ele>14</ele>
        <time>2012-05-01T08:59:44Z</time>
      </trkpt>
      <trkpt lat="43.21151" lon="5.4558">
        <ele>14</ele>
        <time>2012-05-01T08:59:57Z</time>
      </trkpt>
      <trkpt lat="43.21157" lon="5.45584">
        <ele>14</ele>
        <time>2012-05-01T09:00:07Z</time>
      </trkpt>
      <trkpt lat="43.21164" lon="5.45589">
        <ele>14</ele>
        <time>2012-05-01T09:00:17Z</time>
      </trkpt>
      <trkpt lat="43.2117" lon="5.4559">
        <ele>12</ele>
        <time>2012-05-01T09:00:28Z</time>
      </trkpt>
      <trkpt lat="43.21172" lon="5.45588">
        <ele>12</ele>
        <time>2012-05-01T09:00:38Z</time>
      </trkpt>
      <trkpt lat="43.21179" lon="5.45585">
        <ele>11</ele>
        <time>2012-05-01T09:00:47Z</time>
      </trkpt>
      <trkpt lat="43.21186" lon="5.45585">
        <ele>8</ele>
        <time>2012-05-01T09:00:57Z</time>
      </trkpt>
      <trkpt lat="43.21196" lon="5.45579">
        <ele>4</ele>
        <time>2012-05-01T09:01:08Z</time>
      </trkpt>
      <trkpt lat="43.21199" lon="5.45575">
        <ele>2</ele>
        <time>2012-05-01T09:01:18Z</time>
      </trkpt>
      <trkpt lat="43.21203" lon="5.45573">
        <ele>2</ele>
        <time>2012-05-01T09:01:27Z</time>
      </trkpt>
      <trkpt lat="43.21207" lon="5.45575">
        <ele>8</ele>
        <time>2012-05-01T09:01:38Z</time>
      </trkpt>
      <trkpt lat="43.2121" lon="5.45564">
        <ele>8</ele>
        <time>2012-05-01T09:01:47Z</time>
      </trkpt>
      <trkpt lat="43.21212" lon="5.4556">
        <ele>7</ele>
        <time>2012-05-01T09:01:57Z</time>
      </trkpt>
      <trkpt lat="43.21212" lon="5.4555">
        <ele>7</ele>
        <time>2012-05-01T09:02:06Z</time>
      </trkpt>
      <trkpt lat="43.2121" lon="5.45541">
        <ele>7</ele>
        <time>2012-05-01T09:02:15Z</time>
      </trkpt>
      <trkpt lat="43.2121" lon="5.45534">
        <ele>5</ele>
        <time>2012-05-01T09:02:25Z</time>
      </trkpt>
      <trkpt lat="43.2121" lon="5.45526">
        <ele>4</ele>
        <time>2012-05-01T09:02:34Z</time>
      </trkpt>
      <trkpt lat="43.21208" lon="5.45515">
        <ele>3</ele>
        <time>2012-05-01T09:02:43Z</time>
      </trkpt>
      <trkpt lat="43.21205" lon="5.45506">
        <ele>3</ele>
        <time>2012-05-01T09:02:53Z</time>
      </trkpt>
      <trkpt lat="43.21206" lon="5.455">
        <ele>6</ele>
        <time>2012-05-01T09:03:04Z</time>
      </trkpt>
      <trkpt lat="43.21208" lon="5.45495">
        <ele>9</ele>
        <time>2012-05-01T09:03:13Z</time>
      </trkpt>
      <trkpt lat="43.21208" lon="5.45484">
        <ele>13</ele>
        <time>2012-05-01T09:03:23Z</time>
      </trkpt>
      <trkpt lat="43.21212" lon="5.45477">
        <ele>16</ele>
        <time>2012-05-01T09:03:41Z</time>
      </trkpt>
      <trkpt lat="43.21217" lon="5.45472">
        <ele>17</ele>
        <time>2012-05-01T09:03:51Z</time>
      </trkpt>
      <trkpt lat="43.21221" lon="5.45467">
        <ele>19</ele>
        <time>2012-05-01T09:04:01Z</time>
      </trkpt>
      <trkpt lat="43.21227" lon="5.45459">
        <ele>19</ele>
        <time>2012-05-01T09:04:12Z</time>
      </trkpt>
      <trkpt lat="43.21232" lon="5.45452">
        <ele>19</ele>
        <time>2012-05-01T09:04:21Z</time>
      </trkpt>
      <trkpt lat="43.21236" lon="5.45445">
        <ele>19</ele>
        <time>2012-05-01T09:04:30Z</time>
      </trkpt>
      <trkpt lat="43.21236" lon="5.45436">
        <ele>19</ele>
        <time>2012-05-01T09:04:39Z</time>
      </trkpt>
      <trkpt lat="43.21235" lon="5.45427">
        <ele>19</ele>
        <time>2012-05-01T09:04:48Z</time>
      </trkpt>
      <trkpt lat="43.21233" lon="5.4542">
        <ele>15</ele>
        <time>2012-05-01T09:04:59Z</time>
      </trkpt>
      <trkpt lat="43.21233" lon="5.45416">
        <ele>14</ele>
        <time>2012-05-01T09:05:09Z</time>
      </trkpt>
      <trkpt lat="43.21232" lon="5.45409">
        <ele>10</ele>
        <time>2012-05-01T09:05:18Z</time>
      </trkpt>
      <trkpt lat="43.2123" lon="5.45402">
        <ele>8</ele>
        <time>2012-05-01T09:05:28Z</time>
      </trkpt>
      <trkpt lat="43.21227" lon="5.45388">
        <ele>4</ele>
        <time>2012-05-01T09:05:38Z</time>
      </trkpt>
      <trkpt lat="43.21223" lon="5.45382">
        <ele>2</ele>
        <time>2012-05-01T09:05:52Z</time>
      </trkpt>
      <trkpt lat="43.21219" lon="5.45382">
        <ele>2</ele>
        <time>2012-05-01T09:06:01Z</time>
      </trkpt>
      <trkpt lat="43.21217" lon="5.45378">
        <ele>2</ele>
        <time>2012-05-01T09:06:14Z</time>
      </trkpt>
      <trkpt lat="43.21214" lon="5.45371">
        <ele>2</ele>
        <time>2012-05-01T09:06:23Z</time>
      </trkpt>
      <trkpt lat="43.21213" lon="5.45364">
        <ele>3</ele>
        <time>2012-05-01T09:06:33Z</time>
      </trkpt>
      <trkpt lat="43.21211" lon="5.45359">
        <ele>3</ele>
        <time>2012-05-01T09:06:42Z</time>
      </trkpt>
      <trkpt lat="43.21209" lon="5.45356">
        <ele>5</ele>
        <time>2012-05-01T09:06:52Z</time>
      </trkpt>
      <trkpt lat="43.21204" lon="5.45357">
        <ele>7</ele>
        <time>2012-05-01T09:07:04Z</time>
      </trkpt>
      <trkpt lat="43.21199" lon="5.45355">
        <ele>7</ele>
        <time>2012-05-01T09:07:13Z</time>
      </trkpt>
      <trkpt lat="43.21196" lon="5.45358">
        <ele>9</ele>
        <time>2012-05-01T09:07:23Z</time>
      </trkpt>
      <trkpt lat="43.21192" lon="5.45361">
        <ele>11</ele>
        <time>2012-05-01T09:07:33Z</time>
      </trkpt>
      <trkpt lat="43.21188" lon="5.4536">
        <ele>13</ele>
        <time>2012-05-01T09:07:48Z</time>
      </trkpt>
      <trkpt lat="43.21188" lon="5.45363">
        <ele>14</ele>
        <time>2012-05-01T09:08:03Z</time>
      </trkpt>
      <trkpt lat="43.21189" lon="5.45363">
        <ele>17</ele>
        <time>2012-05-01T09:08:12Z</time>
      </trkpt>
      <trkpt lat="43.21186" lon="5.45365">
        <ele>26</ele>
        <time>2012-05-01T09:08:21Z</time>
      </trkpt>
      <trkpt lat="43.21183" lon="5.45362">
        <ele>26</ele>
        <time>2012-05-01T09:08:33Z</time>
      </trkpt>
      <trkpt lat="43.21182" lon="5.45358">
        <ele>26</ele>
        <time>2012-05-01T09:08:42Z</time>
      </trkpt>
      <trkpt lat="43.2118" lon="5.45359">
        <ele>26</ele>
        <time>2012-05-01T09:09:07Z</time>
      </trkpt>
      <trkpt lat="43.2118" lon="5.4536">
        <ele>26</ele>
        <time>2012-05-01T09:09:24Z</time>
      </trkpt>
      <trkpt lat="43.21179" lon="5.45365">
        <ele>30</ele>
        <time>2012-05-01T09:09:38Z</time>
      </trkpt>
      <trkpt lat="43.21179" lon="5.45368">
        <ele>31</ele>
        <time>2012-05-01T09:09:49Z</time>
      </trkpt>
      <trkpt lat="43.2118" lon="5.45366">
        <ele>32</ele>
        <time>2012-05-01T09:10:00Z</time>
      </trkpt>
      <trkpt lat="43.2118" lon="5.45363">
        <ele>32</ele>
        <time>2012-05-01T09:10:10Z</time>
      </trkpt>
      <trkpt lat="43.21182" lon="5.4536">
        <ele>31</ele>
        <time>2012-05-01T09:10:27Z</time>
      </trkpt>
      <trkpt lat="43.21179" lon="5.45359">
        <ele>30</ele>
        <time>2012-05-01T09:10:36Z</time>
      </trkpt>
      <trkpt lat="43.21176" lon="5.4536">
        <ele>30</ele>
        <time>2012-05-01T09:10:49Z</time>
      </trkpt>
      <trkpt lat="43.21175" lon="5.45362">
        <ele>30</ele>
        <time>2012-05-01T09:11:02Z</time>
      </trkpt>
      <trkpt lat="43.21174" lon="5.45361">
        <ele>30</ele>
        <time>2012-05-01T09:11:18Z</time>
      </trkpt>
      <trkpt lat="43.2117" lon="5.45364">
        <ele>30</ele>
        <time>2012-05-01T09:11:27Z</time>
      </trkpt>
      <trkpt lat="43.21164" lon="5.4537">
        <ele>30</ele>
        <time>2012-05-01T09:11:36Z</time>
      </trkpt>
      <trkpt lat="43.21158" lon="5.45374">
        <ele>30</ele>
        <time>2012-05-01T09:11:47Z</time>
      </trkpt>
      <trkpt lat="43.21152" lon="5.45378">
        <ele>31</ele>
        <time>2012-05-01T09:11:57Z</time>
      </trkpt>
      <trkpt lat="43.21149" lon="5.45374">
        <ele>33</ele>
        <time>2012-05-01T09:12:06Z</time>
      </trkpt>
      <trkpt lat="43.21143" lon="5.45375">
        <ele>34</ele>
        <time>2012-05-01T09:12:16Z</time>
      </trkpt>
      <trkpt lat="43.21136" lon="5.45374">
        <ele>35</ele>
        <time>2012-05-01T09:12:26Z</time>
      </trkpt>
      <trkpt lat="43.21135" lon="5.45369">
        <ele>38</ele>
        <time>2012-05-01T09:12:43Z</time>
      </trkpt>
      <trkpt lat="43.21138" lon="5.45364">
        <ele>42</ele>
        <time>2012-05-01T09:12:58Z</time>
      </trkpt>
      <trkpt lat="43.21134" lon="5.45361">
        <ele>45</ele>
        <time>2012-05-01T09:13:08Z</time>
      </trkpt>
      <trkpt lat="43.21128" lon="5.45358">
        <ele>47</ele>
        <time>2012-05-01T09:13:18Z</time>
      </trkpt>
      <trkpt lat="43.21121" lon="5.4536">
        <ele>48</ele>
        <time>2012-05-01T09:13:28Z</time>
      </trkpt>
      <trkpt lat="43.21115" lon="5.45363">
        <ele>50</ele>
        <time>2012-05-01T09:13:39Z</time>
      </trkpt>
      <trkpt lat="43.21109" lon="5.45365">
        <ele>50</ele>
        <time>2012-05-01T09:13:49Z</time>
      </trkpt>
      <trkpt lat="43.21101" lon="5.45364">
        <ele>50</ele>
        <time>2012-05-01T09:13:58Z</time>
      </trkpt>
      <trkpt lat="43.21095" lon="5.45359">
        <ele>50</ele>
        <time>2012-05-01T09:14:08Z</time>
      </trkpt>
      <trkpt lat="43.21088" lon="5.45355">
        <ele>50</ele>
        <time>2012-05-01T09:14:18Z</time>
      </trkpt>
      <trkpt lat="43.2108" lon="5.45353">
        <ele>50</ele>
        <time>2012-05-01T09:14:28Z</time>
      </trkpt>
      <trkpt lat="43.21076" lon="5.45352">
        <ele>50</ele>
        <time>2012-05-01T09:15:13Z</time>
      </trkpt>
      <trkpt lat="43.21067" lon="5.45347">
        <ele>48</ele>
        <time>2012-05-01T09:15:23Z</time>
      </trkpt>
      <trkpt lat="43.21059" lon="5.4535">
        <ele>48</ele>
        <time>2012-05-01T09:15:32Z</time>
      </trkpt>
      <trkpt lat="43.21051" lon="5.45353">
        <ele>47</ele>
        <time>2012-05-01T09:15:41Z</time>
      </trkpt>
      <trkpt lat="43.21044" lon="5.45354">
        <ele>47</ele>
        <time>2012-05-01T09:15:55Z</time>
      </trkpt>
      <trkpt lat="43.21043" lon="5.45355">
        <ele>47</ele>
        <time>2012-05-01T09:16:05Z</time>
      </trkpt>
      <trkpt lat="43.21035" lon="5.45354">
        <ele>47</ele>
        <time>2012-05-01T09:16:15Z</time>
      </trkpt>
      <trkpt lat="43.21027" lon="5.45356">
        <ele>46</ele>
        <time>2012-05-01T09:16:24Z</time>
      </trkpt>
      <trkpt lat="43.2102" lon="5.45355">
        <ele>45</ele>
        <time>2012-05-01T09:16:33Z</time>
      </trkpt>
      <trkpt lat="43.21018" lon="5.45352">
        <ele>43</ele>
        <time>2012-05-01T09:16:46Z</time>
      </trkpt>
      <trkpt lat="43.21017" lon="5.45344">
        <ele>42</ele>
        <time>2012-05-01T09:16:56Z</time>
      </trkpt>
      <trkpt lat="43.21019" lon="5.45335">
        <ele>40</ele>
        <time>2012-05-01T09:17:07Z</time>
      </trkpt>
      <trkpt lat="43.21021" lon="5.45329">
        <ele>39</ele>
        <time>2012-05-01T09:17:16Z</time>
      </trkpt>
      <trkpt lat="43.21025" lon="5.45323">
        <ele>37</ele>
        <time>2012-05-01T09:17:25Z</time>
      </trkpt>
      <trkpt lat="43.21026" lon="5.45317">
        <ele>36</ele>
        <time>2012-05-01T09:17:38Z</time>
      </trkpt>
      <trkpt lat="43.21025" lon="5.45314">
        <ele>36</ele>
        <time>2012-05-01T09:17:48Z</time>
      </trkpt>
      <trkpt lat="43.21026" lon="5.45316">
        <ele>36</ele>
        <time>2012-05-01T09:18:02Z</time>
      </trkpt>
      <trkpt lat="43.21025" lon="5.45314">
        <ele>36</ele>
        <time>2012-05-01T09:18:13Z</time>
      </trkpt>
      <trkpt lat="43.21023" lon="5.45311">
        <ele>36</ele>
        <time>2012-05-01T09:18:23Z</time>
      </trkpt>
      <trkpt lat="43.21022" lon="5.45313">
        <ele>41</ele>
        <time>2012-05-01T09:18:34Z</time>
      </trkpt>
      <trkpt lat="43.21021" lon="5.45317">
        <ele>44</ele>
        <time>2012-05-01T09:18:43Z</time>
      </trkpt>
      <trkpt lat="43.21021" lon="5.45316">
        <ele>44</ele>
        <time>2012-05-01T09:18:56Z</time>
      </trkpt>
      <trkpt lat="43.21021" lon="5.45314">
        <ele>42</ele>
        <time>2012-05-01T09:19:23Z</time>
      </trkpt>
      <trkpt lat="43.21021" lon="5.45316">
        <ele>40</ele>
        <time>2012-05-01T09:19:45Z</time>
      </trkpt>
      <trkpt lat="43.21019" lon="5.45317">
        <ele>37</ele>
        <time>2012-05-01T09:19:57Z</time>
      </trkpt>
      <trkpt lat="43.21018" lon="5.45316">
        <ele>37</ele>
        <time>2012-05-01T09:20:39Z</time>
      </trkpt>
      <trkpt lat="43.21017" lon="5.45316">
        <ele>37</ele>
        <time>2012-05-01T09:20:52Z</time>
      </trkpt>
      <trkpt lat="43.21017" lon="5.45314">
        <ele>37</ele>
        <time>2012-05-01T09:21:06Z</time>
      </trkpt>
      <trkpt lat="43.21019" lon="5.45313">
        <ele>37</ele>
        <time>2012-05-01T09:21:15Z</time>
      </trkpt>
      <trkpt lat="43.21021" lon="5.45319">
        <ele>37</ele>
        <time>2012-05-01T09:21:26Z</time>
      </trkpt>
      <trkpt lat="43.21019" lon="5.45323">
        <ele>34</ele>
        <time>2012-05-01T09:21:35Z</time>
      </trkpt>
      <trkpt lat="43.21017" lon="5.45321">
        <ele>33</ele>
        <time>2012-05-01T09:21:44Z</time>
      </trkpt>
      <trkpt lat="43.21014" lon="5.45318">
        <ele>37</ele>
        <time>2012-05-01T09:21:54Z</time>
      </trkpt>
      <trkpt lat="43.21015" lon="5.45313">
        <ele>37</ele>
        <time>2012-05-01T09:22:05Z</time>
      </trkpt>
      <trkpt lat="43.21014" lon="5.45316">
        <ele>35</ele>
        <time>2012-05-01T09:22:23Z</time>
      </trkpt>
      <trkpt lat="43.21011" lon="5.45322">
        <ele>38</ele>
        <time>2012-05-01T09:22:39Z</time>
      </trkpt>
      <trkpt lat="43.21012" lon="5.4532">
        <ele>39</ele>
        <time>2012-05-01T09:22:48Z</time>
      </trkpt>
      <trkpt lat="43.21014" lon="5.45314">
        <ele>38</ele>
        <time>2012-05-01T09:23:01Z</time>
      </trkpt>
      <trkpt lat="43.21014" lon="5.45315">
        <ele>35</ele>
        <time>2012-05-01T09:23:31Z</time>
      </trkpt>
      <trkpt lat="43.21014" lon="5.45316">
        <ele>35</ele>
        <time>2012-05-01T09:23:40Z</time>
      </trkpt>
      <trkpt lat="43.21015" lon="5.45312">
        <ele>35</ele>
        <time>2012-05-01T09:23:51Z</time>
      </trkpt>
      <trkpt lat="43.21014" lon="5.45311">
        <ele>35</ele>
        <time>2012-05-01T09:24:00Z</time>
      </trkpt>
      <trkpt lat="43.21013" lon="5.45308">
        <ele>35</ele>
        <time>2012-05-01T09:24:12Z</time>
      </trkpt>
      <trkpt lat="43.21014" lon="5.45308">
        <ele>35</ele>
        <time>2012-05-01T09:24:37Z</time>
      </trkpt>
      <trkpt lat="43.21014" lon="5.453">
        <ele>33</ele>
        <time>2012-05-01T09:24:52Z</time>
      </trkpt>
      <trkpt lat="43.21014" lon="5.45292">
        <ele>31</ele>
        <time>2012-05-01T09:25:02Z</time>
      </trkpt>
      <trkpt lat="43.2101" lon="5.45283">
        <ele>31</ele>
        <time>2012-05-01T09:25:12Z</time>
      </trkpt>
      <trkpt lat="43.21008" lon="5.45275">
        <ele>31</ele>
        <time>2012-05-01T09:25:22Z</time>
      </trkpt>
      <trkpt lat="43.21011" lon="5.45264">
        <ele>31</ele>
        <time>2012-05-01T09:25:33Z</time>
      </trkpt>
      <trkpt lat="43.21014" lon="5.4526">
        <ele>31</ele>
        <time>2012-05-01T09:25:49Z</time>
      </trkpt>
      <trkpt lat="43.21015" lon="5.45262">
        <ele>33</ele>
        <time>2012-05-01T09:25:59Z</time>
      </trkpt>
      <trkpt lat="43.21017" lon="5.45256">
        <ele>34</ele>
        <time>2012-05-01T09:26:09Z</time>
      </trkpt>
      <trkpt lat="43.21019" lon="5.45248">
        <ele>34</ele>
        <time>2012-05-01T09:26:18Z</time>
      </trkpt>
      <trkpt lat="43.2102" lon="5.45236">
        <ele>34</ele>
        <time>2012-05-01T09:26:28Z</time>
      </trkpt>
      <trkpt lat="43.21022" lon="5.4523">
        <ele>34</ele>
        <time>2012-05-01T09:26:38Z</time>
      </trkpt>
      <trkpt lat="43.21022" lon="5.45225">
        <ele>34</ele>
        <time>2012-05-01T09:26:49Z</time>
      </trkpt>
      <trkpt lat="43.21022" lon="5.4522">
        <ele>34</ele>
        <time>2012-05-01T09:27:00Z</time>
      </trkpt>
      <trkpt lat="43.21021" lon="5.45217">
        <ele>32</ele>
        <time>2012-05-01T09:27:09Z</time>
      </trkpt>
      <trkpt lat="43.21026" lon="5.45209">
        <ele>31</ele>
        <time>2012-05-01T09:27:19Z</time>
      </trkpt>
      <trkpt lat="43.21034" lon="5.45204">
        <ele>31</ele>
        <time>2012-05-01T09:27:30Z</time>
      </trkpt>
      <trkpt lat="43.21036" lon="5.45208">
        <ele>31</ele>
        <time>2012-05-01T09:27:40Z</time>
      </trkpt>
      <trkpt lat="43.21043" lon="5.45202">
        <ele>31</ele>
        <time>2012-05-01T09:27:51Z</time>
      </trkpt>
      <trkpt lat="43.21049" lon="5.45196">
        <ele>31</ele>
        <time>2012-05-01T09:28:01Z</time>
      </trkpt>
      <trkpt lat="43.21055" lon="5.45182">
        <ele>33</ele>
        <time>2012-05-01T09:28:11Z</time>
      </trkpt>
      <trkpt lat="43.21061" lon="5.45174">
        <ele>33</ele>
        <time>2012-05-01T09:28:21Z</time>
      </trkpt>
      <trkpt lat="43.21066" lon="5.45165">
        <ele>39</ele>
        <time>2012-05-01T09:28:32Z</time>
      </trkpt>
      <trkpt lat="43.21067" lon="5.45157">
        <ele>40</ele>
        <time>2012-05-01T09:28:42Z</time>
      </trkpt>
      <trkpt lat="43.21069" lon="5.45148">
        <ele>41</ele>
        <time>2012-05-01T09:28:52Z</time>
      </trkpt>
      <trkpt lat="43.2107" lon="5.45139">
        <ele>43</ele>
        <time>2012-05-01T09:29:02Z</time>
      </trkpt>
      <trkpt lat="43.21068" lon="5.4513">
        <ele>47</ele>
        <time>2012-05-01T09:29:14Z</time>
      </trkpt>
      <trkpt lat="43.21069" lon="5.45125">
        <ele>48</ele>
        <time>2012-05-01T09:29:23Z</time>
      </trkpt>
      <trkpt lat="43.21072" lon="5.45117">
        <ele>48</ele>
        <time>2012-05-01T09:29:34Z</time>
      </trkpt>
      <trkpt lat="43.2108" lon="5.45112">
        <ele>48</ele>
        <time>2012-05-01T09:29:44Z</time>
      </trkpt>
      <trkpt lat="43.21087" lon="5.45105">
        <ele>48</ele>
        <time>2012-05-01T09:29:54Z</time>
      </trkpt>
      <trkpt lat="43.21096" lon="5.45094">
        <ele>48</ele>
        <time>2012-05-01T09:30:04Z</time>
      </trkpt>
      <trkpt lat="43.21099" lon="5.45081">
        <ele>48</ele>
        <time>2012-05-01T09:30:13Z</time>
      </trkpt>
      <trkpt lat="43.21109" lon="5.45073">
        <ele>48</ele>
        <time>2012-05-01T09:30:23Z</time>
      </trkpt>
      <trkpt lat="43.21115" lon="5.45063">
        <ele>48</ele>
        <time>2012-05-01T09:30:33Z</time>
      </trkpt>
      <trkpt lat="43.21123" lon="5.45052">
        <ele>48</ele>
        <time>2012-05-01T09:30:42Z</time>
      </trkpt>
      <trkpt lat="43.21127" lon="5.45042">
        <ele>48</ele>
        <time>2012-05-01T09:30:51Z</time>
      </trkpt>
      <trkpt lat="43.21118" lon="5.45024">
        <ele>47</ele>
        <time>2012-05-01T09:31:01Z</time>
      </trkpt>
      <trkpt lat="43.21112" lon="5.45015">
        <ele>44</ele>
        <time>2012-05-01T09:31:10Z</time>
      </trkpt>
      <trkpt lat="43.21104" lon="5.45004">
        <ele>44</ele>
        <time>2012-05-01T09:31:20Z</time>
      </trkpt>
      <trkpt lat="43.21099" lon="5.44989">
        <ele>44</ele>
        <time>2012-05-01T09:31:30Z</time>
      </trkpt>
      <trkpt lat="43.21098" lon="5.44974">
        <ele>44</ele>
        <time>2012-05-01T09:31:39Z</time>
      </trkpt>
      <trkpt lat="43.21104" lon="5.4496">
        <ele>44</ele>
        <time>2012-05-01T09:31:50Z</time>
      </trkpt>
      <trkpt lat="43.21111" lon="5.44948">
        <ele>44</ele>
        <time>2012-05-01T09:31:59Z</time>
      </trkpt>
      <trkpt lat="43.21113" lon="5.44939">
        <ele>44</ele>
        <time>2012-05-01T09:32:08Z</time>
      </trkpt>
      <trkpt lat="43.21106" lon="5.4493">
        <ele>44</ele>
        <time>2012-05-01T09:32:17Z</time>
      </trkpt>
      <trkpt lat="43.21098" lon="5.44924">
        <ele>43</ele>
        <time>2012-05-01T09:32:26Z</time>
      </trkpt>
      <trkpt lat="43.2109" lon="5.44914">
        <ele>43</ele>
        <time>2012-05-01T09:32:35Z</time>
      </trkpt>
      <trkpt lat="43.21083" lon="5.44905">
        <ele>41</ele>
        <time>2012-05-01T09:32:45Z</time>
      </trkpt>
      <trkpt lat="43.21084" lon="5.44897">
        <ele>39</ele>
        <time>2012-05-01T09:32:54Z</time>
      </trkpt>
      <trkpt lat="43.21086" lon="5.44889">
        <ele>39</ele>
        <time>2012-05-01T09:33:03Z</time>
      </trkpt>
      <trkpt lat="43.2109" lon="5.44881">
        <ele>41</ele>
        <time>2012-05-01T09:33:12Z</time>
      </trkpt>
      <trkpt lat="43.21093" lon="5.44872">
        <ele>41</ele>
        <time>2012-05-01T09:33:22Z</time>
      </trkpt>
      <trkpt lat="43.21096" lon="5.44858">
        <ele>41</ele>
        <time>2012-05-01T09:33:31Z</time>
      </trkpt>
      <trkpt lat="43.21095" lon="5.44846">
        <ele>41</ele>
        <time>2012-05-01T09:33:41Z</time>
      </trkpt>
      <trkpt lat="43.21098" lon="5.44838">
        <ele>41</ele>
        <time>2012-05-01T09:33:52Z</time>
      </trkpt>
      <trkpt lat="43.21103" lon="5.44837">
        <ele>41</ele>
        <time>2012-05-01T09:34:01Z</time>
      </trkpt>
      <trkpt lat="43.21107" lon="5.44837">
        <ele>41</ele>
        <time>2012-05-01T09:34:11Z</time>
      </trkpt>
      <trkpt lat="43.21104" lon="5.44833">
        <ele>41</ele>
        <time>2012-05-01T09:34:24Z</time>
      </trkpt>
      <trkpt lat="43.21103" lon="5.4483">
        <ele>38</ele>
        <time>2012-05-01T09:34:34Z</time>
      </trkpt>
      <trkpt lat="43.21108" lon="5.44829">
        <ele>36</ele>
        <time>2012-05-01T09:34:46Z</time>
      </trkpt>
      <trkpt lat="43.21109" lon="5.44826">
        <ele>36</ele>
        <time>2012-05-01T09:34:56Z</time>
      </trkpt>
      <trkpt lat="43.21112" lon="5.44825">
        <ele>35</ele>
        <time>2012-05-01T09:35:05Z</time>
      </trkpt>
      <trkpt lat="43.21109" lon="5.44822">
        <ele>34</ele>
        <time>2012-05-01T09:35:15Z</time>
      </trkpt>
      <trkpt lat="43.21109" lon="5.44819">
        <ele>34</ele>
        <time>2012-05-01T09:35:27Z</time>
      </trkpt>
      <trkpt lat="43.21114" lon="5.44816">
        <ele>34</ele>
        <time>2012-05-01T09:35:36Z</time>
      </trkpt>
      <trkpt lat="43.2112" lon="5.44812">
        <ele>33</ele>
        <time>2012-05-01T09:35:45Z</time>
      </trkpt>
      <trkpt lat="43.21125" lon="5.44803">
        <ele>26</ele>
        <time>2012-05-01T09:35:54Z</time>
      </trkpt>
      <trkpt lat="43.21132" lon="5.44794">
        <ele>26</ele>
        <time>2012-05-01T09:36:03Z</time>
      </trkpt>
      <trkpt lat="43.21132" lon="5.4479">
        <ele>26</ele>
        <time>2012-05-01T09:36:13Z</time>
      </trkpt>
      <trkpt lat="43.21138" lon="5.44786">
        <ele>27</ele>
        <time>2012-05-01T09:36:22Z</time>
      </trkpt>
      <trkpt lat="43.21145" lon="5.44782">
        <ele>27</ele>
        <time>2012-05-01T09:36:33Z</time>
      </trkpt>
      <trkpt lat="43.2115" lon="5.4477">
        <ele>28</ele>
        <time>2012-05-01T09:36:42Z</time>
      </trkpt>
      <trkpt lat="43.21158" lon="5.44763">
        <ele>29</ele>
        <time>2012-05-01T09:36:51Z</time>
      </trkpt>
      <trkpt lat="43.21167" lon="5.44765">
        <ele>29</ele>
        <time>2012-05-01T09:37:01Z</time>
      </trkpt>
      <trkpt lat="43.21174" lon="5.44762">
        <ele>29</ele>
        <time>2012-05-01T09:37:11Z</time>
      </trkpt>
      <trkpt lat="43.21184" lon="5.44757">
        <ele>29</ele>
        <time>2012-05-01T09:37:20Z</time>
      </trkpt>
      <trkpt lat="43.21191" lon="5.44751">
        <ele>29</ele>
        <time>2012-05-01T09:37:30Z</time>
      </trkpt>
      <trkpt lat="43.21197" lon="5.44742">
        <ele>32</ele>
        <time>2012-05-01T09:37:39Z</time>
      </trkpt>
      <trkpt lat="43.21201" lon="5.4473">
        <ele>34</ele>
        <time>2012-05-01T09:37:49Z</time>
      </trkpt>
      <trkpt lat="43.21201" lon="5.44718">
        <ele>34</ele>
        <time>2012-05-01T09:37:58Z</time>
      </trkpt>
      <trkpt lat="43.21203" lon="5.44706">
        <ele>34</ele>
        <time>2012-05-01T09:38:07Z</time>
      </trkpt>
      <trkpt lat="43.21206" lon="5.447">
        <ele>39</ele>
        <time>2012-05-01T09:38:16Z</time>
      </trkpt>
      <trkpt lat="43.2121" lon="5.44688">
        <ele>45</ele>
        <time>2012-05-01T09:38:26Z</time>
      </trkpt>
      <trkpt lat="43.21216" lon="5.44683">
        <ele>47</ele>
        <time>2012-05-01T09:38:36Z</time>
      </trkpt>
      <trkpt lat="43.21221" lon="5.44673">
        <ele>47</ele>
        <time>2012-05-01T09:38:45Z</time>
      </trkpt>
      <trkpt lat="43.21226" lon="5.4466">
        <ele>46</ele>
        <time>2012-05-01T09:38:55Z</time>
      </trkpt>
      <trkpt lat="43.21236" lon="5.44661">
        <ele>41</ele>
        <time>2012-05-01T09:39:05Z</time>
      </trkpt>
      <trkpt lat="43.2124" lon="5.44659">
        <ele>40</ele>
        <time>2012-05-01T09:39:15Z</time>
      </trkpt>
      <trkpt lat="43.21244" lon="5.44649">
        <ele>41</ele>
        <time>2012-05-01T09:39:25Z</time>
      </trkpt>
      <trkpt lat="43.21247" lon="5.4464">
        <ele>44</ele>
        <time>2012-05-01T09:39:34Z</time>
      </trkpt>
      <trkpt lat="43.21247" lon="5.44626">
        <ele>44</ele>
        <time>2012-05-01T09:39:44Z</time>
      </trkpt>
      <trkpt lat="43.21249" lon="5.44621">
        <ele>44</ele>
        <time>2012-05-01T09:39:53Z</time>
      </trkpt>
      <trkpt lat="43.21253" lon="5.44617">
        <ele>44</ele>
        <time>2012-05-01T09:40:02Z</time>
      </trkpt>
      <trkpt lat="43.21259" lon="5.44614">
        <ele>44</ele>
        <time>2012-05-01T09:40:12Z</time>
      </trkpt>
      <trkpt lat="43.21264" lon="5.44604">
        <ele>41</ele>
        <time>2012-05-01T09:40:21Z</time>
      </trkpt>
      <trkpt lat="43.21271" lon="5.44594">
        <ele>38</ele>
        <time>2012-05-01T09:40:30Z</time>
      </trkpt>
      <trkpt lat="43.2128" lon="5.44579">
        <ele>35</ele>
        <time>2012-05-01T09:40:39Z</time>
      </trkpt>
      <trkpt lat="43.2129" lon="5.44571">
        <ele>35</ele>
        <time>2012-05-01T09:40:48Z</time>
      </trkpt>
      <trkpt lat="43.21293" lon="5.44566">
        <ele>35</ele>
        <time>2012-05-01T09:40:57Z</time>
      </trkpt>
      <trkpt lat="43.21294" lon="5.44563">
        <ele>36</ele>
        <time>2012-05-01T09:41:06Z</time>
      </trkpt>
      <trkpt lat="43.21295" lon="5.4456">
        <ele>36</ele>
        <time>2012-05-01T09:41:15Z</time>
      </trkpt>
      <trkpt lat="43.21294" lon="5.44556">
        <ele>36</ele>
        <time>2012-05-01T09:41:24Z</time>
      </trkpt>
      <trkpt lat="43.21297" lon="5.44554">
        <ele>32</ele>
        <time>2012-05-01T09:41:33Z</time>
      </trkpt>
      <trkpt lat="43.21294" lon="5.44548">
        <ele>28</ele>
        <time>2012-05-01T09:41:43Z</time>
      </trkpt>
      <trkpt lat="43.21294" lon="5.44532">
        <ele>28</ele>
        <time>2012-05-01T09:41:59Z</time>
      </trkpt>
      <trkpt lat="43.21291" lon="5.44519">
        <ele>31</ele>
        <time>2012-05-01T09:42:08Z</time>
      </trkpt>
      <trkpt lat="43.21291" lon="5.44516">
        <ele>25</ele>
        <time>2012-05-01T09:42:20Z</time>
      </trkpt>
      <trkpt lat="43.2129" lon="5.44516">
        <ele>20</ele>
        <time>2012-05-01T09:42:31Z</time>
      </trkpt>
      <trkpt lat="43.21284" lon="5.4452">
        <ele>20</ele>
        <time>2012-05-01T09:42:40Z</time>
      </trkpt>
      <trkpt lat="43.21281" lon="5.44519">
        <ele>19</ele>
        <time>2012-05-01T09:42:51Z</time>
      </trkpt>
      <trkpt lat="43.21284" lon="5.44509">
        <ele>12</ele>
        <time>2012-05-01T09:43:00Z</time>
      </trkpt>
      <trkpt lat="43.21289" lon="5.44501">
        <ele>12</ele>
        <time>2012-05-01T09:43:09Z</time>
      </trkpt>
      <trkpt lat="43.21287" lon="5.44492">
        <ele>19</ele>
        <time>2012-05-01T09:43:20Z</time>
      </trkpt>
      <trkpt lat="43.21286" lon="5.44489">
        <ele>20</ele>
        <time>2012-05-01T09:43:30Z</time>
      </trkpt>
      <trkpt lat="43.21284" lon="5.44483">
        <ele>17</ele>
        <time>2012-05-01T09:43:39Z</time>
      </trkpt>
      <trkpt lat="43.21279" lon="5.44483">
        <ele>11</ele>
        <time>2012-05-01T09:43:49Z</time>
      </trkpt>
      <trkpt lat="43.21275" lon="5.44478">
        <ele>9</ele>
        <time>2012-05-01T09:43:59Z</time>
      </trkpt>
      <trkpt lat="43.21275" lon="5.4447">
        <ele>7</ele>
        <time>2012-05-01T09:44:08Z</time>
      </trkpt>
      <trkpt lat="43.21273" lon="5.44463">
        <ele>5</ele>
        <time>2012-05-01T09:44:17Z</time>
      </trkpt>
      <trkpt lat="43.21271" lon="5.44454">
        <ele>4</ele>
        <time>2012-05-01T09:44:28Z</time>
      </trkpt>
      <trkpt lat="43.21273" lon="5.44452">
        <ele>2</ele>
        <time>2012-05-01T09:44:37Z</time>
      </trkpt>
      <trkpt lat="43.21275" lon="5.44453">
        <ele>2</ele>
        <time>2012-05-01T09:44:51Z</time>
      </trkpt>
      <trkpt lat="43.21274" lon="5.44454">
        <ele>2</ele>
        <time>2012-05-01T09:45:11Z</time>
      </trkpt>
      <trkpt lat="43.21275" lon="5.44451">
        <ele>2</ele>
        <time>2012-05-01T09:45:21Z</time>
      </trkpt>
      <trkpt lat="43.21281" lon="5.44441">
        <ele>2</ele>
        <time>2012-05-01T09:45:31Z</time>
      </trkpt>
      <trkpt lat="43.21286" lon="5.44435">
        <ele>2</ele>
        <time>2012-05-01T09:45:40Z</time>
      </trkpt>
      <trkpt lat="43.21287" lon="5.44426">
        <ele>2</ele>
        <time>2012-05-01T09:45:49Z</time>
      </trkpt>
      <trkpt lat="43.2129" lon="5.44418">
        <ele>2</ele>
        <time>2012-05-01T09:45:58Z</time>
      </trkpt>
      <trkpt lat="43.21297" lon="5.44411">
        <ele>2</ele>
        <time>2012-05-01T09:46:09Z</time>
      </trkpt>
      <trkpt lat="43.21297" lon="5.44405">
        <ele>12.3</ele>
        <time>2012-05-01T09:46:24Z</time>
      </trkpt>
      <trkpt lat="43.21294" lon="5.44405">
        <ele>10.6</ele>
        <time>2012-05-01T09:46:33Z</time>
      </trkpt>
      <trkpt lat="43.21296" lon="5.444">
        <ele>9.6</ele>
        <time>2012-05-01T09:46:42Z</time>
      </trkpt>
      <trkpt lat="43.21299" lon="5.44386">
        <ele>4.6</ele>
        <time>2012-05-01T09:46:51Z</time>
      </trkpt>
      <trkpt lat="43.213" lon="5.44374">
        <ele>2.8</ele>
        <time>2012-05-01T09:47:01Z</time>
      </trkpt>
      <trkpt lat="43.21299" lon="5.44363">
        <ele>1.2</ele>
        <time>2012-05-01T09:47:11Z</time>
      </trkpt>
      <trkpt lat="43.21305" lon="5.44357">
        <ele>1</ele>
        <time>2012-05-01T09:47:21Z</time>
      </trkpt>
      <trkpt lat="43.21307" lon="5.44359">
        <ele>1.7</ele>
        <time>2012-05-01T09:47:33Z</time>
      </trkpt>
      <trkpt lat="43.21308" lon="5.44348">
        <ele>1.9</ele>
        <time>2012-05-01T09:47:42Z</time>
      </trkpt>
      <trkpt lat="43.21302" lon="5.44336">
        <ele>1</ele>
        <time>2012-05-01T09:47:52Z</time>
      </trkpt>
      <trkpt lat="43.21296" lon="5.44329">
        <ele>1.2</ele>
        <time>2012-05-01T09:48:02Z</time>
      </trkpt>
      <trkpt lat="43.21288" lon="5.44324">
        <ele>1.5</ele>
        <time>2012-05-01T09:48:12Z</time>
      </trkpt>
      <trkpt lat="43.21282" lon="5.44321">
        <ele>1.8</ele>
        <time>2012-05-01T09:48:21Z</time>
      </trkpt>
      <trkpt lat="43.21273" lon="5.44321">
        <ele>2.4</ele>
        <time>2012-05-01T09:48:30Z</time>
      </trkpt>
      <trkpt lat="43.21266" lon="5.4433">
        <ele>2.5</ele>
        <time>2012-05-01T09:48:39Z</time>
      </trkpt>
      <trkpt lat="43.21262" lon="5.4434">
        <ele>2.3</ele>
        <time>2012-05-01T09:48:49Z</time>
      </trkpt>
      <trkpt lat="43.21259" lon="5.44349">
        <ele>1.9</ele>
        <time>2012-05-01T09:48:59Z</time>
      </trkpt>
      <trkpt lat="43.21254" lon="5.44352">
        <ele>1.9</ele>
        <time>2012-05-01T09:49:08Z</time>
      </trkpt>
      <trkpt lat="43.21249" lon="5.44358">
        <ele>1.9</ele>
        <time>2012-05-01T09:49:24Z</time>
      </trkpt>
      <trkpt lat="43.21241" lon="5.44366">
        <ele>4.6</ele>
        <time>2012-05-01T09:49:33Z</time>
      </trkpt>
      <trkpt lat="43.21233" lon="5.44376">
        <ele>5.7</ele>
        <time>2012-05-01T09:49:42Z</time>
      </trkpt>
      <trkpt lat="43.21228" lon="5.44384">
        <ele>4.9</ele>
        <time>2012-05-01T09:49:51Z</time>
      </trkpt>
      <trkpt lat="43.21221" lon="5.44396">
        <ele>6.2</ele>
        <time>2012-05-01T09:50:01Z</time>
      </trkpt>
      <trkpt lat="43.21214" lon="5.44406">
        <ele>10.6</ele>
        <time>2012-05-01T09:50:11Z</time>
      </trkpt>
      <trkpt lat="43.21213" lon="5.44406">
        <ele>11</ele>
        <time>2012-05-01T09:50:21Z</time>
      </trkpt>
      <trkpt lat="43.21212" lon="5.44404">
        <ele>11.3</ele>
        <time>2012-05-01T09:50:43Z</time>
      </trkpt>
      <trkpt lat="43.21213" lon="5.44406">
        <ele>10.9</ele>
        <time>2012-05-01T09:50:56Z</time>
      </trkpt>
      <trkpt lat="43.21214" lon="5.44404">
        <ele>10.7</ele>
        <time>2012-05-01T09:51:22Z</time>
      </trkpt>
      <trkpt lat="43.21215" lon="5.44403">
        <ele>10.2</ele>
        <time>2012-05-01T09:51:45Z</time>
      </trkpt>
      <trkpt lat="43.21215" lon="5.44405">
        <ele>10</ele>
        <time>2012-05-01T09:51:54Z</time>
      </trkpt>
      <trkpt lat="43.21219" lon="5.44406">
        <ele>8.9</ele>
        <time>2012-05-01T09:52:04Z</time>
      </trkpt>
      <trkpt lat="43.2122" lon="5.44408">
        <ele>-4</ele>
        <time>2012-05-01T09:52:15Z</time>
      </trkpt>
      <trkpt lat="43.21223" lon="5.44405">
        <ele>-3</ele>
        <time>2012-05-01T09:52:24Z</time>
      </trkpt>
      <trkpt lat="43.2122" lon="5.44406">
        <ele>8.3</ele>
        <time>2012-05-01T09:52:33Z</time>
      </trkpt>
      <trkpt lat="43.21221" lon="5.44405">
        <ele>7.8</ele>
        <time>2012-05-01T09:52:43Z</time>
      </trkpt>
      <trkpt lat="43.2122" lon="5.44405">
        <ele>8.2</ele>
        <time>2012-05-01T09:52:52Z</time>
      </trkpt>
      <trkpt lat="43.21216" lon="5.44402">
        <ele>9.7</ele>
        <time>2012-05-01T09:53:01Z</time>
      </trkpt>
      <trkpt lat="43.21214" lon="5.44403">
        <ele>10.9</ele>
        <time>2012-05-01T09:53:10Z</time>
      </trkpt>
      <trkpt lat="43.21212" lon="5.44404">
        <ele>11.3</ele>
        <time>2012-05-01T09:53:22Z</time>
      </trkpt>
      <trkpt lat="43.21212" lon="5.44404">
        <ele>-1</ele>
        <time>2012-05-01T09:53:34Z</time>
      </trkpt>
      <trkpt lat="43.21215" lon="5.44403">
        <ele>-1</ele>
        <time>2012-05-01T09:53:45Z</time>
      </trkpt>
      <trkpt lat="43.21212" lon="5.44405">
        <ele>-1</ele>
        <time>2012-05-01T09:53:58Z</time>
      </trkpt>
      <trkpt lat="43.21214" lon="5.44402">
        <ele>10.8</ele>
        <time>2012-05-01T09:54:33Z</time>
      </trkpt>
      <trkpt lat="43.21214" lon="5.44401">
        <ele>11</ele>
        <time>2012-05-01T09:54:43Z</time>
      </trkpt>
      <trkpt lat="43.21212" lon="5.44401">
        <ele>5</ele>
        <time>2012-05-01T09:54:55Z</time>
      </trkpt>
      <trkpt lat="43.21211" lon="5.44404">
        <ele>11.9</ele>
        <time>2012-05-01T09:55:05Z</time>
      </trkpt>
      <trkpt lat="43.2121" lon="5.44406">
        <ele>11.8</ele>
        <time>2012-05-01T09:55:29Z</time>
      </trkpt>
      <trkpt lat="43.21209" lon="5.44408">
        <ele>11.8</ele>
        <time>2012-05-01T09:55:39Z</time>
      </trkpt>
      <trkpt lat="43.21212" lon="5.44407">
        <ele>11.2</ele>
        <time>2012-05-01T09:55:48Z</time>
      </trkpt>
      <trkpt lat="43.21213" lon="5.44406">
        <ele>10.8</ele>
        <time>2012-05-01T09:55:57Z</time>
      </trkpt>
      <trkpt lat="43.21218" lon="5.44403">
        <ele>9.1</ele>
        <time>2012-05-01T09:56:07Z</time>
      </trkpt>
      <trkpt lat="43.21219" lon="5.44402">
        <ele>8.4</ele>
        <time>2012-05-01T09:56:19Z</time>
      </trkpt>
      <trkpt lat="43.21215" lon="5.44407">
        <ele>10.2</ele>
        <time>2012-05-01T09:56:28Z</time>
      </trkpt>
      <trkpt lat="43.21219" lon="5.44404">
        <ele>8.6</ele>
        <time>2012-05-01T09:56:37Z</time>
      </trkpt>
      <trkpt lat="43.21218" lon="5.44403">
        <ele>8.8</ele>
        <time>2012-05-01T09:56:55Z</time>
      </trkpt>
      <trkpt lat="43.21215" lon="5.44404">
        <ele>10</ele>
        <time>2012-05-01T09:57:07Z</time>
      </trkpt>
      <trkpt lat="43.21215" lon="5.44403">
        <ele>10.4</ele>
        <time>2012-05-01T09:57:24Z</time>
      </trkpt>
      <trkpt lat="43.21213" lon="5.44403">
        <ele>11.1</ele>
        <time>2012-05-01T09:57:35Z</time>
      </trkpt>
      <trkpt lat="43.21212" lon="5.44407">
        <ele>11.2</ele>
        <time>2012-05-01T09:57:47Z</time>
      </trkpt>
      <trkpt lat="43.21213" lon="5.44406">
        <ele>2</ele>
        <time>2012-05-01T09:58:00Z</time>
      </trkpt>
      <trkpt lat="43.21209" lon="5.44407">
        <ele>2</ele>
        <time>2012-05-01T09:58:10Z</time>
      </trkpt>
      <trkpt lat="43.21206" lon="5.44413">
        <ele>2</ele>
        <time>2012-05-01T09:58:20Z</time>
      </trkpt>
      <trkpt lat="43.21206" lon="5.44413">
        <ele>1</ele>
        <time>2012-05-01T09:58:31Z</time>
      </trkpt>
      <trkpt lat="43.21201" lon="5.44417">
        <ele>1</ele>
        <time>2012-05-01T09:58:42Z</time>
      </trkpt>
      <trkpt lat="43.21197" lon="5.44424">
        <ele>2</ele>
        <time>2012-05-01T09:58:51Z</time>
      </trkpt>
      <trkpt lat="43.21192" lon="5.44427">
        <ele>2</ele>
        <time>2012-05-01T09:59:01Z</time>
      </trkpt>
      <trkpt lat="43.21193" lon="5.44429">
        <ele>7</ele>
        <time>2012-05-01T09:59:11Z</time>
      </trkpt>
      <trkpt lat="43.21186" lon="5.44427">
        <ele>7</ele>
        <time>2012-05-01T09:59:20Z</time>
      </trkpt>
      <trkpt lat="43.21193" lon="5.44424">
        <ele>12</ele>
        <time>2012-05-01T09:59:31Z</time>
      </trkpt>
      <trkpt lat="43.21191" lon="5.4442">
        <ele>16</ele>
        <time>2012-05-01T09:59:40Z</time>
      </trkpt>
      <trkpt lat="43.21183" lon="5.44418">
        <ele>14</ele>
        <time>2012-05-01T09:59:50Z</time>
      </trkpt>
      <trkpt lat="43.21175" lon="5.44416">
        <ele>14</ele>
        <time>2012-05-01T09:59:59Z</time>
      </trkpt>
      <trkpt lat="43.21166" lon="5.44412">
        <ele>14</ele>
        <time>2012-05-01T10:00:09Z</time>
      </trkpt>
      <trkpt lat="43.2116" lon="5.44411">
        <ele>11</ele>
        <time>2012-05-01T10:00:19Z</time>
      </trkpt>
      <trkpt lat="43.21162" lon="5.44409">
        <ele>9</ele>
        <time>2012-05-01T10:00:30Z</time>
      </trkpt>
      <trkpt lat="43.21155" lon="5.44406">
        <ele>9</ele>
        <time>2012-05-01T10:00:39Z</time>
      </trkpt>
      <trkpt lat="43.21143" lon="5.44404">
        <ele>9</ele>
        <time>2012-05-01T10:00:49Z</time>
      </trkpt>
      <trkpt lat="43.21138" lon="5.44414">
        <ele>9</ele>
        <time>2012-05-01T10:00:59Z</time>
      </trkpt>
      <trkpt lat="43.21132" lon="5.4442">
        <ele>9</ele>
        <time>2012-05-01T10:01:10Z</time>
      </trkpt>
      <trkpt lat="43.21128" lon="5.44428">
        <ele>10</ele>
        <time>2012-05-01T10:01:20Z</time>
      </trkpt>
      <trkpt lat="43.21125" lon="5.44436">
        <ele>13</ele>
        <time>2012-05-01T10:01:30Z</time>
      </trkpt>
      <trkpt lat="43.21125" lon="5.44439">
        <ele>16</ele>
        <time>2012-05-01T10:01:40Z</time>
      </trkpt>
      <trkpt lat="43.21123" lon="5.44447">
        <ele>18</ele>
        <time>2012-05-01T10:01:50Z</time>
      </trkpt>
      <trkpt lat="43.21122" lon="5.44457">
        <ele>19</ele>
        <time>2012-05-01T10:01:59Z</time>
      </trkpt>
      <trkpt lat="43.21123" lon="5.44466">
        <ele>20</ele>
        <time>2012-05-01T10:02:10Z</time>
      </trkpt>
      <trkpt lat="43.21125" lon="5.44475">
        <ele>20</ele>
        <time>2012-05-01T10:02:19Z</time>
      </trkpt>
      <trkpt lat="43.2112" lon="5.44482">
        <ele>20</ele>
        <time>2012-05-01T10:02:29Z</time>
      </trkpt>
      <trkpt lat="43.21112" lon="5.44485">
        <ele>20</ele>
        <time>2012-05-01T10:02:38Z</time>
      </trkpt>
      <trkpt lat="43.21105" lon="5.4449">
        <ele>19</ele>
        <time>2012-05-01T10:02:47Z</time>
      </trkpt>
      <trkpt lat="43.21101" lon="5.44499">
        <ele>18</ele>
        <time>2012-05-01T10:02:56Z</time>
      </trkpt>
      <trkpt lat="43.21096" lon="5.44511">
        <ele>18</ele>
        <time>2012-05-01T10:03:06Z</time>
      </trkpt>
      <trkpt lat="43.2109" lon="5.44519">
        <ele>18</ele>
        <time>2012-05-01T10:03:15Z</time>
      </trkpt>
      <trkpt lat="43.21082" lon="5.44526">
        <ele>17</ele>
        <time>2012-05-01T10:03:24Z</time>
      </trkpt>
      <trkpt lat="43.21078" lon="5.44535">
        <ele>17</ele>
        <time>2012-05-01T10:03:34Z</time>
      </trkpt>
      <trkpt lat="43.21069" lon="5.44546">
        <ele>17</ele>
        <time>2012-05-01T10:03:45Z</time>
      </trkpt>
      <trkpt lat="43.21062" lon="5.44551">
        <ele>17</ele>
        <time>2012-05-01T10:03:55Z</time>
      </trkpt>
      <trkpt lat="43.21056" lon="5.44557">
        <ele>14</ele>
        <time>2012-05-01T10:04:05Z</time>
      </trkpt>
      <trkpt lat="43.21048" lon="5.44563">
        <ele>12</ele>
        <time>2012-05-01T10:04:15Z</time>
      </trkpt>
      <trkpt lat="43.2104" lon="5.44562">
        <ele>12</ele>
        <time>2012-05-01T10:04:25Z</time>
      </trkpt>
      <trkpt lat="43.21039" lon="5.44565">
        <ele>12</ele>
        <time>2012-05-01T10:04:41Z</time>
      </trkpt>
      <trkpt lat="43.2104" lon="5.44565">
        <ele>12</ele>
        <time>2012-05-01T10:04:51Z</time>
      </trkpt>
      <trkpt lat="43.21037" lon="5.44565">
        <ele>13</ele>
        <time>2012-05-01T10:05:01Z</time>
      </trkpt>
      <trkpt lat="43.21037" lon="5.44565">
        <ele>13</ele>
        <time>2012-05-01T10:05:12Z</time>
      </trkpt>
      <trkpt lat="43.21039" lon="5.44562">
        <ele>13</ele>
        <time>2012-05-01T10:05:25Z</time>
      </trkpt>
      <trkpt lat="43.21037" lon="5.44565">
        <ele>14</ele>
        <time>2012-05-01T10:05:36Z</time>
      </trkpt>
      <trkpt lat="43.21035" lon="5.44564">
        <ele>15</ele>
        <time>2012-05-01T10:05:51Z</time>
      </trkpt>
      <trkpt lat="43.21027" lon="5.44566">
        <ele>17</ele>
        <time>2012-05-01T10:06:00Z</time>
      </trkpt>
      <trkpt lat="43.21017" lon="5.44572">
        <ele>17</ele>
        <time>2012-05-01T10:06:09Z</time>
      </trkpt>
      <trkpt lat="43.21008" lon="5.44578">
        <ele>17</ele>
        <time>2012-05-01T10:06:18Z</time>
      </trkpt>
      <trkpt lat="43.20998" lon="5.44581">
        <ele>17</ele>
        <time>2012-05-01T10:06:27Z</time>
      </trkpt>
      <trkpt lat="43.20993" lon="5.44588">
        <ele>17</ele>
        <time>2012-05-01T10:06:36Z</time>
      </trkpt>
      <trkpt lat="43.20987" lon="5.44591">
        <ele>17</ele>
        <time>2012-05-01T10:06:46Z</time>
      </trkpt>
      <trkpt lat="43.2098" lon="5.44599">
        <ele>17</ele>
        <time>2012-05-01T10:06:56Z</time>
      </trkpt>
      <trkpt lat="43.20974" lon="5.44604">
        <ele>17</ele>
        <time>2012-05-01T10:07:05Z</time>
      </trkpt>
      <trkpt lat="43.20965" lon="5.44611">
        <ele>16</ele>
        <time>2012-05-01T10:07:14Z</time>
      </trkpt>
      <trkpt lat="43.20959" lon="5.44613">
        <ele>16</ele>
        <time>2012-05-01T10:07:24Z</time>
      </trkpt>
      <trkpt lat="43.20952" lon="5.44614">
        <ele>18</ele>
        <time>2012-05-01T10:07:34Z</time>
      </trkpt>
      <trkpt lat="43.20945" lon="5.44619">
        <ele>18</ele>
        <time>2012-05-01T10:07:45Z</time>
      </trkpt>
      <trkpt lat="43.20937" lon="5.44625">
        <ele>18</ele>
        <time>2012-05-01T10:07:55Z</time>
      </trkpt>
      <trkpt lat="43.20929" lon="5.4463">
        <ele>18</ele>
        <time>2012-05-01T10:08:04Z</time>
      </trkpt>
      <trkpt lat="43.20921" lon="5.44637">
        <ele>18</ele>
        <time>2012-05-01T10:08:13Z</time>
      </trkpt>
      <trkpt lat="43.20911" lon="5.44637">
        <ele>18</ele>
        <time>2012-05-01T10:08:23Z</time>
      </trkpt>
      <trkpt lat="43.20908" lon="5.44639">
        <ele>18</ele>
        <time>2012-05-01T10:08:32Z</time>
      </trkpt>
      <trkpt lat="43.20902" lon="5.44633">
        <ele>18</ele>
        <time>2012-05-01T10:08:41Z</time>
      </trkpt>
      <trkpt lat="43.20897" lon="5.44628">
        <ele>17</ele>
        <time>2012-05-01T10:08:50Z</time>
      </trkpt>
      <trkpt lat="43.20888" lon="5.44622">
        <ele>17</ele>
        <time>2012-05-01T10:09:00Z</time>
      </trkpt>
      <trkpt lat="43.20879" lon="5.44622">
        <ele>17</ele>
        <time>2012-05-01T10:09:11Z</time>
      </trkpt>
      <trkpt lat="43.20871" lon="5.44626">
        <ele>17</ele>
        <time>2012-05-01T10:09:21Z</time>
      </trkpt>
      <trkpt lat="43.20866" lon="5.44629">
        <ele>17</ele>
        <time>2012-05-01T10:09:31Z</time>
      </trkpt>
      <trkpt lat="43.20859" lon="5.44637">
        <ele>17</ele>
        <time>2012-05-01T10:09:40Z</time>
      </trkpt>
      <trkpt lat="43.20849" lon="5.44636">
        <ele>17</ele>
        <time>2012-05-01T10:09:50Z</time>
      </trkpt>
      <trkpt lat="43.2084" lon="5.44631">
        <ele>17</ele>
        <time>2012-05-01T10:10:00Z</time>
      </trkpt>
      <trkpt lat="43.20834" lon="5.44624">
        <ele>17</ele>
        <time>2012-05-01T10:10:09Z</time>
      </trkpt>
      <trkpt lat="43.20824" lon="5.44618">
        <ele>17</ele>
        <time>2012-05-01T10:10:18Z</time>
      </trkpt>
      <trkpt lat="43.20816" lon="5.44617">
        <ele>17</ele>
        <time>2012-05-01T10:10:30Z</time>
      </trkpt>
      <trkpt lat="43.20808" lon="5.44615">
        <ele>19</ele>
        <time>2012-05-01T10:10:42Z</time>
      </trkpt>
      <trkpt lat="43.20803" lon="5.44612">
        <ele>20</ele>
        <time>2012-05-01T10:10:51Z</time>
      </trkpt>
      <trkpt lat="43.20802" lon="5.44607">
        <ele>22</ele>
        <time>2012-05-01T10:11:00Z</time>
      </trkpt>
      <trkpt lat="43.20796" lon="5.44605">
        <ele>22</ele>
        <time>2012-05-01T10:11:10Z</time>
      </trkpt>
      <trkpt lat="43.20789" lon="5.44598">
        <ele>22</ele>
        <time>2012-05-01T10:11:20Z</time>
      </trkpt>
      <trkpt lat="43.20785" lon="5.44594">
        <ele>22</ele>
        <time>2012-05-01T10:11:29Z</time>
      </trkpt>
      <trkpt lat="43.20778" lon="5.44593">
        <ele>21</ele>
        <time>2012-05-01T10:11:38Z</time>
      </trkpt>
      <trkpt lat="43.20768" lon="5.44596">
        <ele>18</ele>
        <time>2012-05-01T10:11:48Z</time>
      </trkpt>
      <trkpt lat="43.2076" lon="5.44599">
        <ele>27</ele>
        <time>2012-05-01T10:11:58Z</time>
      </trkpt>
      <trkpt lat="43.20759" lon="5.44593">
        <ele>28</ele>
        <time>2012-05-01T10:12:11Z</time>
      </trkpt>
      <trkpt lat="43.20751" lon="5.44592">
        <ele>30</ele>
        <time>2012-05-01T10:12:21Z</time>
      </trkpt>
      <trkpt lat="43.20747" lon="5.44599">
        <ele>30</ele>
        <time>2012-05-01T10:12:32Z</time>
      </trkpt>
      <trkpt lat="43.20744" lon="5.44602">
        <ele>30</ele>
        <time>2012-05-01T10:12:42Z</time>
      </trkpt>
      <trkpt lat="43.2074" lon="5.44606">
        <ele>31</ele>
        <time>2012-05-01T10:12:52Z</time>
      </trkpt>
      <trkpt lat="43.20732" lon="5.44606">
        <ele>32</ele>
        <time>2012-05-01T10:13:01Z</time>
      </trkpt>
      <trkpt lat="43.20723" lon="5.44605">
        <ele>31</ele>
        <time>2012-05-01T10:13:11Z</time>
      </trkpt>
      <trkpt lat="43.20718" lon="5.44606">
        <ele>31</ele>
        <time>2012-05-01T10:13:20Z</time>
      </trkpt>
      <trkpt lat="43.20716" lon="5.44605">
        <ele>33</ele>
        <time>2012-05-01T10:13:31Z</time>
      </trkpt>
      <trkpt lat="43.20712" lon="5.44607">
        <ele>37</ele>
        <time>2012-05-01T10:13:42Z</time>
      </trkpt>
      <trkpt lat="43.20709" lon="5.44612">
        <ele>44</ele>
        <time>2012-05-01T10:13:52Z</time>
      </trkpt>
      <trkpt lat="43.20707" lon="5.44617">
        <ele>47</ele>
        <time>2012-05-01T10:14:01Z</time>
      </trkpt>
      <trkpt lat="43.20699" lon="5.44615">
        <ele>46</ele>
        <time>2012-05-01T10:14:10Z</time>
      </trkpt>
      <trkpt lat="43.20695" lon="5.44615">
        <ele>46</ele>
        <time>2012-05-01T10:14:19Z</time>
      </trkpt>
      <trkpt lat="43.20691" lon="5.44618">
        <ele>49</ele>
        <time>2012-05-01T10:14:31Z</time>
      </trkpt>
      <trkpt lat="43.20688" lon="5.44621">
        <ele>52</ele>
        <time>2012-05-01T10:14:43Z</time>
      </trkpt>
      <trkpt lat="43.20687" lon="5.44618">
        <ele>54</ele>
        <time>2012-05-01T10:14:52Z</time>
      </trkpt>
      <trkpt lat="43.20686" lon="5.44612">
        <ele>58</ele>
        <time>2012-05-01T10:15:06Z</time>
      </trkpt>
      <trkpt lat="43.2068" lon="5.44612">
        <ele>61</ele>
        <time>2012-05-01T10:15:19Z</time>
      </trkpt>
      <trkpt lat="43.20679" lon="5.44609">
        <ele>62</ele>
        <time>2012-05-01T10:15:30Z</time>
      </trkpt>
      <trkpt lat="43.20675" lon="5.44608">
        <ele>62</ele>
        <time>2012-05-01T10:15:40Z</time>
      </trkpt>
      <trkpt lat="43.2067" lon="5.4461">
        <ele>62</ele>
        <time>2012-05-01T10:15:50Z</time>
      </trkpt>
      <trkpt lat="43.20669" lon="5.44605">
        <ele>61</ele>
        <time>2012-05-01T10:16:02Z</time>
      </trkpt>
      <trkpt lat="43.20668" lon="5.44599">
        <ele>62</ele>
        <time>2012-05-01T10:16:17Z</time>
      </trkpt>
      <trkpt lat="43.20664" lon="5.44606">
        <ele>62</ele>
        <time>2012-05-01T10:16:26Z</time>
      </trkpt>
      <trkpt lat="43.20662" lon="5.44603">
        <ele>64</ele>
        <time>2012-05-01T10:16:35Z</time>
      </trkpt>
      <trkpt lat="43.20661" lon="5.44599">
        <ele>66</ele>
        <time>2012-05-01T10:16:44Z</time>
      </trkpt>
      <trkpt lat="43.20662" lon="5.44595">
        <ele>67</ele>
        <time>2012-05-01T10:16:53Z</time>
      </trkpt>
      <trkpt lat="43.20659" lon="5.44592">
        <ele>71</ele>
        <time>2012-05-01T10:17:04Z</time>
      </trkpt>
      <trkpt lat="43.20654" lon="5.44594">
        <ele>73</ele>
        <time>2012-05-01T10:17:15Z</time>
      </trkpt>
      <trkpt lat="43.2065" lon="5.44592">
        <ele>75</ele>
        <time>2012-05-01T10:17:26Z</time>
      </trkpt>
      <trkpt lat="43.20646" lon="5.44591">
        <ele>77</ele>
        <time>2012-05-01T10:17:36Z</time>
      </trkpt>
      <trkpt lat="43.20641" lon="5.4459">
        <ele>78</ele>
        <time>2012-05-01T10:17:58Z</time>
      </trkpt>
      <trkpt lat="43.20637" lon="5.44592">
        <ele>78</ele>
        <time>2012-05-01T10:18:19Z</time>
      </trkpt>
      <trkpt lat="43.20638" lon="5.44591">
        <ele>78</ele>
        <time>2012-05-01T10:18:36Z</time>
      </trkpt>
      <trkpt lat="43.20639" lon="5.44592">
        <ele>80</ele>
        <time>2012-05-01T10:19:21Z</time>
      </trkpt>
      <trkpt lat="43.20643" lon="5.44591">
        <ele>80</ele>
        <time>2012-05-01T10:19:32Z</time>
      </trkpt>
      <trkpt lat="43.20642" lon="5.44589">
        <ele>80</ele>
        <time>2012-05-01T10:19:47Z</time>
      </trkpt>
      <trkpt lat="43.20641" lon="5.4459">
        <ele>80</ele>
        <time>2012-05-01T10:20:03Z</time>
      </trkpt>
      <trkpt lat="43.20642" lon="5.4459">
        <ele>80</ele>
        <time>2012-05-01T10:20:15Z</time>
      </trkpt>
      <trkpt lat="43.20641" lon="5.44591">
        <ele>80</ele>
        <time>2012-05-01T10:20:49Z</time>
      </trkpt>
      <trkpt lat="43.20639" lon="5.44592">
        <ele>80</ele>
        <time>2012-05-01T10:21:02Z</time>
      </trkpt>
      <trkpt lat="43.20639" lon="5.44593">
        <ele>80</ele>
        <time>2012-05-01T10:21:14Z</time>
      </trkpt>
      <trkpt lat="43.2064" lon="5.44592">
        <ele>80</ele>
        <time>2012-05-01T10:21:28Z</time>
      </trkpt>
      <trkpt lat="43.20641" lon="5.44592">
        <ele>82</ele>
        <time>2012-05-01T10:22:17Z</time>
      </trkpt>
      <trkpt lat="43.20641" lon="5.4459">
        <ele>82</ele>
        <time>2012-05-01T10:22:33Z</time>
      </trkpt>
      <trkpt lat="43.2064" lon="5.44587">
        <ele>82</ele>
        <time>2012-05-01T10:22:44Z</time>
      </trkpt>
      <trkpt lat="43.20639" lon="5.44582">
        <ele>83</ele>
        <time>2012-05-01T10:22:56Z</time>
      </trkpt>
      <trkpt lat="43.20639" lon="5.44577">
        <ele>83</ele>
        <time>2012-05-01T10:23:17Z</time>
      </trkpt>
      <trkpt lat="43.20639" lon="5.44578">
        <ele>83</ele>
        <time>2012-05-01T10:24:03Z</time>
      </trkpt>
      <trkpt lat="43.20638" lon="5.44578">
        <ele>83</ele>
        <time>2012-05-01T10:24:20Z</time>
      </trkpt>
      <trkpt lat="43.20637" lon="5.44576">
        <ele>83</ele>
        <time>2012-05-01T10:24:29Z</time>
      </trkpt>
      <trkpt lat="43.20635" lon="5.4457">
        <ele>84</ele>
        <time>2012-05-01T10:24:39Z</time>
      </trkpt>
      <trkpt lat="43.20635" lon="5.44565">
        <ele>84</ele>
        <time>2012-05-01T10:24:51Z</time>
      </trkpt>
      <trkpt lat="43.2064" lon="5.44563">
        <ele>85</ele>
        <time>2012-05-01T10:25:02Z</time>
      </trkpt>
      <trkpt lat="43.20643" lon="5.44565">
        <ele>86</ele>
        <time>2012-05-01T10:25:12Z</time>
      </trkpt>
      <trkpt lat="43.20644" lon="5.44563">
        <ele>89</ele>
        <time>2012-05-01T10:25:22Z</time>
      </trkpt>
      <trkpt lat="43.20641" lon="5.44556">
        <ele>92</ele>
        <time>2012-05-01T10:25:34Z</time>
      </trkpt>
      <trkpt lat="43.20645" lon="5.44555">
        <ele>94</ele>
        <time>2012-05-01T10:25:45Z</time>
      </trkpt>
      <trkpt lat="43.20647" lon="5.4455">
        <ele>95</ele>
        <time>2012-05-01T10:25:55Z</time>
      </trkpt>
      <trkpt lat="43.20647" lon="5.44544">
        <ele>95</ele>
        <time>2012-05-01T10:26:05Z</time>
      </trkpt>
      <trkpt lat="43.20644" lon="5.44535">
        <ele>96</ele>
        <time>2012-05-01T10:26:15Z</time>
      </trkpt>
      <trkpt lat="43.20642" lon="5.44527">
        <ele>98</ele>
        <time>2012-05-01T10:26:26Z</time>
      </trkpt>
      <trkpt lat="43.20643" lon="5.44522">
        <ele>101</ele>
        <time>2012-05-01T10:26:36Z</time>
      </trkpt>
      <trkpt lat="43.20643" lon="5.44517">
        <ele>103</ele>
        <time>2012-05-01T10:26:46Z</time>
      </trkpt>
      <trkpt lat="43.20644" lon="5.44513">
        <ele>104</ele>
        <time>2012-05-01T10:26:56Z</time>
      </trkpt>
      <trkpt lat="43.20647" lon="5.44514">
        <ele>106</ele>
        <time>2012-05-01T10:27:06Z</time>
      </trkpt>
      <trkpt lat="43.20651" lon="5.44512">
        <ele>106</ele>
        <time>2012-05-01T10:27:15Z</time>
      </trkpt>
      <trkpt lat="43.20652" lon="5.44509">
        <ele>107</ele>
        <time>2012-05-01T10:27:26Z</time>
      </trkpt>
      <trkpt lat="43.20652" lon="5.44501">
        <ele>108</ele>
        <time>2012-05-01T10:27:38Z</time>
      </trkpt>
      <trkpt lat="43.20654" lon="5.44498">
        <ele>109</ele>
        <time>2012-05-01T10:27:48Z</time>
      </trkpt>
      <trkpt lat="43.20655" lon="5.44491">
        <ele>112</ele>
        <time>2012-05-01T10:28:00Z</time>
      </trkpt>
      <trkpt lat="43.20656" lon="5.44488">
        <ele>114</ele>
        <time>2012-05-01T10:28:10Z</time>
      </trkpt>
      <trkpt lat="43.20657" lon="5.44485">
        <ele>116</ele>
        <time>2012-05-01T10:28:19Z</time>
      </trkpt>
      <trkpt lat="43.20659" lon="5.44481">
        <ele>119</ele>
        <time>2012-05-01T10:28:29Z</time>
      </trkpt>
      <trkpt lat="43.20665" lon="5.44482">
        <ele>120</ele>
        <time>2012-05-01T10:28:38Z</time>
      </trkpt>
      <trkpt lat="43.20669" lon="5.44481">
        <ele>123</ele>
        <time>2012-05-01T10:28:51Z</time>
      </trkpt>
      <trkpt lat="43.20673" lon="5.4448">
        <ele>123</ele>
        <time>2012-05-01T10:29:01Z</time>
      </trkpt>
      <trkpt lat="43.20676" lon="5.44478">
        <ele>125</ele>
        <time>2012-05-01T10:29:12Z</time>
      </trkpt>
      <trkpt lat="43.20673" lon="5.44476">
        <ele>127</ele>
        <time>2012-05-01T10:29:21Z</time>
      </trkpt>
      <trkpt lat="43.20671" lon="5.44473">
        <ele>129</ele>
        <time>2012-05-01T10:29:30Z</time>
      </trkpt>
      <trkpt lat="43.20669" lon="5.44465">
        <ele>132</ele>
        <time>2012-05-01T10:29:40Z</time>
      </trkpt>
      <trkpt lat="43.20668" lon="5.44458">
        <ele>136</ele>
        <time>2012-05-01T10:29:51Z</time>
      </trkpt>
      <trkpt lat="43.20671" lon="5.44455">
        <ele>136</ele>
        <time>2012-05-01T10:30:00Z</time>
      </trkpt>
      <trkpt lat="43.20675" lon="5.44455">
        <ele>136</ele>
        <time>2012-05-01T10:30:09Z</time>
      </trkpt>
      <trkpt lat="43.20676" lon="5.44452">
        <ele>137</ele>
        <time>2012-05-01T10:30:20Z</time>
      </trkpt>
      <trkpt lat="43.20676" lon="5.44445">
        <ele>140</ele>
        <time>2012-05-01T10:30:32Z</time>
      </trkpt>
      <trkpt lat="43.20676" lon="5.44439">
        <ele>142</ele>
        <time>2012-05-01T10:30:42Z</time>
      </trkpt>
      <trkpt lat="43.20676" lon="5.44434">
        <ele>144</ele>
        <time>2012-05-01T10:30:53Z</time>
      </trkpt>
      <trkpt lat="43.20678" lon="5.44429">
        <ele>145</ele>
        <time>2012-05-01T10:31:04Z</time>
      </trkpt>
      <trkpt lat="43.20682" lon="5.44431">
        <ele>146</ele>
        <time>2012-05-01T10:31:13Z</time>
      </trkpt>
      <trkpt lat="43.20686" lon="5.44431">
        <ele>148</ele>
        <time>2012-05-01T10:31:24Z</time>
      </trkpt>
      <trkpt lat="43.20688" lon="5.44428">
        <ele>151</ele>
        <time>2012-05-01T10:31:37Z</time>
      </trkpt>
      <trkpt lat="43.20689" lon="5.44427">
        <ele>152</ele>
        <time>2012-05-01T10:31:48Z</time>
      </trkpt>
      <trkpt lat="43.20692" lon="5.44425">
        <ele>153</ele>
        <time>2012-05-01T10:31:59Z</time>
      </trkpt>
      <trkpt lat="43.20694" lon="5.44424">
        <ele>154</ele>
        <time>2012-05-01T10:32:08Z</time>
      </trkpt>
      <trkpt lat="43.20698" lon="5.44424">
        <ele>155</ele>
        <time>2012-05-01T10:32:18Z</time>
      </trkpt>
      <trkpt lat="43.20699" lon="5.44424">
        <ele>155</ele>
        <time>2012-05-01T10:32:27Z</time>
      </trkpt>
      <trkpt lat="43.207" lon="5.44421">
        <ele>159</ele>
        <time>2012-05-01T10:32:38Z</time>
      </trkpt>
      <trkpt lat="43.20699" lon="5.44417">
        <ele>160</ele>
        <time>2012-05-01T10:32:47Z</time>
      </trkpt>
      <trkpt lat="43.20703" lon="5.44416">
        <ele>160</ele>
        <time>2012-05-01T10:32:58Z</time>
      </trkpt>
      <trkpt lat="43.20702" lon="5.44411">
        <ele>162</ele>
        <time>2012-05-01T10:33:10Z</time>
      </trkpt>
      <trkpt lat="43.20702" lon="5.44407">
        <ele>163</ele>
        <time>2012-05-01T10:33:23Z</time>
      </trkpt>
      <trkpt lat="43.20702" lon="5.44404">
        <ele>166</ele>
        <time>2012-05-01T10:33:33Z</time>
      </trkpt>
      <trkpt lat="43.20702" lon="5.44399">
        <ele>168</ele>
        <time>2012-05-01T10:33:46Z</time>
      </trkpt>
      <trkpt lat="43.20703" lon="5.44394">
        <ele>170</ele>
        <time>2012-05-01T10:33:55Z</time>
      </trkpt>
      <trkpt lat="43.20705" lon="5.44395">
        <ele>171</ele>
        <time>2012-05-01T10:34:04Z</time>
      </trkpt>
      <trkpt lat="43.20709" lon="5.44392">
        <ele>173</ele>
        <time>2012-05-01T10:34:18Z</time>
      </trkpt>
      <trkpt lat="43.20715" lon="5.44394">
        <ele>175</ele>
        <time>2012-05-01T10:34:28Z</time>
      </trkpt>
      <trkpt lat="43.20717" lon="5.44394">
        <ele>177</ele>
        <time>2012-05-01T10:34:38Z</time>
      </trkpt>
      <trkpt lat="43.20718" lon="5.44394">
        <ele>179</ele>
        <time>2012-05-01T10:34:49Z</time>
      </trkpt>
      <trkpt lat="43.20717" lon="5.44389">
        <ele>179</ele>
        <time>2012-05-01T10:34:58Z</time>
      </trkpt>
      <trkpt lat="43.20715" lon="5.44384">
        <ele>179</ele>
        <time>2012-05-01T10:35:09Z</time>
      </trkpt>
      <trkpt lat="43.20715" lon="5.44379">
        <ele>180</ele>
        <time>2012-05-01T10:35:18Z</time>
      </trkpt>
      <trkpt lat="43.20715" lon="5.44374">
        <ele>182</ele>
        <time>2012-05-01T10:35:27Z</time>
      </trkpt>
      <trkpt lat="43.20718" lon="5.44374">
        <ele>183</ele>
        <time>2012-05-01T10:35:38Z</time>
      </trkpt>
      <trkpt lat="43.20721" lon="5.44375">
        <ele>183</ele>
        <time>2012-05-01T10:35:48Z</time>
      </trkpt>
      <trkpt lat="43.20724" lon="5.44375">
        <ele>186</ele>
        <time>2012-05-01T10:36:02Z</time>
      </trkpt>
      <trkpt lat="43.20724" lon="5.44372">
        <ele>187</ele>
        <time>2012-05-01T10:36:11Z</time>
      </trkpt>
      <trkpt lat="43.20726" lon="5.44373">
        <ele>189</ele>
        <time>2012-05-01T10:36:20Z</time>
      </trkpt>
      <trkpt lat="43.2073" lon="5.44375">
        <ele>191</ele>
        <time>2012-05-01T10:36:29Z</time>
      </trkpt>
      <trkpt lat="43.20734" lon="5.44377">
        <ele>192</ele>
        <time>2012-05-01T10:36:39Z</time>
      </trkpt>
      <trkpt lat="43.20732" lon="5.44371">
        <ele>194</ele>
        <time>2012-05-01T10:36:48Z</time>
      </trkpt>
      <trkpt lat="43.20734" lon="5.44371">
        <ele>195</ele>
        <time>2012-05-01T10:36:57Z</time>
      </trkpt>
      <trkpt lat="43.20737" lon="5.4437">
        <ele>196</ele>
        <time>2012-05-01T10:37:08Z</time>
      </trkpt>
      <trkpt lat="43.20738" lon="5.44371">
        <ele>197</ele>
        <time>2012-05-01T10:37:23Z</time>
      </trkpt>
      <trkpt lat="43.20741" lon="5.44371">
        <ele>197</ele>
        <time>2012-05-01T10:37:33Z</time>
      </trkpt>
      <trkpt lat="43.20746" lon="5.44374">
        <ele>198</ele>
        <time>2012-05-01T10:37:42Z</time>
      </trkpt>
      <trkpt lat="43.20752" lon="5.44375">
        <ele>200</ele>
        <time>2012-05-01T10:37:53Z</time>
      </trkpt>
      <trkpt lat="43.20758" lon="5.44377">
        <ele>201</ele>
        <time>2012-05-01T10:38:02Z</time>
      </trkpt>
      <trkpt lat="43.20762" lon="5.44378">
        <ele>202</ele>
        <time>2012-05-01T10:38:13Z</time>
      </trkpt>
      <trkpt lat="43.20765" lon="5.44379">
        <ele>204</ele>
        <time>2012-05-01T10:38:24Z</time>
      </trkpt>
      <trkpt lat="43.20766" lon="5.4438">
        <ele>206</ele>
        <time>2012-05-01T10:38:36Z</time>
      </trkpt>
      <trkpt lat="43.20771" lon="5.4438">
        <ele>207</ele>
        <time>2012-05-01T10:38:47Z</time>
      </trkpt>
      <trkpt lat="43.20778" lon="5.44379">
        <ele>208</ele>
        <time>2012-05-01T10:38:57Z</time>
      </trkpt>
      <trkpt lat="43.20781" lon="5.44369">
        <ele>208</ele>
        <time>2012-05-01T10:39:06Z</time>
      </trkpt>
      <trkpt lat="43.20784" lon="5.44363">
        <ele>208</ele>
        <time>2012-05-01T10:39:15Z</time>
      </trkpt>
      <trkpt lat="43.20787" lon="5.44359">
        <ele>208</ele>
        <time>2012-05-01T10:39:24Z</time>
      </trkpt>
      <trkpt lat="43.20789" lon="5.44355">
        <ele>211</ele>
        <time>2012-05-01T10:39:34Z</time>
      </trkpt>
      <trkpt lat="43.20792" lon="5.44351">
        <ele>212</ele>
        <time>2012-05-01T10:39:44Z</time>
      </trkpt>
      <trkpt lat="43.20796" lon="5.44346">
        <ele>214</ele>
        <time>2012-05-01T10:39:54Z</time>
      </trkpt>
      <trkpt lat="43.20798" lon="5.44341">
        <ele>214</ele>
        <time>2012-05-01T10:40:03Z</time>
      </trkpt>
      <trkpt lat="43.20799" lon="5.44334">
        <ele>214</ele>
        <time>2012-05-01T10:40:12Z</time>
      </trkpt>
      <trkpt lat="43.20795" lon="5.44323">
        <ele>214</ele>
        <time>2012-05-01T10:40:22Z</time>
      </trkpt>
      <trkpt lat="43.20796" lon="5.44326">
        <ele>211</ele>
        <time>2012-05-01T10:40:45Z</time>
      </trkpt>
      <trkpt lat="43.20801" lon="5.44329">
        <ele>211</ele>
        <time>2012-05-01T10:40:55Z</time>
      </trkpt>
      <trkpt lat="43.20805" lon="5.44333">
        <ele>211</ele>
        <time>2012-05-01T10:41:06Z</time>
      </trkpt>
      <trkpt lat="43.2081" lon="5.44336">
        <ele>211</ele>
        <time>2012-05-01T10:41:16Z</time>
      </trkpt>
      <trkpt lat="43.20819" lon="5.44336">
        <ele>211</ele>
        <time>2012-05-01T10:41:26Z</time>
      </trkpt>
      <trkpt lat="43.20825" lon="5.44338">
        <ele>211</ele>
        <time>2012-05-01T10:41:35Z</time>
      </trkpt>
      <trkpt lat="43.20833" lon="5.44338">
        <ele>211</ele>
        <time>2012-05-01T10:41:48Z</time>
      </trkpt>
      <trkpt lat="43.2084" lon="5.44333">
        <ele>211</ele>
        <time>2012-05-01T10:41:59Z</time>
      </trkpt>
      <trkpt lat="43.20844" lon="5.44326">
        <ele>210</ele>
        <time>2012-05-01T10:42:08Z</time>
      </trkpt>
      <trkpt lat="43.20849" lon="5.44319">
        <ele>207</ele>
        <time>2012-05-01T10:42:18Z</time>
      </trkpt>
      <trkpt lat="43.20854" lon="5.44313">
        <ele>205</ele>
        <time>2012-05-01T10:42:29Z</time>
      </trkpt>
      <trkpt lat="43.20861" lon="5.4431">
        <ele>205</ele>
        <time>2012-05-01T10:42:39Z</time>
      </trkpt>
      <trkpt lat="43.20869" lon="5.44309">
        <ele>204</ele>
        <time>2012-05-01T10:42:49Z</time>
      </trkpt>
      <trkpt lat="43.20874" lon="5.44306">
        <ele>204</ele>
        <time>2012-05-01T10:42:59Z</time>
      </trkpt>
      <trkpt lat="43.20878" lon="5.44304">
        <ele>202</ele>
        <time>2012-05-01T10:43:52Z</time>
      </trkpt>
      <trkpt lat="43.20876" lon="5.44297">
        <ele>202</ele>
        <time>2012-05-01T10:44:02Z</time>
      </trkpt>
      <trkpt lat="43.20879" lon="5.44288">
        <ele>202</ele>
        <time>2012-05-01T10:44:11Z</time>
      </trkpt>
      <trkpt lat="43.20882" lon="5.44277">
        <ele>202</ele>
        <time>2012-05-01T10:44:21Z</time>
      </trkpt>
      <trkpt lat="43.20888" lon="5.44272">
        <ele>202</ele>
        <time>2012-05-01T10:44:30Z</time>
      </trkpt>
      <trkpt lat="43.20895" lon="5.44263">
        <ele>201</ele>
        <time>2012-05-01T10:44:41Z</time>
      </trkpt>
      <trkpt lat="43.20895" lon="5.44255">
        <ele>201</ele>
        <time>2012-05-01T10:44:50Z</time>
      </trkpt>
      <trkpt lat="43.20895" lon="5.44248">
        <ele>201</ele>
        <time>2012-05-01T10:45:01Z</time>
      </trkpt>
      <trkpt lat="43.20898" lon="5.44234">
        <ele>201</ele>
        <time>2012-05-01T10:45:10Z</time>
      </trkpt>
      <trkpt lat="43.209" lon="5.44222">
        <ele>201</ele>
        <time>2012-05-01T10:45:20Z</time>
      </trkpt>
      <trkpt lat="43.209" lon="5.4421">
        <ele>201</ele>
        <time>2012-05-01T10:45:30Z</time>
      </trkpt>
      <trkpt lat="43.20901" lon="5.44199">
        <ele>201</ele>
        <time>2012-05-01T10:45:41Z</time>
      </trkpt>
      <trkpt lat="43.20904" lon="5.44189">
        <ele>201</ele>
        <time>2012-05-01T10:45:51Z</time>
      </trkpt>
      <trkpt lat="43.20905" lon="5.44182">
        <ele>201</ele>
        <time>2012-05-01T10:46:01Z</time>
      </trkpt>
      <trkpt lat="43.20908" lon="5.44176">
        <ele>201</ele>
        <time>2012-05-01T10:46:11Z</time>
      </trkpt>
      <trkpt lat="43.2091" lon="5.44168">
        <ele>202</ele>
        <time>2012-05-01T10:46:20Z</time>
      </trkpt>
      <trkpt lat="43.2091" lon="5.44159">
        <ele>202</ele>
        <time>2012-05-01T10:46:30Z</time>
      </trkpt>
      <trkpt lat="43.20914" lon="5.44148">
        <ele>202</ele>
        <time>2012-05-01T10:46:41Z</time>
      </trkpt>
      <trkpt lat="43.20915" lon="5.44141">
        <ele>202</ele>
        <time>2012-05-01T10:46:50Z</time>
      </trkpt>
      <trkpt lat="43.20921" lon="5.44133">
        <ele>202</ele>
        <time>2012-05-01T10:47:00Z</time>
      </trkpt>
      <trkpt lat="43.20929" lon="5.44125">
        <ele>202</ele>
        <time>2012-05-01T10:47:10Z</time>
      </trkpt>
      <trkpt lat="43.20934" lon="5.44113">
        <ele>202</ele>
        <time>2012-05-01T10:47:22Z</time>
      </trkpt>
      <trkpt lat="43.20941" lon="5.44106">
        <ele>202</ele>
        <time>2012-05-01T10:47:32Z</time>
      </trkpt>
      <trkpt lat="43.20948" lon="5.441">
        <ele>202</ele>
        <time>2012-05-01T10:47:41Z</time>
      </trkpt>
      <trkpt lat="43.20956" lon="5.44098">
        <ele>202</ele>
        <time>2012-05-01T10:47:51Z</time>
      </trkpt>
      <trkpt lat="43.20962" lon="5.4409">
        <ele>202</ele>
        <time>2012-05-01T10:48:01Z</time>
      </trkpt>
      <trkpt lat="43.20969" lon="5.44081">
        <ele>202</ele>
        <time>2012-05-01T10:48:11Z</time>
      </trkpt>
      <trkpt lat="43.20973" lon="5.44072">
        <ele>202</ele>
        <time>2012-05-01T10:48:21Z</time>
      </trkpt>
      <trkpt lat="43.2098" lon="5.44064">
        <ele>202</ele>
        <time>2012-05-01T10:48:31Z</time>
      </trkpt>
      <trkpt lat="43.20987" lon="5.44059">
        <ele>204</ele>
        <time>2012-05-01T10:48:41Z</time>
      </trkpt>
      <trkpt lat="43.20994" lon="5.44053">
        <ele>206</ele>
        <time>2012-05-01T10:48:51Z</time>
      </trkpt>
      <trkpt lat="43.20999" lon="5.44047">
        <ele>208</ele>
        <time>2012-05-01T10:49:01Z</time>
      </trkpt>
      <trkpt lat="43.21002" lon="5.44039">
        <ele>211</ele>
        <time>2012-05-01T10:49:11Z</time>
      </trkpt>
      <trkpt lat="43.21008" lon="5.44033">
        <ele>212</ele>
        <time>2012-05-01T10:49:22Z</time>
      </trkpt>
      <trkpt lat="43.21013" lon="5.44026">
        <ele>213</ele>
        <time>2012-05-01T10:49:32Z</time>
      </trkpt>
      <trkpt lat="43.21015" lon="5.44018">
        <ele>214</ele>
        <time>2012-05-01T10:49:42Z</time>
      </trkpt>
      <trkpt lat="43.21019" lon="5.44011">
        <ele>216</ele>
        <time>2012-05-01T10:49:52Z</time>
      </trkpt>
      <trkpt lat="43.21026" lon="5.44005">
        <ele>218</ele>
        <time>2012-05-01T10:50:03Z</time>
      </trkpt>
      <trkpt lat="43.2103" lon="5.43997">
        <ele>219</ele>
        <time>2012-05-01T10:50:13Z</time>
      </trkpt>
      <trkpt lat="43.21031" lon="5.43994">
        <ele>223</ele>
        <time>2012-05-01T10:51:05Z</time>
      </trkpt>
      <trkpt lat="43.21032" lon="5.43994">
        <ele>224</ele>
        <time>2012-05-01T10:51:19Z</time>
      </trkpt>
      <trkpt lat="43.21033" lon="5.4399">
        <ele>224</ele>
        <time>2012-05-01T10:51:37Z</time>
      </trkpt>
      <trkpt lat="43.21032" lon="5.43981">
        <ele>224</ele>
        <time>2012-05-01T10:51:46Z</time>
      </trkpt>
      <trkpt lat="43.21034" lon="5.43968">
        <ele>224</ele>
        <time>2012-05-01T10:51:55Z</time>
      </trkpt>
      <trkpt lat="43.21038" lon="5.43954">
        <ele>224</ele>
        <time>2012-05-01T10:52:05Z</time>
      </trkpt>
      <trkpt lat="43.21039" lon="5.43952">
        <ele>225</ele>
        <time>2012-05-01T10:52:50Z</time>
      </trkpt>
      <trkpt lat="43.21041" lon="5.43945">
        <ele>225</ele>
        <time>2012-05-01T10:53:00Z</time>
      </trkpt>
      <trkpt lat="43.21047" lon="5.43938">
        <ele>223</ele>
        <time>2012-05-01T10:53:11Z</time>
      </trkpt>
      <trkpt lat="43.2105" lon="5.4393">
        <ele>221</ele>
        <time>2012-05-01T10:53:21Z</time>
      </trkpt>
      <trkpt lat="43.21053" lon="5.43919">
        <ele>220</ele>
        <time>2012-05-01T10:53:31Z</time>
      </trkpt>
      <trkpt lat="43.21052" lon="5.43912">
        <ele>220</ele>
        <time>2012-05-01T10:53:42Z</time>
      </trkpt>
      <trkpt lat="43.21051" lon="5.43901">
        <ele>220</ele>
        <time>2012-05-01T10:53:51Z</time>
      </trkpt>
      <trkpt lat="43.21051" lon="5.43896">
        <ele>220</ele>
        <time>2012-05-01T10:54:00Z</time>
      </trkpt>
      <trkpt lat="43.21051" lon="5.43886">
        <ele>220</ele>
        <time>2012-05-01T10:54:10Z</time>
      </trkpt>
      <trkpt lat="43.21053" lon="5.43873">
        <ele>219</ele>
        <time>2012-05-01T10:54:20Z</time>
      </trkpt>
      <trkpt lat="43.21056" lon="5.43859">
        <ele>219</ele>
        <time>2012-05-01T10:54:30Z</time>
      </trkpt>
      <trkpt lat="43.21059" lon="5.43847">
        <ele>219</ele>
        <time>2012-05-01T10:54:42Z</time>
      </trkpt>
      <trkpt lat="43.21062" lon="5.43837">
        <ele>219</ele>
        <time>2012-05-01T10:54:51Z</time>
      </trkpt>
      <trkpt lat="43.21066" lon="5.43826">
        <ele>219</ele>
        <time>2012-05-01T10:55:00Z</time>
      </trkpt>
      <trkpt lat="43.2107" lon="5.43815">
        <ele>219</ele>
        <time>2012-05-01T10:55:10Z</time>
      </trkpt>
      <trkpt lat="43.21076" lon="5.43803">
        <ele>219</ele>
        <time>2012-05-01T10:55:20Z</time>
      </trkpt>
      <trkpt lat="43.21081" lon="5.43794">
        <ele>219</ele>
        <time>2012-05-01T10:55:30Z</time>
      </trkpt>
      <trkpt lat="43.21087" lon="5.43788">
        <ele>219</ele>
        <time>2012-05-01T10:55:40Z</time>
      </trkpt>
      <trkpt lat="43.21091" lon="5.43782">
        <ele>219</ele>
        <time>2012-05-01T10:55:49Z</time>
      </trkpt>
      <trkpt lat="43.21099" lon="5.43774">
        <ele>219</ele>
        <time>2012-05-01T10:55:58Z</time>
      </trkpt>
      <trkpt lat="43.21107" lon="5.43766">
        <ele>217</ele>
        <time>2012-05-01T10:56:08Z</time>
      </trkpt>
      <trkpt lat="43.21116" lon="5.43764">
        <ele>216</ele>
        <time>2012-05-01T10:56:18Z</time>
      </trkpt>
      <trkpt lat="43.21125" lon="5.43762">
        <ele>216</ele>
        <time>2012-05-01T10:56:27Z</time>
      </trkpt>
      <trkpt lat="43.21135" lon="5.4376">
        <ele>216</ele>
        <time>2012-05-01T10:56:37Z</time>
      </trkpt>
      <trkpt lat="43.21144" lon="5.43757">
        <ele>216</ele>
        <time>2012-05-01T10:56:46Z</time>
      </trkpt>
      <trkpt lat="43.21152" lon="5.43754">
        <ele>216</ele>
        <time>2012-05-01T10:56:56Z</time>
      </trkpt>
      <trkpt lat="43.21159" lon="5.43751">
        <ele>216</ele>
        <time>2012-05-01T10:57:06Z</time>
      </trkpt>
      <trkpt lat="43.21167" lon="5.43749">
        <ele>216</ele>
        <time>2012-05-01T10:57:15Z</time>
      </trkpt>
      <trkpt lat="43.21173" lon="5.43747">
        <ele>216</ele>
        <time>2012-05-01T10:57:24Z</time>
      </trkpt>
      <trkpt lat="43.21178" lon="5.43744">
        <ele>219</ele>
        <time>2012-05-01T10:57:33Z</time>
      </trkpt>
      <trkpt lat="43.21182" lon="5.43741">
        <ele>221</ele>
        <time>2012-05-01T10:57:42Z</time>
      </trkpt>
      <trkpt lat="43.2118" lon="5.43734">
        <ele>222</ele>
        <time>2012-05-01T10:57:51Z</time>
      </trkpt>
      <trkpt lat="43.21175" lon="5.43727">
        <ele>223</ele>
        <time>2012-05-01T10:58:02Z</time>
      </trkpt>
      <trkpt lat="43.21171" lon="5.4372">
        <ele>223</ele>
        <time>2012-05-01T10:58:11Z</time>
      </trkpt>
      <trkpt lat="43.21168" lon="5.43711">
        <ele>224</ele>
        <time>2012-05-01T10:58:20Z</time>
      </trkpt>
      <trkpt lat="43.21165" lon="5.43702">
        <ele>224</ele>
        <time>2012-05-01T10:58:30Z</time>
      </trkpt>
      <trkpt lat="43.21166" lon="5.4369">
        <ele>224</ele>
        <time>2012-05-01T10:58:40Z</time>
      </trkpt>
      <trkpt lat="43.21165" lon="5.43672">
        <ele>224</ele>
        <time>2012-05-01T10:58:50Z</time>
      </trkpt>
      <trkpt lat="43.21165" lon="5.43658">
        <ele>224</ele>
        <time>2012-05-01T10:59:00Z</time>
      </trkpt>
      <trkpt lat="43.21165" lon="5.43643">
        <ele>224</ele>
        <time>2012-05-01T10:59:10Z</time>
      </trkpt>
      <trkpt lat="43.21167" lon="5.4363">
        <ele>224</ele>
        <time>2012-05-01T10:59:19Z</time>
      </trkpt>
      <trkpt lat="43.21173" lon="5.43616">
        <ele>224</ele>
        <time>2012-05-01T10:59:28Z</time>
      </trkpt>
      <trkpt lat="43.21174" lon="5.43604">
        <ele>224</ele>
        <time>2012-05-01T10:59:38Z</time>
      </trkpt>
      <trkpt lat="43.2118" lon="5.43595">
        <ele>224</ele>
        <time>2012-05-01T10:59:47Z</time>
      </trkpt>
      <trkpt lat="43.21184" lon="5.43585">
        <ele>224</ele>
        <time>2012-05-01T10:59:57Z</time>
      </trkpt>
      <trkpt lat="43.2119" lon="5.43575">
        <ele>225</ele>
        <time>2012-05-01T11:00:07Z</time>
      </trkpt>
      <trkpt lat="43.21192" lon="5.43562">
        <ele>225</ele>
        <time>2012-05-01T11:00:17Z</time>
      </trkpt>
      <trkpt lat="43.21199" lon="5.43553">
        <ele>226</ele>
        <time>2012-05-01T11:00:26Z</time>
      </trkpt>
      <trkpt lat="43.21209" lon="5.43546">
        <ele>226</ele>
        <time>2012-05-01T11:00:36Z</time>
      </trkpt>
      <trkpt lat="43.21218" lon="5.4354">
        <ele>226</ele>
        <time>2012-05-01T11:00:46Z</time>
      </trkpt>
      <trkpt lat="43.21225" lon="5.43534">
        <ele>226</ele>
        <time>2012-05-01T11:00:55Z</time>
      </trkpt>
      <trkpt lat="43.2123" lon="5.43524">
        <ele>226</ele>
        <time>2012-05-01T11:01:05Z</time>
      </trkpt>
      <trkpt lat="43.21235" lon="5.43515">
        <ele>226</ele>
        <time>2012-05-01T11:01:15Z</time>
      </trkpt>
      <trkpt lat="43.21244" lon="5.43507">
        <ele>226</ele>
        <time>2012-05-01T11:01:25Z</time>
      </trkpt>
      <trkpt lat="43.21252" lon="5.43499">
        <ele>226</ele>
        <time>2012-05-01T11:01:34Z</time>
      </trkpt>
      <trkpt lat="43.2126" lon="5.4349">
        <ele>226</ele>
        <time>2012-05-01T11:01:44Z</time>
      </trkpt>
      <trkpt lat="43.21267" lon="5.43481">
        <ele>226</ele>
        <time>2012-05-01T11:01:54Z</time>
      </trkpt>
      <trkpt lat="43.21269" lon="5.4347">
        <ele>226</ele>
        <time>2012-05-01T11:02:03Z</time>
      </trkpt>
      <trkpt lat="43.21273" lon="5.43457">
        <ele>226</ele>
        <time>2012-05-01T11:02:13Z</time>
      </trkpt>
      <trkpt lat="43.2128" lon="5.43444">
        <ele>226</ele>
        <time>2012-05-01T11:02:23Z</time>
      </trkpt>
      <trkpt lat="43.21283" lon="5.43433">
        <ele>225</ele>
        <time>2012-05-01T11:02:32Z</time>
      </trkpt>
      <trkpt lat="43.21282" lon="5.43422">
        <ele>225</ele>
        <time>2012-05-01T11:02:41Z</time>
      </trkpt>
      <trkpt lat="43.21283" lon="5.43407">
        <ele>224</ele>
        <time>2012-05-01T11:02:50Z</time>
      </trkpt>
      <trkpt lat="43.21286" lon="5.43396">
        <ele>224</ele>
        <time>2012-05-01T11:03:00Z</time>
      </trkpt>
      <trkpt lat="43.21288" lon="5.43384">
        <ele>224</ele>
        <time>2012-05-01T11:03:10Z</time>
      </trkpt>
      <trkpt lat="43.21289" lon="5.43372">
        <ele>224</ele>
        <time>2012-05-01T11:03:20Z</time>
      </trkpt>
      <trkpt lat="43.21287" lon="5.43357">
        <ele>223</ele>
        <time>2012-05-01T11:03:30Z</time>
      </trkpt>
      <trkpt lat="43.21284" lon="5.43343">
        <ele>223</ele>
        <time>2012-05-01T11:03:39Z</time>
      </trkpt>
      <trkpt lat="43.2128" lon="5.4333">
        <ele>223</ele>
        <time>2012-05-01T11:03:48Z</time>
      </trkpt>
      <trkpt lat="43.21277" lon="5.43314">
        <ele>223</ele>
        <time>2012-05-01T11:03:58Z</time>
      </trkpt>
      <trkpt lat="43.21274" lon="5.433">
        <ele>223</ele>
        <time>2012-05-01T11:04:08Z</time>
      </trkpt>
      <trkpt lat="43.21267" lon="5.4329">
        <ele>223</ele>
        <time>2012-05-01T11:04:17Z</time>
      </trkpt>
      <trkpt lat="43.21264" lon="5.43279">
        <ele>223</ele>
        <time>2012-05-01T11:04:26Z</time>
      </trkpt>
      <trkpt lat="43.21262" lon="5.43265">
        <ele>223</ele>
        <time>2012-05-01T11:04:36Z</time>
      </trkpt>
      <trkpt lat="43.21261" lon="5.43251">
        <ele>223</ele>
        <time>2012-05-01T11:04:46Z</time>
      </trkpt>
      <trkpt lat="43.21263" lon="5.43237">
        <ele>223</ele>
        <time>2012-05-01T11:04:55Z</time>
      </trkpt>
      <trkpt lat="43.21268" lon="5.43225">
        <ele>223</ele>
        <time>2012-05-01T11:05:04Z</time>
      </trkpt>
      <trkpt lat="43.21268" lon="5.43213">
        <ele>223</ele>
        <time>2012-05-01T11:05:14Z</time>
      </trkpt>
      <trkpt lat="43.21268" lon="5.4321">
        <ele>224</ele>
        <time>2012-05-01T11:05:26Z</time>
      </trkpt>
      <trkpt lat="43.2127" lon="5.43209">
        <ele>226</ele>
        <time>2012-05-01T11:05:51Z</time>
      </trkpt>
      <trkpt lat="43.21273" lon="5.43203">
        <ele>227</ele>
        <time>2012-05-01T11:06:01Z</time>
      </trkpt>
      <trkpt lat="43.21279" lon="5.4319">
        <ele>227</ele>
        <time>2012-05-01T11:06:11Z</time>
      </trkpt>
      <trkpt lat="43.21285" lon="5.43178">
        <ele>227</ele>
        <time>2012-05-01T11:06:20Z</time>
      </trkpt>
      <trkpt lat="43.21286" lon="5.43168">
        <ele>227</ele>
        <time>2012-05-01T11:06:29Z</time>
      </trkpt>
      <trkpt lat="43.2129" lon="5.4316">
        <ele>228</ele>
        <time>2012-05-01T11:06:38Z</time>
      </trkpt>
      <trkpt lat="43.21292" lon="5.43146">
        <ele>228</ele>
        <time>2012-05-01T11:06:47Z</time>
      </trkpt>
      <trkpt lat="43.21302" lon="5.43139">
        <ele>228</ele>
        <time>2012-05-01T11:06:57Z</time>
      </trkpt>
      <trkpt lat="43.21306" lon="5.43127">
        <ele>228</ele>
        <time>2012-05-01T11:07:06Z</time>
      </trkpt>
      <trkpt lat="43.21309" lon="5.43114">
        <ele>228</ele>
        <time>2012-05-01T11:07:16Z</time>
      </trkpt>
      <trkpt lat="43.21316" lon="5.43102">
        <ele>228</ele>
        <time>2012-05-01T11:07:25Z</time>
      </trkpt>
      <trkpt lat="43.21322" lon="5.43087">
        <ele>228</ele>
        <time>2012-05-01T11:07:36Z</time>
      </trkpt>
      <trkpt lat="43.21325" lon="5.43074">
        <ele>228</ele>
        <time>2012-05-01T11:07:46Z</time>
      </trkpt>
      <trkpt lat="43.21325" lon="5.43068">
        <ele>228</ele>
        <time>2012-05-01T11:08:07Z</time>
      </trkpt>
      <trkpt lat="43.21324" lon="5.43069">
        <ele>228</ele>
        <time>2012-05-01T11:08:23Z</time>
      </trkpt>
      <trkpt lat="43.21322" lon="5.43076">
        <ele>228</ele>
        <time>2012-05-01T11:08:33Z</time>
      </trkpt>
      <trkpt lat="43.21321" lon="5.43078">
        <ele>228</ele>
        <time>2012-05-01T11:08:43Z</time>
      </trkpt>
      <trkpt lat="43.21318" lon="5.43087">
        <ele>229</ele>
        <time>2012-05-01T11:08:53Z</time>
      </trkpt>
      <trkpt lat="43.21318" lon="5.4309">
        <ele>229</ele>
        <time>2012-05-01T11:09:02Z</time>
      </trkpt>
      <trkpt lat="43.21322" lon="5.43081">
        <ele>229</ele>
        <time>2012-05-01T11:09:11Z</time>
      </trkpt>
      <trkpt lat="43.21323" lon="5.4307">
        <ele>229</ele>
        <time>2012-05-01T11:09:21Z</time>
      </trkpt>
      <trkpt lat="43.21318" lon="5.43066">
        <ele>229</ele>
        <time>2012-05-01T11:09:30Z</time>
      </trkpt>
      <trkpt lat="43.21318" lon="5.43067">
        <ele>229</ele>
        <time>2012-05-01T11:10:14Z</time>
      </trkpt>
      <trkpt lat="43.21317" lon="5.43069">
        <ele>229</ele>
        <time>2012-05-01T11:11:01Z</time>
      </trkpt>
      <trkpt lat="43.21319" lon="5.43072">
        <ele>229</ele>
        <time>2012-05-01T11:11:10Z</time>
      </trkpt>
      <trkpt lat="43.2132" lon="5.43072">
        <ele>229</ele>
        <time>2012-05-01T11:11:30Z</time>
      </trkpt>
      <trkpt lat="43.21322" lon="5.43071">
        <ele>229</ele>
        <time>2012-05-01T11:12:13Z</time>
      </trkpt>
      <trkpt lat="43.21324" lon="5.43067">
        <ele>229</ele>
        <time>2012-05-01T11:12:23Z</time>
      </trkpt>
      <trkpt lat="43.21329" lon="5.43056">
        <ele>229</ele>
        <time>2012-05-01T11:12:33Z</time>
      </trkpt>
      <trkpt lat="43.21334" lon="5.43045">
        <ele>228</ele>
        <time>2012-05-01T11:12:43Z</time>
      </trkpt>
      <trkpt lat="43.2134" lon="5.43034">
        <ele>227</ele>
        <time>2012-05-01T11:12:52Z</time>
      </trkpt>
      <trkpt lat="43.21345" lon="5.43022">
        <ele>227</ele>
        <time>2012-05-01T11:13:01Z</time>
      </trkpt>
      <trkpt lat="43.21348" lon="5.43011">
        <ele>227</ele>
        <time>2012-05-01T11:13:10Z</time>
      </trkpt>
      <trkpt lat="43.21355" lon="5.43003">
        <ele>227</ele>
        <time>2012-05-01T11:13:20Z</time>
      </trkpt>
      <trkpt lat="43.21358" lon="5.42993">
        <ele>227</ele>
        <time>2012-05-01T11:13:29Z</time>
      </trkpt>
      <trkpt lat="43.21363" lon="5.42984">
        <ele>227</ele>
        <time>2012-05-01T11:13:40Z</time>
      </trkpt>
      <trkpt lat="43.21365" lon="5.42977">
        <ele>227</ele>
        <time>2012-05-01T11:13:49Z</time>
      </trkpt>
      <trkpt lat="43.21367" lon="5.42972">
        <ele>224</ele>
        <time>2012-05-01T11:13:58Z</time>
      </trkpt>
      <trkpt lat="43.21373" lon="5.42964">
        <ele>224</ele>
        <time>2012-05-01T11:14:07Z</time>
      </trkpt>
      <trkpt lat="43.21378" lon="5.42957">
        <ele>224</ele>
        <time>2012-05-01T11:14:16Z</time>
      </trkpt>
      <trkpt lat="43.21385" lon="5.4295">
        <ele>223</ele>
        <time>2012-05-01T11:14:26Z</time>
      </trkpt>
      <trkpt lat="43.2139" lon="5.42943">
        <ele>223</ele>
        <time>2012-05-01T11:14:35Z</time>
      </trkpt>
      <trkpt lat="43.21394" lon="5.42933">
        <ele>223</ele>
        <time>2012-05-01T11:14:44Z</time>
      </trkpt>
      <trkpt lat="43.21397" lon="5.42923">
        <ele>223</ele>
        <time>2012-05-01T11:14:53Z</time>
      </trkpt>
      <trkpt lat="43.21401" lon="5.42908">
        <ele>223</ele>
        <time>2012-05-01T11:15:03Z</time>
      </trkpt>
      <trkpt lat="43.21404" lon="5.42897">
        <ele>223</ele>
        <time>2012-05-01T11:15:12Z</time>
      </trkpt>
      <trkpt lat="43.21407" lon="5.42885">
        <ele>223</ele>
        <time>2012-05-01T11:15:22Z</time>
      </trkpt>
      <trkpt lat="43.21409" lon="5.42873">
        <ele>223</ele>
        <time>2012-05-01T11:15:31Z</time>
      </trkpt>
      <trkpt lat="43.21413" lon="5.42861">
        <ele>223</ele>
        <time>2012-05-01T11:15:41Z</time>
      </trkpt>
      <trkpt lat="43.21415" lon="5.4285">
        <ele>223</ele>
        <time>2012-05-01T11:15:50Z</time>
      </trkpt>
      <trkpt lat="43.21415" lon="5.4284">
        <ele>223</ele>
        <time>2012-05-01T11:16:00Z</time>
      </trkpt>
      <trkpt lat="43.21415" lon="5.42832">
        <ele>223</ele>
        <time>2012-05-01T11:16:12Z</time>
      </trkpt>
      <trkpt lat="43.21416" lon="5.42824">
        <ele>223</ele>
        <time>2012-05-01T11:16:21Z</time>
      </trkpt>
      <trkpt lat="43.21418" lon="5.42816">
        <ele>225</ele>
        <time>2012-05-01T11:16:32Z</time>
      </trkpt>
      <trkpt lat="43.21422" lon="5.42807">
        <ele>225</ele>
        <time>2012-05-01T11:16:41Z</time>
      </trkpt>
      <trkpt lat="43.21426" lon="5.42799">
        <ele>226</ele>
        <time>2012-05-01T11:16:52Z</time>
      </trkpt>
      <trkpt lat="43.21429" lon="5.42793">
        <ele>226</ele>
        <time>2012-05-01T11:17:02Z</time>
      </trkpt>
      <trkpt lat="43.21434" lon="5.42788">
        <ele>226</ele>
        <time>2012-05-01T11:17:13Z</time>
      </trkpt>
      <trkpt lat="43.21438" lon="5.42785">
        <ele>227</ele>
        <time>2012-05-01T11:17:23Z</time>
      </trkpt>
      <trkpt lat="43.21442" lon="5.4278">
        <ele>227</ele>
        <time>2012-05-01T11:17:33Z</time>
      </trkpt>
      <trkpt lat="43.21445" lon="5.42772">
        <ele>232</ele>
        <time>2012-05-01T11:17:45Z</time>
      </trkpt>
      <trkpt lat="43.21446" lon="5.42765">
        <ele>235</ele>
        <time>2012-05-01T11:17:54Z</time>
      </trkpt>
      <trkpt lat="43.21453" lon="5.42761">
        <ele>237</ele>
        <time>2012-05-01T11:18:08Z</time>
      </trkpt>
      <trkpt lat="43.21453" lon="5.42756">
        <ele>240</ele>
        <time>2012-05-01T11:18:35Z</time>
      </trkpt>
      <trkpt lat="43.21452" lon="5.42755">
        <ele>244</ele>
        <time>2012-05-01T11:18:49Z</time>
      </trkpt>
      <trkpt lat="43.21455" lon="5.42757">
        <ele>245</ele>
        <time>2012-05-01T11:18:59Z</time>
      </trkpt>
      <trkpt lat="43.21462" lon="5.42754">
        <ele>247</ele>
        <time>2012-05-01T11:19:08Z</time>
      </trkpt>
      <trkpt lat="43.21471" lon="5.4275">
        <ele>248</ele>
        <time>2012-05-01T11:19:18Z</time>
      </trkpt>
      <trkpt lat="43.21478" lon="5.42746">
        <ele>248</ele>
        <time>2012-05-01T11:19:29Z</time>
      </trkpt>
      <trkpt lat="43.21482" lon="5.42744">
        <ele>248</ele>
        <time>2012-05-01T11:19:38Z</time>
      </trkpt>
      <trkpt lat="43.21487" lon="5.42744">
        <ele>248</ele>
        <time>2012-05-01T11:19:47Z</time>
      </trkpt>
      <trkpt lat="43.21496" lon="5.42742">
        <ele>248</ele>
        <time>2012-05-01T11:19:57Z</time>
      </trkpt>
      <trkpt lat="43.21504" lon="5.42737">
        <ele>246</ele>
        <time>2012-05-01T11:20:06Z</time>
      </trkpt>
      <trkpt lat="43.2151" lon="5.42732">
        <ele>245</ele>
        <time>2012-05-01T11:20:15Z</time>
      </trkpt>
      <trkpt lat="43.21517" lon="5.42724">
        <ele>245</ele>
        <time>2012-05-01T11:20:25Z</time>
      </trkpt>
      <trkpt lat="43.21524" lon="5.42716">
        <ele>244</ele>
        <time>2012-05-01T11:20:34Z</time>
      </trkpt>
      <trkpt lat="43.21529" lon="5.42707">
        <ele>243</ele>
        <time>2012-05-01T11:20:43Z</time>
      </trkpt>
      <trkpt lat="43.21539" lon="5.42701">
        <ele>243</ele>
        <time>2012-05-01T11:20:53Z</time>
      </trkpt>
      <trkpt lat="43.21542" lon="5.42696">
        <ele>243</ele>
        <time>2012-05-01T11:21:02Z</time>
      </trkpt>
      <trkpt lat="43.21548" lon="5.42692">
        <ele>245</ele>
        <time>2012-05-01T11:21:11Z</time>
      </trkpt>
      <trkpt lat="43.2155" lon="5.42687">
        <ele>247</ele>
        <time>2012-05-01T11:21:20Z</time>
      </trkpt>
      <trkpt lat="43.21555" lon="5.42683">
        <ele>249</ele>
        <time>2012-05-01T11:21:29Z</time>
      </trkpt>
      <trkpt lat="43.21561" lon="5.42674">
        <ele>251</ele>
        <time>2012-05-01T11:21:39Z</time>
      </trkpt>
      <trkpt lat="43.21567" lon="5.42664">
        <ele>251</ele>
        <time>2012-05-01T11:21:49Z</time>
      </trkpt>
      <trkpt lat="43.21572" lon="5.42661">
        <ele>251</ele>
        <time>2012-05-01T11:22:01Z</time>
      </trkpt>
      <trkpt lat="43.21578" lon="5.42664">
        <ele>251</ele>
        <time>2012-05-01T11:22:10Z</time>
      </trkpt>
      <trkpt lat="43.21581" lon="5.42667">
        <ele>251</ele>
        <time>2012-05-01T11:22:19Z</time>
      </trkpt>
      <trkpt lat="43.21589" lon="5.42663">
        <ele>253</ele>
        <time>2012-05-01T11:22:29Z</time>
      </trkpt>
      <trkpt lat="43.21595" lon="5.42659">
        <ele>253</ele>
        <time>2012-05-01T11:22:38Z</time>
      </trkpt>
      <trkpt lat="43.216" lon="5.42649">
        <ele>253</ele>
        <time>2012-05-01T11:22:47Z</time>
      </trkpt>
      <trkpt lat="43.21605" lon="5.42642">
        <ele>254</ele>
        <time>2012-05-01T11:22:56Z</time>
      </trkpt>
      <trkpt lat="43.21609" lon="5.42643">
        <ele>255</ele>
        <time>2012-05-01T11:23:06Z</time>
      </trkpt>
      <trkpt lat="43.21609" lon="5.42637">
        <ele>256</ele>
        <time>2012-05-01T11:23:27Z</time>
      </trkpt>
      <trkpt lat="43.21607" lon="5.42641">
        <ele>259</ele>
        <time>2012-05-01T11:24:24Z</time>
      </trkpt>
      <trkpt lat="43.21609" lon="5.4264">
        <ele>259</ele>
        <time>2012-05-01T11:24:33Z</time>
      </trkpt>
      <trkpt lat="43.21613" lon="5.42634">
        <ele>259</ele>
        <time>2012-05-01T11:24:42Z</time>
      </trkpt>
      <trkpt lat="43.21617" lon="5.4263">
        <ele>258</ele>
        <time>2012-05-01T11:24:58Z</time>
      </trkpt>
      <trkpt lat="43.21619" lon="5.42627">
        <ele>258</ele>
        <time>2012-05-01T11:25:13Z</time>
      </trkpt>
      <trkpt lat="43.21619" lon="5.42626">
        <ele>258</ele>
        <time>2012-05-01T11:25:32Z</time>
      </trkpt>
      <trkpt lat="43.21621" lon="5.42625">
        <ele>255</ele>
        <time>2012-05-01T11:26:39Z</time>
      </trkpt>
      <trkpt lat="43.21624" lon="5.42623">
        <ele>254</ele>
        <time>2012-05-01T11:26:50Z</time>
      </trkpt>
      <trkpt lat="43.21629" lon="5.42619">
        <ele>253</ele>
        <time>2012-05-01T11:27:00Z</time>
      </trkpt>
      <trkpt lat="43.21634" lon="5.42612">
        <ele>251</ele>
        <time>2012-05-01T11:27:10Z</time>
      </trkpt>
      <trkpt lat="43.21638" lon="5.426">
        <ele>250</ele>
        <time>2012-05-01T11:27:23Z</time>
      </trkpt>
      <trkpt lat="43.21644" lon="5.42594">
        <ele>247</ele>
        <time>2012-05-01T11:27:34Z</time>
      </trkpt>
      <trkpt lat="43.21653" lon="5.4259">
        <ele>245</ele>
        <time>2012-05-01T11:27:44Z</time>
      </trkpt>
      <trkpt lat="43.21658" lon="5.42585">
        <ele>244</ele>
        <time>2012-05-01T11:27:53Z</time>
      </trkpt>
      <trkpt lat="43.21664" lon="5.42576">
        <ele>244</ele>
        <time>2012-05-01T11:28:04Z</time>
      </trkpt>
      <trkpt lat="43.21671" lon="5.42567">
        <ele>244</ele>
        <time>2012-05-01T11:28:14Z</time>
      </trkpt>
      <trkpt lat="43.21678" lon="5.42568">
        <ele>241</ele>
        <time>2012-05-01T11:28:24Z</time>
      </trkpt>
      <trkpt lat="43.21689" lon="5.42562">
        <ele>240</ele>
        <time>2012-05-01T11:28:35Z</time>
      </trkpt>
      <trkpt lat="43.21697" lon="5.42553">
        <ele>240</ele>
        <time>2012-05-01T11:28:46Z</time>
      </trkpt>
      <trkpt lat="43.21705" lon="5.42545">
        <ele>239</ele>
        <time>2012-05-01T11:28:56Z</time>
      </trkpt>
      <trkpt lat="43.21711" lon="5.42538">
        <ele>239</ele>
        <time>2012-05-01T11:29:05Z</time>
      </trkpt>
      <trkpt lat="43.2172" lon="5.42531">
        <ele>239</ele>
        <time>2012-05-01T11:29:16Z</time>
      </trkpt>
      <trkpt lat="43.21729" lon="5.42524">
        <ele>237</ele>
        <time>2012-05-01T11:29:26Z</time>
      </trkpt>
      <trkpt lat="43.21737" lon="5.42517">
        <ele>234</ele>
        <time>2012-05-01T11:29:36Z</time>
      </trkpt>
      <trkpt lat="43.21744" lon="5.42515">
        <ele>233</ele>
        <time>2012-05-01T11:29:46Z</time>
      </trkpt>
      <trkpt lat="43.21753" lon="5.42506">
        <ele>233</ele>
        <time>2012-05-01T11:29:55Z</time>
      </trkpt>
      <trkpt lat="43.21764" lon="5.42501">
        <ele>233</ele>
        <time>2012-05-01T11:30:04Z</time>
      </trkpt>
      <trkpt lat="43.21768" lon="5.42501">
        <ele>231</ele>
        <time>2012-05-01T11:30:14Z</time>
      </trkpt>
      <trkpt lat="43.21776" lon="5.42498">
        <ele>230</ele>
        <time>2012-05-01T11:30:24Z</time>
      </trkpt>
      <trkpt lat="43.21787" lon="5.42496">
        <ele>230</ele>
        <time>2012-05-01T11:30:35Z</time>
      </trkpt>
      <trkpt lat="43.21797" lon="5.42492">
        <ele>230</ele>
        <time>2012-05-01T11:30:45Z</time>
      </trkpt>
      <trkpt lat="43.21808" lon="5.42491">
        <ele>230</ele>
        <time>2012-05-01T11:30:56Z</time>
      </trkpt>
      <trkpt lat="43.21817" lon="5.42491">
        <ele>230</ele>
        <time>2012-05-01T11:31:05Z</time>
      </trkpt>
      <trkpt lat="43.21827" lon="5.42487">
        <ele>230</ele>
        <time>2012-05-01T11:31:14Z</time>
      </trkpt>
      <trkpt lat="43.21836" lon="5.42478">
        <ele>230</ele>
        <time>2012-05-01T11:31:24Z</time>
      </trkpt>
      <trkpt lat="43.21846" lon="5.42466">
        <ele>230</ele>
        <time>2012-05-01T11:31:35Z</time>
      </trkpt>
      <trkpt lat="43.21848" lon="5.42454">
        <ele>230</ele>
        <time>2012-05-01T11:31:45Z</time>
      </trkpt>
      <trkpt lat="43.21854" lon="5.42442">
        <ele>229</ele>
        <time>2012-05-01T11:31:55Z</time>
      </trkpt>
      <trkpt lat="43.21858" lon="5.42429">
        <ele>228</ele>
        <time>2012-05-01T11:32:05Z</time>
      </trkpt>
      <trkpt lat="43.2186" lon="5.42422">
        <ele>228</ele>
        <time>2012-05-01T11:32:16Z</time>
      </trkpt>
      <trkpt lat="43.21864" lon="5.42412">
        <ele>227</ele>
        <time>2012-05-01T11:32:26Z</time>
      </trkpt>
      <trkpt lat="43.21867" lon="5.42401">
        <ele>224</ele>
        <time>2012-05-01T11:32:35Z</time>
      </trkpt>
      <trkpt lat="43.21871" lon="5.4239">
        <ele>223</ele>
        <time>2012-05-01T11:32:46Z</time>
      </trkpt>
      <trkpt lat="43.21877" lon="5.42379">
        <ele>223</ele>
        <time>2012-05-01T11:32:55Z</time>
      </trkpt>
      <trkpt lat="43.21882" lon="5.42365">
        <ele>222</ele>
        <time>2012-05-01T11:33:06Z</time>
      </trkpt>
      <trkpt lat="43.21884" lon="5.42358">
        <ele>219</ele>
        <time>2012-05-01T11:33:17Z</time>
      </trkpt>
      <trkpt lat="43.2189" lon="5.42349">
        <ele>216</ele>
        <time>2012-05-01T11:33:28Z</time>
      </trkpt>
      <trkpt lat="43.21893" lon="5.42342">
        <ele>214</ele>
        <time>2012-05-01T11:33:37Z</time>
      </trkpt>
      <trkpt lat="43.21901" lon="5.42332">
        <ele>210</ele>
        <time>2012-05-01T11:33:47Z</time>
      </trkpt>
      <trkpt lat="43.21911" lon="5.42324">
        <ele>209</ele>
        <time>2012-05-01T11:33:56Z</time>
      </trkpt>
      <trkpt lat="43.21917" lon="5.42316">
        <ele>209</ele>
        <time>2012-05-01T11:34:06Z</time>
      </trkpt>
      <trkpt lat="43.21916" lon="5.42314">
        <ele>209</ele>
        <time>2012-05-01T11:34:19Z</time>
      </trkpt>
      <trkpt lat="43.21918" lon="5.42312">
        <ele>209</ele>
        <time>2012-05-01T11:34:41Z</time>
      </trkpt>
      <trkpt lat="43.21927" lon="5.42303">
        <ele>209</ele>
        <time>2012-05-01T11:34:51Z</time>
      </trkpt>
      <trkpt lat="43.21933" lon="5.42295">
        <ele>209</ele>
        <time>2012-05-01T11:35:00Z</time>
      </trkpt>
      <trkpt lat="43.21938" lon="5.42284">
        <ele>209</ele>
        <time>2012-05-01T11:35:09Z</time>
      </trkpt>
      <trkpt lat="43.21943" lon="5.4227">
        <ele>209</ele>
        <time>2012-05-01T11:35:19Z</time>
      </trkpt>
      <trkpt lat="43.21951" lon="5.42258">
        <ele>211</ele>
        <time>2012-05-01T11:35:30Z</time>
      </trkpt>
      <trkpt lat="43.21961" lon="5.42254">
        <ele>212</ele>
        <time>2012-05-01T11:35:40Z</time>
      </trkpt>
      <trkpt lat="43.21972" lon="5.42251">
        <ele>212</ele>
        <time>2012-05-01T11:35:51Z</time>
      </trkpt>
      <trkpt lat="43.21983" lon="5.42245">
        <ele>212</ele>
        <time>2012-05-01T11:36:00Z</time>
      </trkpt>
      <trkpt lat="43.21993" lon="5.42238">
        <ele>212</ele>
        <time>2012-05-01T11:36:10Z</time>
      </trkpt>
      <trkpt lat="43.22003" lon="5.42231">
        <ele>212</ele>
        <time>2012-05-01T11:36:20Z</time>
      </trkpt>
      <trkpt lat="43.22014" lon="5.42224">
        <ele>213</ele>
        <time>2012-05-01T11:36:30Z</time>
      </trkpt>
      <trkpt lat="43.22028" lon="5.42221">
        <ele>213</ele>
        <time>2012-05-01T11:36:41Z</time>
      </trkpt>
      <trkpt lat="43.22036" lon="5.42218">
        <ele>213</ele>
        <time>2012-05-01T11:36:50Z</time>
      </trkpt>
      <trkpt lat="43.2205" lon="5.42211">
        <ele>213</ele>
        <time>2012-05-01T11:37:00Z</time>
      </trkpt>
      <trkpt lat="43.22064" lon="5.42201">
        <ele>213</ele>
        <time>2012-05-01T11:37:10Z</time>
      </trkpt>
      <trkpt lat="43.22076" lon="5.42194">
        <ele>213</ele>
        <time>2012-05-01T11:37:20Z</time>
      </trkpt>
      <trkpt lat="43.22089" lon="5.42191">
        <ele>213</ele>
        <time>2012-05-01T11:37:30Z</time>
      </trkpt>
      <trkpt lat="43.22097" lon="5.42188">
        <ele>213</ele>
        <time>2012-05-01T11:37:40Z</time>
      </trkpt>
      <trkpt lat="43.22109" lon="5.42187">
        <ele>213</ele>
        <time>2012-05-01T11:37:50Z</time>
      </trkpt>
      <trkpt lat="43.22117" lon="5.4218">
        <ele>213</ele>
        <time>2012-05-01T11:38:00Z</time>
      </trkpt>
      <trkpt lat="43.22128" lon="5.42179">
        <ele>213</ele>
        <time>2012-05-01T11:38:10Z</time>
      </trkpt>
      <trkpt lat="43.22144" lon="5.42185">
        <ele>213</ele>
        <time>2012-05-01T11:38:21Z</time>
      </trkpt>
      <trkpt lat="43.22155" lon="5.42189">
        <ele>213</ele>
        <time>2012-05-01T11:38:30Z</time>
      </trkpt>
      <trkpt lat="43.22163" lon="5.42196">
        <ele>213</ele>
        <time>2012-05-01T11:38:40Z</time>
      </trkpt>
      <trkpt lat="43.22176" lon="5.422">
        <ele>213</ele>
        <time>2012-05-01T11:38:50Z</time>
      </trkpt>
      <trkpt lat="43.22185" lon="5.42209">
        <ele>212</ele>
        <time>2012-05-01T11:39:00Z</time>
      </trkpt>
      <trkpt lat="43.22195" lon="5.42214">
        <ele>211</ele>
        <time>2012-05-01T11:39:10Z</time>
      </trkpt>
      <trkpt lat="43.22204" lon="5.4222">
        <ele>209</ele>
        <time>2012-05-01T11:39:20Z</time>
      </trkpt>
      <trkpt lat="43.22211" lon="5.42227">
        <ele>208</ele>
        <time>2012-05-01T11:39:30Z</time>
      </trkpt>
      <trkpt lat="43.22218" lon="5.42234">
        <ele>205</ele>
        <time>2012-05-01T11:39:41Z</time>
      </trkpt>
      <trkpt lat="43.22224" lon="5.42243">
        <ele>204</ele>
        <time>2012-05-01T11:39:51Z</time>
      </trkpt>
      <trkpt lat="43.2223" lon="5.42251">
        <ele>203</ele>
        <time>2012-05-01T11:40:01Z</time>
      </trkpt>
      <trkpt lat="43.22235" lon="5.4226">
        <ele>201</ele>
        <time>2012-05-01T11:40:12Z</time>
      </trkpt>
      <trkpt lat="43.22237" lon="5.42271">
        <ele>199</ele>
        <time>2012-05-01T11:40:21Z</time>
      </trkpt>
      <trkpt lat="43.22243" lon="5.42283">
        <ele>198</ele>
        <time>2012-05-01T11:40:30Z</time>
      </trkpt>
      <trkpt lat="43.22253" lon="5.42294">
        <ele>197</ele>
        <time>2012-05-01T11:40:40Z</time>
      </trkpt>
      <trkpt lat="43.22261" lon="5.42303">
        <ele>196</ele>
        <time>2012-05-01T11:40:50Z</time>
      </trkpt>
      <trkpt lat="43.22269" lon="5.42312">
        <ele>196</ele>
        <time>2012-05-01T11:41:00Z</time>
      </trkpt>
      <trkpt lat="43.22277" lon="5.42319">
        <ele>196</ele>
        <time>2012-05-01T11:41:10Z</time>
      </trkpt>
      <trkpt lat="43.22285" lon="5.42329">
        <ele>196</ele>
        <time>2012-05-01T11:41:20Z</time>
      </trkpt>
      <trkpt lat="43.22291" lon="5.42338">
        <ele>196</ele>
        <time>2012-05-01T11:41:30Z</time>
      </trkpt>
      <trkpt lat="43.22298" lon="5.42348">
        <ele>196</ele>
        <time>2012-05-01T11:41:40Z</time>
      </trkpt>
      <trkpt lat="43.223" lon="5.42359">
        <ele>197</ele>
        <time>2012-05-01T11:41:50Z</time>
      </trkpt>
      <trkpt lat="43.22304" lon="5.42372">
        <ele>198</ele>
        <time>2012-05-01T11:42:00Z</time>
      </trkpt>
      <trkpt lat="43.22311" lon="5.42378">
        <ele>199</ele>
        <time>2012-05-01T11:42:10Z</time>
      </trkpt>
      <trkpt lat="43.22319" lon="5.42385">
        <ele>200</ele>
        <time>2012-05-01T11:42:21Z</time>
      </trkpt>
      <trkpt lat="43.22327" lon="5.4239">
        <ele>201</ele>
        <time>2012-05-01T11:42:31Z</time>
      </trkpt>
      <trkpt lat="43.22335" lon="5.42394">
        <ele>203</ele>
        <time>2012-05-01T11:42:41Z</time>
      </trkpt>
      <trkpt lat="43.22343" lon="5.42399">
        <ele>205</ele>
        <time>2012-05-01T11:42:51Z</time>
      </trkpt>
      <trkpt lat="43.2235" lon="5.42402">
        <ele>206</ele>
        <time>2012-05-01T11:43:00Z</time>
      </trkpt>
      <trkpt lat="43.22358" lon="5.42405">
        <ele>207</ele>
        <time>2012-05-01T11:43:10Z</time>
      </trkpt>
      <trkpt lat="43.22363" lon="5.42407">
        <ele>209</ele>
        <time>2012-05-01T11:43:57Z</time>
      </trkpt>
      <trkpt lat="43.22367" lon="5.42406">
        <ele>209</ele>
        <time>2012-05-01T11:44:34Z</time>
      </trkpt>
      <trkpt lat="43.22368" lon="5.42406">
        <ele>211</ele>
        <time>2012-05-01T11:44:59Z</time>
      </trkpt>
      <trkpt lat="43.22369" lon="5.42406">
        <ele>211</ele>
        <time>2012-05-01T11:45:17Z</time>
      </trkpt>
      <trkpt lat="43.22371" lon="5.42406">
        <ele>212</ele>
        <time>2012-05-01T11:45:27Z</time>
      </trkpt>
      <trkpt lat="43.22369" lon="5.42406">
        <ele>213</ele>
        <time>2012-05-01T11:45:55Z</time>
      </trkpt>
      <trkpt lat="43.22373" lon="5.4241">
        <ele>213</ele>
        <time>2012-05-01T11:46:06Z</time>
      </trkpt>
      <trkpt lat="43.22378" lon="5.42412">
        <ele>215</ele>
        <time>2012-05-01T11:46:15Z</time>
      </trkpt>
      <trkpt lat="43.22381" lon="5.42411">
        <ele>217</ele>
        <time>2012-05-01T11:46:25Z</time>
      </trkpt>
      <trkpt lat="43.22388" lon="5.4241">
        <ele>218</ele>
        <time>2012-05-01T11:46:36Z</time>
      </trkpt>
      <trkpt lat="43.22396" lon="5.42405">
        <ele>219</ele>
        <time>2012-05-01T11:46:46Z</time>
      </trkpt>
      <trkpt lat="43.22402" lon="5.42407">
        <ele>219</ele>
        <time>2012-05-01T11:46:55Z</time>
      </trkpt>
      <trkpt lat="43.22406" lon="5.42412">
        <ele>222</ele>
        <time>2012-05-01T11:47:06Z</time>
      </trkpt>
      <trkpt lat="43.2241" lon="5.42416">
        <ele>224</ele>
        <time>2012-05-01T11:47:15Z</time>
      </trkpt>
      <trkpt lat="43.22416" lon="5.42416">
        <ele>226</ele>
        <time>2012-05-01T11:47:26Z</time>
      </trkpt>
      <trkpt lat="43.22417" lon="5.42421">
        <ele>228</ele>
        <time>2012-05-01T11:47:35Z</time>
      </trkpt>
      <trkpt lat="43.22423" lon="5.42426">
        <ele>231</ele>
        <time>2012-05-01T11:47:46Z</time>
      </trkpt>
      <trkpt lat="43.22427" lon="5.4243">
        <ele>233</ele>
        <time>2012-05-01T11:47:56Z</time>
      </trkpt>
      <trkpt lat="43.22435" lon="5.42431">
        <ele>235</ele>
        <time>2012-05-01T11:48:07Z</time>
      </trkpt>
      <trkpt lat="43.22437" lon="5.42432">
        <ele>237</ele>
        <time>2012-05-01T11:48:18Z</time>
      </trkpt>
      <trkpt lat="43.22442" lon="5.42436">
        <ele>238</ele>
        <time>2012-05-01T11:48:27Z</time>
      </trkpt>
      <trkpt lat="43.22447" lon="5.42437">
        <ele>239</ele>
        <time>2012-05-01T11:48:36Z</time>
      </trkpt>
      <trkpt lat="43.22452" lon="5.42441">
        <ele>240</ele>
        <time>2012-05-01T11:48:46Z</time>
      </trkpt>
      <trkpt lat="43.22457" lon="5.42444">
        <ele>241</ele>
        <time>2012-05-01T11:48:56Z</time>
      </trkpt>
      <trkpt lat="43.22459" lon="5.42448">
        <ele>243</ele>
        <time>2012-05-01T11:49:06Z</time>
      </trkpt>
      <trkpt lat="43.22461" lon="5.42453">
        <ele>245</ele>
        <time>2012-05-01T11:49:16Z</time>
      </trkpt>
      <trkpt lat="43.22463" lon="5.42459">
        <ele>247</ele>
        <time>2012-05-01T11:49:26Z</time>
      </trkpt>
      <trkpt lat="43.22468" lon="5.42462">
        <ele>248</ele>
        <time>2012-05-01T11:49:36Z</time>
      </trkpt>
      <trkpt lat="43.22471" lon="5.42466">
        <ele>250</ele>
        <time>2012-05-01T11:49:45Z</time>
      </trkpt>
      <trkpt lat="43.22474" lon="5.4247">
        <ele>253</ele>
        <time>2012-05-01T11:49:59Z</time>
      </trkpt>
      <trkpt lat="43.22476" lon="5.42474">
        <ele>255</ele>
        <time>2012-05-01T11:50:08Z</time>
      </trkpt>
      <trkpt lat="43.22482" lon="5.42477">
        <ele>257</ele>
        <time>2012-05-01T11:50:19Z</time>
      </trkpt>
      <trkpt lat="43.22488" lon="5.4248">
        <ele>257</ele>
        <time>2012-05-01T11:50:28Z</time>
      </trkpt>
      <trkpt lat="43.22493" lon="5.42483">
        <ele>259</ele>
        <time>2012-05-01T11:50:37Z</time>
      </trkpt>
      <trkpt lat="43.22496" lon="5.42487">
        <ele>261</ele>
        <time>2012-05-01T11:50:48Z</time>
      </trkpt>
      <trkpt lat="43.22501" lon="5.42489">
        <ele>264</ele>
        <time>2012-05-01T11:50:57Z</time>
      </trkpt>
      <trkpt lat="43.22504" lon="5.42492">
        <ele>265</ele>
        <time>2012-05-01T11:51:06Z</time>
      </trkpt>
      <trkpt lat="43.22505" lon="5.42498">
        <ele>267</ele>
        <time>2012-05-01T11:51:21Z</time>
      </trkpt>
      <trkpt lat="43.22504" lon="5.42503">
        <ele>268</ele>
        <time>2012-05-01T11:51:30Z</time>
      </trkpt>
      <trkpt lat="43.22508" lon="5.42507">
        <ele>268</ele>
        <time>2012-05-01T11:51:40Z</time>
      </trkpt>
      <trkpt lat="43.22514" lon="5.42513">
        <ele>269</ele>
        <time>2012-05-01T11:51:51Z</time>
      </trkpt>
      <trkpt lat="43.22514" lon="5.42521">
        <ele>269</ele>
        <time>2012-05-01T11:52:00Z</time>
      </trkpt>
      <trkpt lat="43.22512" lon="5.42526">
        <ele>272</ele>
        <time>2012-05-01T11:52:10Z</time>
      </trkpt>
      <trkpt lat="43.22512" lon="5.42531">
        <ele>274</ele>
        <time>2012-05-01T11:52:20Z</time>
      </trkpt>
      <trkpt lat="43.22513" lon="5.42535">
        <ele>276</ele>
        <time>2012-05-01T11:52:43Z</time>
      </trkpt>
      <trkpt lat="43.2251" lon="5.42535">
        <ele>279</ele>
        <time>2012-05-01T11:53:16Z</time>
      </trkpt>
      <trkpt lat="43.22511" lon="5.42534">
        <ele>279</ele>
        <time>2012-05-01T11:53:27Z</time>
      </trkpt>
      <trkpt lat="43.22507" lon="5.42531">
        <ele>279</ele>
        <time>2012-05-01T11:53:37Z</time>
      </trkpt>
      <trkpt lat="43.22507" lon="5.42532">
        <ele>279</ele>
        <time>2012-05-01T11:53:49Z</time>
      </trkpt>
      <trkpt lat="43.22506" lon="5.42536">
        <ele>279</ele>
        <time>2012-05-01T11:54:04Z</time>
      </trkpt>
      <trkpt lat="43.22507" lon="5.42535">
        <ele>279</ele>
        <time>2012-05-01T11:54:13Z</time>
      </trkpt>
      <trkpt lat="43.22509" lon="5.42534">
        <ele>279</ele>
        <time>2012-05-01T11:54:22Z</time>
      </trkpt>
      <trkpt lat="43.2251" lon="5.42534">
        <ele>279</ele>
        <time>2012-05-01T11:55:09Z</time>
      </trkpt>
      <trkpt lat="43.22509" lon="5.42533">
        <ele>279</ele>
        <time>2012-05-01T11:55:32Z</time>
      </trkpt>
      <trkpt lat="43.22508" lon="5.42532">
        <ele>279</ele>
        <time>2012-05-01T11:56:14Z</time>
      </trkpt>
      <trkpt lat="43.22507" lon="5.42532">
        <ele>279</ele>
        <time>2012-05-01T11:56:41Z</time>
      </trkpt>
      <trkpt lat="43.22506" lon="5.4254">
        <ele>279</ele>
        <time>2012-05-01T11:56:50Z</time>
      </trkpt>
      <trkpt lat="43.22504" lon="5.42556">
        <ele>278</ele>
        <time>2012-05-01T11:57:01Z</time>
      </trkpt>
      <trkpt lat="43.22501" lon="5.42569">
        <ele>277</ele>
        <time>2012-05-01T11:57:10Z</time>
      </trkpt>
      <trkpt lat="43.22501" lon="5.42584">
        <ele>277</ele>
        <time>2012-05-01T11:57:20Z</time>
      </trkpt>
      <trkpt lat="43.22501" lon="5.426">
        <ele>277</ele>
        <time>2012-05-01T11:57:30Z</time>
      </trkpt>
      <trkpt lat="43.22501" lon="5.42612">
        <ele>277</ele>
        <time>2012-05-01T11:57:40Z</time>
      </trkpt>
      <trkpt lat="43.22502" lon="5.42626">
        <ele>278</ele>
        <time>2012-05-01T11:57:51Z</time>
      </trkpt>
      <trkpt lat="43.22499" lon="5.42636">
        <ele>278</ele>
        <time>2012-05-01T11:58:01Z</time>
      </trkpt>
      <trkpt lat="43.22499" lon="5.42646">
        <ele>278</ele>
        <time>2012-05-01T11:58:22Z</time>
      </trkpt>
      <trkpt lat="43.22499" lon="5.42647">
        <ele>279</ele>
        <time>2012-05-01T11:58:37Z</time>
      </trkpt>
      <trkpt lat="43.22498" lon="5.42647">
        <ele>280</ele>
        <time>2012-05-01T11:59:03Z</time>
      </trkpt>
      <trkpt lat="43.22498" lon="5.42649">
        <ele>282</ele>
        <time>2012-05-01T11:59:46Z</time>
      </trkpt>
      <trkpt lat="43.22497" lon="5.42649">
        <ele>282</ele>
        <time>2012-05-01T12:00:14Z</time>
      </trkpt>
      <trkpt lat="43.22497" lon="5.42649">
        <ele>282</ele>
        <time>2012-05-01T12:01:56Z</time>
      </trkpt>
      <trkpt lat="43.22505" lon="5.42644">
        <ele>282</ele>
        <time>2012-05-01T12:02:05Z</time>
      </trkpt>
      <trkpt lat="43.2251" lon="5.42639">
        <ele>282</ele>
        <time>2012-05-01T12:02:14Z</time>
      </trkpt>
      <trkpt lat="43.22515" lon="5.42632">
        <ele>281</ele>
        <time>2012-05-01T12:02:24Z</time>
      </trkpt>
      <trkpt lat="43.22514" lon="5.42618">
        <ele>280</ele>
        <time>2012-05-01T12:02:34Z</time>
      </trkpt>
      <trkpt lat="43.22511" lon="5.42605">
        <ele>278</ele>
        <time>2012-05-01T12:02:43Z</time>
      </trkpt>
      <trkpt lat="43.22512" lon="5.42591">
        <ele>278</ele>
        <time>2012-05-01T12:02:52Z</time>
      </trkpt>
      <trkpt lat="43.22513" lon="5.4258">
        <ele>278</ele>
        <time>2012-05-01T12:03:01Z</time>
      </trkpt>
      <trkpt lat="43.22519" lon="5.42569">
        <ele>277</ele>
        <time>2012-05-01T12:03:11Z</time>
      </trkpt>
      <trkpt lat="43.22524" lon="5.42556">
        <ele>276</ele>
        <time>2012-05-01T12:03:21Z</time>
      </trkpt>
      <trkpt lat="43.22529" lon="5.42548">
        <ele>273</ele>
        <time>2012-05-01T12:03:31Z</time>
      </trkpt>
      <trkpt lat="43.22537" lon="5.4254">
        <ele>270</ele>
        <time>2012-05-01T12:03:40Z</time>
      </trkpt>
      <trkpt lat="43.22546" lon="5.42526">
        <ele>268</ele>
        <time>2012-05-01T12:03:50Z</time>
      </trkpt>
      <trkpt lat="43.22545" lon="5.42514">
        <ele>267</ele>
        <time>2012-05-01T12:03:59Z</time>
      </trkpt>
      <trkpt lat="43.22548" lon="5.42505">
        <ele>267</ele>
        <time>2012-05-01T12:04:08Z</time>
      </trkpt>
      <trkpt lat="43.22552" lon="5.42512">
        <ele>267</ele>
        <time>2012-05-01T12:04:17Z</time>
      </trkpt>
      <trkpt lat="43.22555" lon="5.42523">
        <ele>265</ele>
        <time>2012-05-01T12:04:27Z</time>
      </trkpt>
      <trkpt lat="43.22553" lon="5.42534">
        <ele>264</ele>
        <time>2012-05-01T12:04:36Z</time>
      </trkpt>
      <trkpt lat="43.22546" lon="5.42547">
        <ele>263</ele>
        <time>2012-05-01T12:04:45Z</time>
      </trkpt>
      <trkpt lat="43.22542" lon="5.42561">
        <ele>263</ele>
        <time>2012-05-01T12:04:54Z</time>
      </trkpt>
      <trkpt lat="43.22542" lon="5.42575">
        <ele>262</ele>
        <time>2012-05-01T12:05:03Z</time>
      </trkpt>
      <trkpt lat="43.22542" lon="5.42588">
        <ele>261</ele>
        <time>2012-05-01T12:05:12Z</time>
      </trkpt>
      <trkpt lat="43.22543" lon="5.42599">
        <ele>260</ele>
        <time>2012-05-01T12:05:21Z</time>
      </trkpt>
      <trkpt lat="43.22546" lon="5.42614">
        <ele>260</ele>
        <time>2012-05-01T12:05:30Z</time>
      </trkpt>
      <trkpt lat="43.22551" lon="5.42626">
        <ele>260</ele>
        <time>2012-05-01T12:05:40Z</time>
      </trkpt>
      <trkpt lat="43.22554" lon="5.42639">
        <ele>260</ele>
        <time>2012-05-01T12:05:49Z</time>
      </trkpt>
      <trkpt lat="43.22563" lon="5.42643">
        <ele>259</ele>
        <time>2012-05-01T12:05:58Z</time>
      </trkpt>
      <trkpt lat="43.22562" lon="5.42629">
        <ele>259</ele>
        <time>2012-05-01T12:06:07Z</time>
      </trkpt>
      <trkpt lat="43.22559" lon="5.42615">
        <ele>257</ele>
        <time>2012-05-01T12:06:16Z</time>
      </trkpt>
      <trkpt lat="43.22559" lon="5.42605">
        <ele>256</ele>
        <time>2012-05-01T12:06:25Z</time>
      </trkpt>
      <trkpt lat="43.22566" lon="5.42593">
        <ele>256</ele>
        <time>2012-05-01T12:06:34Z</time>
      </trkpt>
      <trkpt lat="43.22571" lon="5.4258">
        <ele>256</ele>
        <time>2012-05-01T12:06:43Z</time>
      </trkpt>
      <trkpt lat="43.22572" lon="5.42569">
        <ele>254</ele>
        <time>2012-05-01T12:06:52Z</time>
      </trkpt>
      <trkpt lat="43.2258" lon="5.4256">
        <ele>254</ele>
        <time>2012-05-01T12:07:01Z</time>
      </trkpt>
      <trkpt lat="43.22582" lon="5.42552">
        <ele>254</ele>
        <time>2012-05-01T12:07:12Z</time>
      </trkpt>
      <trkpt lat="43.22591" lon="5.42541">
        <ele>253</ele>
        <time>2012-05-01T12:07:22Z</time>
      </trkpt>
      <trkpt lat="43.22597" lon="5.4253">
        <ele>250</ele>
        <time>2012-05-01T12:07:31Z</time>
      </trkpt>
      <trkpt lat="43.22605" lon="5.42519">
        <ele>248</ele>
        <time>2012-05-01T12:07:40Z</time>
      </trkpt>
      <trkpt lat="43.22611" lon="5.42506">
        <ele>246</ele>
        <time>2012-05-01T12:07:50Z</time>
      </trkpt>
      <trkpt lat="43.22623" lon="5.42497">
        <ele>244</ele>
        <time>2012-05-01T12:07:59Z</time>
      </trkpt>
      <trkpt lat="43.2263" lon="5.42488">
        <ele>242</ele>
        <time>2012-05-01T12:08:09Z</time>
      </trkpt>
      <trkpt lat="43.22636" lon="5.42478">
        <ele>240</ele>
        <time>2012-05-01T12:08:18Z</time>
      </trkpt>
      <trkpt lat="43.22646" lon="5.42471">
        <ele>240</ele>
        <time>2012-05-01T12:08:27Z</time>
      </trkpt>
      <trkpt lat="43.22655" lon="5.42467">
        <ele>240</ele>
        <time>2012-05-01T12:08:36Z</time>
      </trkpt>
      <trkpt lat="43.22658" lon="5.42463">
        <ele>238</ele>
        <time>2012-05-01T12:08:51Z</time>
      </trkpt>
      <trkpt lat="43.22659" lon="5.42461">
        <ele>238</ele>
        <time>2012-05-01T12:09:06Z</time>
      </trkpt>
      <trkpt lat="43.22666" lon="5.42456">
        <ele>238</ele>
        <time>2012-05-01T12:09:16Z</time>
      </trkpt>
      <trkpt lat="43.22672" lon="5.42454">
        <ele>238</ele>
        <time>2012-05-01T12:09:25Z</time>
      </trkpt>
      <trkpt lat="43.22679" lon="5.42452">
        <ele>238</ele>
        <time>2012-05-01T12:09:35Z</time>
      </trkpt>
      <trkpt lat="43.22688" lon="5.4245">
        <ele>238</ele>
        <time>2012-05-01T12:09:44Z</time>
      </trkpt>
      <trkpt lat="43.22697" lon="5.4245">
        <ele>238</ele>
        <time>2012-05-01T12:09:53Z</time>
      </trkpt>
      <trkpt lat="43.22707" lon="5.42449">
        <ele>238</ele>
        <time>2012-05-01T12:10:02Z</time>
      </trkpt>
      <trkpt lat="43.22716" lon="5.42449">
        <ele>238</ele>
        <time>2012-05-01T12:10:11Z</time>
      </trkpt>
      <trkpt lat="43.22728" lon="5.42448">
        <ele>238</ele>
        <time>2012-05-01T12:10:21Z</time>
      </trkpt>
      <trkpt lat="43.22738" lon="5.4245">
        <ele>238</ele>
        <time>2012-05-01T12:10:31Z</time>
      </trkpt>
      <trkpt lat="43.22747" lon="5.42457">
        <ele>238</ele>
        <time>2012-05-01T12:10:40Z</time>
      </trkpt>
      <trkpt lat="43.22755" lon="5.42466">
        <ele>238</ele>
        <time>2012-05-01T12:10:49Z</time>
      </trkpt>
      <trkpt lat="43.22756" lon="5.42479">
        <ele>238</ele>
        <time>2012-05-01T12:10:58Z</time>
      </trkpt>
      <trkpt lat="43.22754" lon="5.42491">
        <ele>238</ele>
        <time>2012-05-01T12:11:08Z</time>
      </trkpt>
      <trkpt lat="43.22755" lon="5.42505">
        <ele>238</ele>
        <time>2012-05-01T12:11:17Z</time>
      </trkpt>
      <trkpt lat="43.22758" lon="5.42516">
        <ele>238</ele>
        <time>2012-05-01T12:11:26Z</time>
      </trkpt>
      <trkpt lat="43.22765" lon="5.42527">
        <ele>238</ele>
        <time>2012-05-01T12:11:35Z</time>
      </trkpt>
      <trkpt lat="43.22771" lon="5.42539">
        <ele>238</ele>
        <time>2012-05-01T12:11:45Z</time>
      </trkpt>
      <trkpt lat="43.22776" lon="5.42552">
        <ele>237</ele>
        <time>2012-05-01T12:11:55Z</time>
      </trkpt>
      <trkpt lat="43.22783" lon="5.42564">
        <ele>237</ele>
        <time>2012-05-01T12:12:04Z</time>
      </trkpt>
      <trkpt lat="43.22789" lon="5.42578">
        <ele>236</ele>
        <time>2012-05-01T12:12:14Z</time>
      </trkpt>
      <trkpt lat="43.22792" lon="5.42589">
        <ele>234</ele>
        <time>2012-05-01T12:12:23Z</time>
      </trkpt>
      <trkpt lat="43.22795" lon="5.42601">
        <ele>230</ele>
        <time>2012-05-01T12:12:32Z</time>
      </trkpt>
      <trkpt lat="43.228" lon="5.42615">
        <ele>228</ele>
        <time>2012-05-01T12:12:41Z</time>
      </trkpt>
      <trkpt lat="43.22805" lon="5.42627">
        <ele>228</ele>
        <time>2012-05-01T12:12:50Z</time>
      </trkpt>
      <trkpt lat="43.22809" lon="5.4264">
        <ele>228</ele>
        <time>2012-05-01T12:12:59Z</time>
      </trkpt>
      <trkpt lat="43.22813" lon="5.42654">
        <ele>228</ele>
        <time>2012-05-01T12:13:08Z</time>
      </trkpt>
      <trkpt lat="43.22819" lon="5.42667">
        <ele>228</ele>
        <time>2012-05-01T12:13:17Z</time>
      </trkpt>
      <trkpt lat="43.22826" lon="5.42681">
        <ele>228</ele>
        <time>2012-05-01T12:13:27Z</time>
      </trkpt>
      <trkpt lat="43.22832" lon="5.42693">
        <ele>228</ele>
        <time>2012-05-01T12:13:36Z</time>
      </trkpt>
      <trkpt lat="43.22838" lon="5.42704">
        <ele>228</ele>
        <time>2012-05-01T12:13:45Z</time>
      </trkpt>
      <trkpt lat="43.22849" lon="5.42711">
        <ele>228</ele>
        <time>2012-05-01T12:13:55Z</time>
      </trkpt>
      <trkpt lat="43.22861" lon="5.42712">
        <ele>228</ele>
        <time>2012-05-01T12:14:04Z</time>
      </trkpt>
      <trkpt lat="43.22872" lon="5.42712">
        <ele>228</ele>
        <time>2012-05-01T12:14:13Z</time>
      </trkpt>
      <trkpt lat="43.22882" lon="5.42712">
        <ele>228</ele>
        <time>2012-05-01T12:14:23Z</time>
      </trkpt>
      <trkpt lat="43.22892" lon="5.42714">
        <ele>228</ele>
        <time>2012-05-01T12:14:33Z</time>
      </trkpt>
      <trkpt lat="43.22903" lon="5.42718">
        <ele>228</ele>
        <time>2012-05-01T12:14:42Z</time>
      </trkpt>
      <trkpt lat="43.22912" lon="5.4272">
        <ele>224</ele>
        <time>2012-05-01T12:14:51Z</time>
      </trkpt>
      <trkpt lat="43.22922" lon="5.42729">
        <ele>224</ele>
        <time>2012-05-01T12:15:01Z</time>
      </trkpt>
      <trkpt lat="43.22931" lon="5.42735">
        <ele>224</ele>
        <time>2012-05-01T12:15:10Z</time>
      </trkpt>
      <trkpt lat="43.22941" lon="5.42741">
        <ele>221</ele>
        <time>2012-05-01T12:15:20Z</time>
      </trkpt>
      <trkpt lat="43.22952" lon="5.42741">
        <ele>221</ele>
        <time>2012-05-01T12:15:29Z</time>
      </trkpt>
      <trkpt lat="43.22961" lon="5.42738">
        <ele>219</ele>
        <time>2012-05-01T12:15:39Z</time>
      </trkpt>
      <trkpt lat="43.22973" lon="5.42735">
        <ele>218</ele>
        <time>2012-05-01T12:15:48Z</time>
      </trkpt>
      <trkpt lat="43.22984" lon="5.42731">
        <ele>218</ele>
        <time>2012-05-01T12:15:57Z</time>
      </trkpt>
      <trkpt lat="43.22993" lon="5.42727">
        <ele>217</ele>
        <time>2012-05-01T12:16:06Z</time>
      </trkpt>
      <trkpt lat="43.23001" lon="5.42723">
        <ele>216</ele>
        <time>2012-05-01T12:16:15Z</time>
      </trkpt>
      <trkpt lat="43.2301" lon="5.42723">
        <ele>216</ele>
        <time>2012-05-01T12:16:24Z</time>
      </trkpt>
      <trkpt lat="43.23013" lon="5.42722">
        <ele>216</ele>
        <time>2012-05-01T12:16:38Z</time>
      </trkpt>
      <trkpt lat="43.23014" lon="5.42721">
        <ele>216</ele>
        <time>2012-05-01T12:17:11Z</time>
      </trkpt>
      <trkpt lat="43.23015" lon="5.42721">
        <ele>216</ele>
        <time>2012-05-01T12:17:37Z</time>
      </trkpt>
      <trkpt lat="43.23019" lon="5.42719">
        <ele>216</ele>
        <time>2012-05-01T12:17:48Z</time>
      </trkpt>
      <trkpt lat="43.23027" lon="5.42712">
        <ele>216</ele>
        <time>2012-05-01T12:17:57Z</time>
      </trkpt>
      <trkpt lat="43.23037" lon="5.4271">
        <ele>216</ele>
        <time>2012-05-01T12:18:06Z</time>
      </trkpt>
      <trkpt lat="43.23047" lon="5.4271">
        <ele>216</ele>
        <time>2012-05-01T12:18:15Z</time>
      </trkpt>
      <trkpt lat="43.23057" lon="5.42709">
        <ele>216</ele>
        <time>2012-05-01T12:18:24Z</time>
      </trkpt>
      <trkpt lat="43.23068" lon="5.42708">
        <ele>216</ele>
        <time>2012-05-01T12:18:33Z</time>
      </trkpt>
      <trkpt lat="43.23078" lon="5.42708">
        <ele>216</ele>
        <time>2012-05-01T12:18:42Z</time>
      </trkpt>
      <trkpt lat="43.23089" lon="5.42708">
        <ele>216</ele>
        <time>2012-05-01T12:18:51Z</time>
      </trkpt>
      <trkpt lat="43.231" lon="5.42707">
        <ele>216</ele>
        <time>2012-05-01T12:19:00Z</time>
      </trkpt>
      <trkpt lat="43.2311" lon="5.42709">
        <ele>216</ele>
        <time>2012-05-01T12:19:09Z</time>
      </trkpt>
      <trkpt lat="43.23119" lon="5.42715">
        <ele>216</ele>
        <time>2012-05-01T12:19:18Z</time>
      </trkpt>
      <trkpt lat="43.23129" lon="5.42721">
        <ele>216</ele>
        <time>2012-05-01T12:19:27Z</time>
      </trkpt>
      <trkpt lat="43.23139" lon="5.42728">
        <ele>216</ele>
        <time>2012-05-01T12:19:36Z</time>
      </trkpt>
      <trkpt lat="43.23149" lon="5.42728">
        <ele>216</ele>
        <time>2012-05-01T12:19:45Z</time>
      </trkpt>
      <trkpt lat="43.23161" lon="5.42719">
        <ele>216</ele>
        <time>2012-05-01T12:19:55Z</time>
      </trkpt>
      <trkpt lat="43.23172" lon="5.4271">
        <ele>215</ele>
        <time>2012-05-01T12:20:04Z</time>
      </trkpt>
      <trkpt lat="43.23181" lon="5.42699">
        <ele>214</ele>
        <time>2012-05-01T12:20:14Z</time>
      </trkpt>
      <trkpt lat="43.23191" lon="5.42688">
        <ele>214</ele>
        <time>2012-05-01T12:20:23Z</time>
      </trkpt>
      <trkpt lat="43.23198" lon="5.42676">
        <ele>214</ele>
        <time>2012-05-01T12:20:32Z</time>
      </trkpt>
      <trkpt lat="43.23205" lon="5.42665">
        <ele>214</ele>
        <time>2012-05-01T12:20:41Z</time>
      </trkpt>
      <trkpt lat="43.2321" lon="5.42654">
        <ele>211</ele>
        <time>2012-05-01T12:20:50Z</time>
      </trkpt>
      <trkpt lat="43.23215" lon="5.42654">
        <ele>208</ele>
        <time>2012-05-01T12:20:59Z</time>
      </trkpt>
      <trkpt lat="43.23213" lon="5.42663">
        <ele>206</ele>
        <time>2012-05-01T12:21:08Z</time>
      </trkpt>
      <trkpt lat="43.23209" lon="5.42675">
        <ele>206</ele>
        <time>2012-05-01T12:21:17Z</time>
      </trkpt>
      <trkpt lat="43.23203" lon="5.42687">
        <ele>205</ele>
        <time>2012-05-01T12:21:26Z</time>
      </trkpt>
      <trkpt lat="43.23195" lon="5.42702">
        <ele>204</ele>
        <time>2012-05-01T12:21:35Z</time>
      </trkpt>
      <trkpt lat="43.23191" lon="5.42716">
        <ele>203</ele>
        <time>2012-05-01T12:21:44Z</time>
      </trkpt>
      <trkpt lat="43.23182" lon="5.42729">
        <ele>200</ele>
        <time>2012-05-01T12:21:53Z</time>
      </trkpt>
      <trkpt lat="43.2318" lon="5.42746">
        <ele>200</ele>
        <time>2012-05-01T12:22:02Z</time>
      </trkpt>
      <trkpt lat="43.23178" lon="5.42761">
        <ele>195</ele>
        <time>2012-05-01T12:22:11Z</time>
      </trkpt>
      <trkpt lat="43.23176" lon="5.42774">
        <ele>191</ele>
        <time>2012-05-01T12:22:20Z</time>
      </trkpt>
      <trkpt lat="43.23169" lon="5.42787">
        <ele>191</ele>
        <time>2012-05-01T12:22:30Z</time>
      </trkpt>
      <trkpt lat="43.2316" lon="5.42794">
        <ele>191</ele>
        <time>2012-05-01T12:22:40Z</time>
      </trkpt>
      <trkpt lat="43.23156" lon="5.42798">
        <ele>191</ele>
        <time>2012-05-01T12:22:53Z</time>
      </trkpt>
      <trkpt lat="43.23147" lon="5.42801">
        <ele>191</ele>
        <time>2012-05-01T12:23:03Z</time>
      </trkpt>
      <trkpt lat="43.23137" lon="5.42804">
        <ele>191</ele>
        <time>2012-05-01T12:23:13Z</time>
      </trkpt>
      <trkpt lat="43.23125" lon="5.42808">
        <ele>189</ele>
        <time>2012-05-01T12:23:22Z</time>
      </trkpt>
      <trkpt lat="43.23112" lon="5.42809">
        <ele>186</ele>
        <time>2012-05-01T12:23:31Z</time>
      </trkpt>
      <trkpt lat="43.23101" lon="5.42812">
        <ele>183</ele>
        <time>2012-05-01T12:23:40Z</time>
      </trkpt>
      <trkpt lat="43.23089" lon="5.42814">
        <ele>182</ele>
        <time>2012-05-01T12:23:49Z</time>
      </trkpt>
      <trkpt lat="43.23077" lon="5.42816">
        <ele>182</ele>
        <time>2012-05-01T12:23:58Z</time>
      </trkpt>
      <trkpt lat="43.23066" lon="5.42816">
        <ele>182</ele>
        <time>2012-05-01T12:24:08Z</time>
      </trkpt>
      <trkpt lat="43.23055" lon="5.42812">
        <ele>179</ele>
        <time>2012-05-01T12:24:18Z</time>
      </trkpt>
      <trkpt lat="43.23044" lon="5.42807">
        <ele>178</ele>
        <time>2012-05-01T12:24:27Z</time>
      </trkpt>
      <trkpt lat="43.23033" lon="5.4281">
        <ele>178</ele>
        <time>2012-05-01T12:24:36Z</time>
      </trkpt>
      <trkpt lat="43.23025" lon="5.4282">
        <ele>178</ele>
        <time>2012-05-01T12:24:45Z</time>
      </trkpt>
      <trkpt lat="43.23016" lon="5.42831">
        <ele>178</ele>
        <time>2012-05-01T12:24:55Z</time>
      </trkpt>
      <trkpt lat="43.23008" lon="5.42841">
        <ele>178</ele>
        <time>2012-05-01T12:25:04Z</time>
      </trkpt>
      <trkpt lat="43.23004" lon="5.42856">
        <ele>178</ele>
        <time>2012-05-01T12:25:13Z</time>
      </trkpt>
      <trkpt lat="43.22998" lon="5.42871">
        <ele>177</ele>
        <time>2012-05-01T12:25:22Z</time>
      </trkpt>
      <trkpt lat="43.22994" lon="5.42885">
        <ele>177</ele>
        <time>2012-05-01T12:25:31Z</time>
      </trkpt>
      <trkpt lat="43.22992" lon="5.42904">
        <ele>177</ele>
        <time>2012-05-01T12:25:40Z</time>
      </trkpt>
      <trkpt lat="43.22988" lon="5.42919">
        <ele>175</ele>
        <time>2012-05-01T12:25:49Z</time>
      </trkpt>
      <trkpt lat="43.22985" lon="5.42934">
        <ele>175</ele>
        <time>2012-05-01T12:25:58Z</time>
      </trkpt>
      <trkpt lat="43.22982" lon="5.42946">
        <ele>175</ele>
        <time>2012-05-01T12:26:07Z</time>
      </trkpt>
      <trkpt lat="43.22976" lon="5.42959">
        <ele>175</ele>
        <time>2012-05-01T12:26:16Z</time>
      </trkpt>
      <trkpt lat="43.22973" lon="5.42975">
        <ele>175</ele>
        <time>2012-05-01T12:26:25Z</time>
      </trkpt>
      <trkpt lat="43.22979" lon="5.42988">
        <ele>173</ele>
        <time>2012-05-01T12:26:35Z</time>
      </trkpt>
      <trkpt lat="43.22987" lon="5.42999">
        <ele>170</ele>
        <time>2012-05-01T12:26:44Z</time>
      </trkpt>
      <trkpt lat="43.22995" lon="5.43009">
        <ele>167</ele>
        <time>2012-05-01T12:26:53Z</time>
      </trkpt>
      <trkpt lat="43.23003" lon="5.43019">
        <ele>166</ele>
        <time>2012-05-01T12:27:02Z</time>
      </trkpt>
      <trkpt lat="43.23011" lon="5.43031">
        <ele>164</ele>
        <time>2012-05-01T12:27:11Z</time>
      </trkpt>
      <trkpt lat="43.23016" lon="5.43046">
        <ele>163</ele>
        <time>2012-05-01T12:27:20Z</time>
      </trkpt>
      <trkpt lat="43.23021" lon="5.4306">
        <ele>162</ele>
        <time>2012-05-01T12:27:29Z</time>
      </trkpt>
      <trkpt lat="43.23024" lon="5.43074">
        <ele>159</ele>
        <time>2012-05-01T12:27:38Z</time>
      </trkpt>
      <trkpt lat="43.23028" lon="5.43087">
        <ele>159</ele>
        <time>2012-05-01T12:27:47Z</time>
      </trkpt>
      <trkpt lat="43.23031" lon="5.43102">
        <ele>159</ele>
        <time>2012-05-01T12:27:56Z</time>
      </trkpt>
      <trkpt lat="43.23035" lon="5.43117">
        <ele>159</ele>
        <time>2012-05-01T12:28:05Z</time>
      </trkpt>
      <trkpt lat="43.23039" lon="5.43132">
        <ele>159</ele>
        <time>2012-05-01T12:28:15Z</time>
      </trkpt>
      <trkpt lat="43.23042" lon="5.43145">
        <ele>159</ele>
        <time>2012-05-01T12:28:24Z</time>
      </trkpt>
      <trkpt lat="43.23046" lon="5.4316">
        <ele>159</ele>
        <time>2012-05-01T12:28:34Z</time>
      </trkpt>
      <trkpt lat="43.23051" lon="5.43175">
        <ele>159</ele>
        <time>2012-05-01T12:28:44Z</time>
      </trkpt>
      <trkpt lat="43.23057" lon="5.43187">
        <ele>158</ele>
        <time>2012-05-01T12:28:53Z</time>
      </trkpt>
      <trkpt lat="43.23066" lon="5.43197">
        <ele>156</ele>
        <time>2012-05-01T12:29:02Z</time>
      </trkpt>
      <trkpt lat="43.23077" lon="5.43208">
        <ele>156</ele>
        <time>2012-05-01T12:29:11Z</time>
      </trkpt>
      <trkpt lat="43.23088" lon="5.43217">
        <ele>156</ele>
        <time>2012-05-01T12:29:20Z</time>
      </trkpt>
      <trkpt lat="43.23098" lon="5.43224">
        <ele>156</ele>
        <time>2012-05-01T12:29:29Z</time>
      </trkpt>
      <trkpt lat="43.23109" lon="5.43229">
        <ele>156</ele>
        <time>2012-05-01T12:29:38Z</time>
      </trkpt>
      <trkpt lat="43.23119" lon="5.43234">
        <ele>156</ele>
        <time>2012-05-01T12:29:47Z</time>
      </trkpt>
      <trkpt lat="43.23127" lon="5.43239">
        <ele>156</ele>
        <time>2012-05-01T12:29:58Z</time>
      </trkpt>
      <trkpt lat="43.23128" lon="5.4324">
        <ele>156</ele>
        <time>2012-05-01T12:30:07Z</time>
      </trkpt>
      <trkpt lat="43.23134" lon="5.43244">
        <ele>156</ele>
        <time>2012-05-01T12:30:17Z</time>
      </trkpt>
      <trkpt lat="43.23135" lon="5.43244">
        <ele>157</ele>
        <time>2012-05-01T12:30:44Z</time>
      </trkpt>
      <trkpt lat="43.23132" lon="5.43239">
        <ele>161</ele>
        <time>2012-05-01T12:30:58Z</time>
      </trkpt>
      <trkpt lat="43.23134" lon="5.43255">
        <ele>161</ele>
        <time>2012-05-01T12:31:08Z</time>
      </trkpt>
      <trkpt lat="43.23132" lon="5.4327">
        <ele>160</ele>
        <time>2012-05-01T12:31:17Z</time>
      </trkpt>
      <trkpt lat="43.23132" lon="5.43283">
        <ele>159</ele>
        <time>2012-05-01T12:31:26Z</time>
      </trkpt>
      <trkpt lat="43.23136" lon="5.43298">
        <ele>157</ele>
        <time>2012-05-01T12:31:35Z</time>
      </trkpt>
      <trkpt lat="43.23134" lon="5.43314">
        <ele>156</ele>
        <time>2012-05-01T12:31:44Z</time>
      </trkpt>
      <trkpt lat="43.23131" lon="5.43328">
        <ele>155</ele>
        <time>2012-05-01T12:31:53Z</time>
      </trkpt>
      <trkpt lat="43.23129" lon="5.43343">
        <ele>154</ele>
        <time>2012-05-01T12:32:02Z</time>
      </trkpt>
      <trkpt lat="43.23131" lon="5.43359">
        <ele>151</ele>
        <time>2012-05-01T12:32:12Z</time>
      </trkpt>
      <trkpt lat="43.23131" lon="5.43373">
        <ele>149</ele>
        <time>2012-05-01T12:32:22Z</time>
      </trkpt>
      <trkpt lat="43.23131" lon="5.43387">
        <ele>147</ele>
        <time>2012-05-01T12:32:31Z</time>
      </trkpt>
      <trkpt lat="43.23134" lon="5.43402">
        <ele>146</ele>
        <time>2012-05-01T12:32:40Z</time>
      </trkpt>
      <trkpt lat="43.23134" lon="5.43416">
        <ele>144</ele>
        <time>2012-05-01T12:32:49Z</time>
      </trkpt>
      <trkpt lat="43.23131" lon="5.43429">
        <ele>143</ele>
        <time>2012-05-01T12:32:58Z</time>
      </trkpt>
      <trkpt lat="43.23134" lon="5.43444">
        <ele>142</ele>
        <time>2012-05-01T12:33:08Z</time>
      </trkpt>
      <trkpt lat="43.23142" lon="5.43456">
        <ele>140</ele>
        <time>2012-05-01T12:33:17Z</time>
      </trkpt>
      <trkpt lat="43.23147" lon="5.43468">
        <ele>138</ele>
        <time>2012-05-01T12:33:26Z</time>
      </trkpt>
      <trkpt lat="43.23152" lon="5.43484">
        <ele>135</ele>
        <time>2012-05-01T12:33:35Z</time>
      </trkpt>
      <trkpt lat="43.23157" lon="5.43498">
        <ele>132</ele>
        <time>2012-05-01T12:33:44Z</time>
      </trkpt>
      <trkpt lat="43.23169" lon="5.43505">
        <ele>132</ele>
        <time>2012-05-01T12:33:54Z</time>
      </trkpt>
      <trkpt lat="43.23178" lon="5.43509">
        <ele>132</ele>
        <time>2012-05-01T12:34:03Z</time>
      </trkpt>
      <trkpt lat="43.23187" lon="5.43512">
        <ele>132</ele>
        <time>2012-05-01T12:34:12Z</time>
      </trkpt>
      <trkpt lat="43.23195" lon="5.43523">
        <ele>132</ele>
        <time>2012-05-01T12:34:22Z</time>
      </trkpt>
      <trkpt lat="43.232" lon="5.43532">
        <ele>130</ele>
        <time>2012-05-01T12:34:32Z</time>
      </trkpt>
      <trkpt lat="43.23206" lon="5.43544">
        <ele>127</ele>
        <time>2012-05-01T12:34:42Z</time>
      </trkpt>
      <trkpt lat="43.23215" lon="5.43554">
        <ele>125</ele>
        <time>2012-05-01T12:34:52Z</time>
      </trkpt>
      <trkpt lat="43.23221" lon="5.43564">
        <ele>124</ele>
        <time>2012-05-01T12:35:01Z</time>
      </trkpt>
      <trkpt lat="43.23228" lon="5.43574">
        <ele>124</ele>
        <time>2012-05-01T12:35:11Z</time>
      </trkpt>
      <trkpt lat="43.23233" lon="5.43587">
        <ele>124</ele>
        <time>2012-05-01T12:35:21Z</time>
      </trkpt>
      <trkpt lat="43.2323" lon="5.43597">
        <ele>124</ele>
        <time>2012-05-01T12:35:31Z</time>
      </trkpt>
      <trkpt lat="43.23222" lon="5.43599">
        <ele>124</ele>
        <time>2012-05-01T12:35:41Z</time>
      </trkpt>
      <trkpt lat="43.23214" lon="5.43603">
        <ele>124</ele>
        <time>2012-05-01T12:35:50Z</time>
      </trkpt>
      <trkpt lat="43.23206" lon="5.43607">
        <ele>124</ele>
        <time>2012-05-01T12:36:00Z</time>
      </trkpt>
      <trkpt lat="43.23196" lon="5.4361">
        <ele>124</ele>
        <time>2012-05-01T12:36:09Z</time>
      </trkpt>
      <trkpt lat="43.2319" lon="5.43611">
        <ele>124</ele>
        <time>2012-05-01T12:36:20Z</time>
      </trkpt>
      <trkpt lat="43.23182" lon="5.43613">
        <ele>125</ele>
        <time>2012-05-01T12:36:30Z</time>
      </trkpt>
      <trkpt lat="43.23172" lon="5.43612">
        <ele>126</ele>
        <time>2012-05-01T12:36:40Z</time>
      </trkpt>
      <trkpt lat="43.23162" lon="5.43613">
        <ele>127</ele>
        <time>2012-05-01T12:36:50Z</time>
      </trkpt>
      <trkpt lat="43.23153" lon="5.43615">
        <ele>128</ele>
        <time>2012-05-01T12:37:00Z</time>
      </trkpt>
      <trkpt lat="43.2314" lon="5.43618">
        <ele>130</ele>
        <time>2012-05-01T12:37:10Z</time>
      </trkpt>
      <trkpt lat="43.23129" lon="5.4362">
        <ele>130</ele>
        <time>2012-05-01T12:37:20Z</time>
      </trkpt>
      <trkpt lat="43.23116" lon="5.43623">
        <ele>130</ele>
        <time>2012-05-01T12:37:30Z</time>
      </trkpt>
      <trkpt lat="43.2311" lon="5.43626">
        <ele>130</ele>
        <time>2012-05-01T12:37:40Z</time>
      </trkpt>
      <trkpt lat="43.23099" lon="5.43626">
        <ele>130</ele>
        <time>2012-05-01T12:37:50Z</time>
      </trkpt>
      <trkpt lat="43.23087" lon="5.43629">
        <ele>130</ele>
        <time>2012-05-01T12:37:59Z</time>
      </trkpt>
      <trkpt lat="43.23074" lon="5.4363">
        <ele>130</ele>
        <time>2012-05-01T12:38:08Z</time>
      </trkpt>
      <trkpt lat="43.23067" lon="5.43629">
        <ele>130</ele>
        <time>2012-05-01T12:38:15Z</time>
      </trkpt>
    </trkseg>
  </trk>
</gpx>